<?xml version='1.0' encoding='UTF-8'?><gpx version="1.1" creator="JPX - https://github.com/jenetics/jpx" xmlns="http://www.topografix.com/GPX/1/1"><trk><trkseg><trkpt lat="45.3633441" lon="4.1859902"><ele>515.0</ele><time>2026-04-02T11:34:15.288Z</time></trkpt><trkpt lat="45.3632838" lon="4.1860276"><ele>515.0</ele><time>2026-04-02T11:44:35.288Z</time></trkpt><trkpt lat="45.3632441" lon="4.1859417"><ele>515.0</ele><time>2026-04-02T11:44:38.288Z</time></trkpt><trkpt lat="45.3631969" lon="4.1858641"><ele>515.0</ele><time>2026-04-02T11:44:42.288Z</time></trkpt><trkpt lat="45.3631276" lon="4.1858076"><ele>515.0</ele><time>2026-04-02T11:44:52.289Z</time></trkpt><trkpt lat="45.363062" lon="4.1857885"><ele>515.0</ele><time>2026-04-02T11:44:54.288Z</time></trkpt><trkpt lat="45.3629864" lon="4.1858552"><ele>515.0</ele><time>2026-04-02T11:44:57.29Z</time></trkpt><trkpt lat="45.3630029" lon="4.1859622"><ele>515.0</ele><time>2026-04-02T11:44:59.288Z</time></trkpt><trkpt lat="45.3630407" lon="4.186054"><ele>515.0</ele><time>2026-04-02T11:45:01.289Z</time></trkpt><trkpt lat="45.3630793" lon="4.1861489"><ele>515.0</ele><time>2026-04-02T11:45:03.287Z</time></trkpt><trkpt lat="45.3631119" lon="4.1862425"><ele>515.0</ele><time>2026-04-02T11:45:05.288Z</time></trkpt><trkpt lat="45.3631482" lon="4.1863288"><ele>515.0</ele><time>2026-04-02T11:45:07.289Z</time></trkpt><trkpt lat="45.3631772" lon="4.1864155"><ele>515.0</ele><time>2026-04-02T11:45:09.289Z</time></trkpt><trkpt lat="45.3631864" lon="4.1865151"><ele>515.0</ele><time>2026-04-02T11:45:11.288Z</time></trkpt><trkpt lat="45.363187" lon="4.1866291"><ele>512.6666666666666</ele><time>2026-04-02T11:45:13.289Z</time></trkpt><trkpt lat="45.3631706" lon="4.1867625"><ele>510.3333333333333</ele><time>2026-04-02T11:45:15.288Z</time></trkpt><trkpt lat="45.3631528" lon="4.1869286"><ele>508.0</ele><time>2026-04-02T11:45:17.289Z</time></trkpt><trkpt lat="45.3631412" lon="4.1870196"><ele>505.66666666666663</ele><time>2026-04-02T11:45:18.29Z</time></trkpt><trkpt lat="45.363132" lon="4.1871143"><ele>503.3333333333333</ele><time>2026-04-02T11:45:19.289Z</time></trkpt><trkpt lat="45.3631189" lon="4.1872098"><ele>501.0</ele><time>2026-04-02T11:45:20.288Z</time></trkpt><trkpt lat="45.3631074" lon="4.1873061"><ele>499.14285714285717</ele><time>2026-04-02T11:45:21.288Z</time></trkpt><trkpt lat="45.3630887" lon="4.1874039"><ele>497.2857142857142</ele><time>2026-04-02T11:45:22.288Z</time></trkpt><trkpt lat="45.3630741" lon="4.1875043"><ele>495.4285714285714</ele><time>2026-04-02T11:45:23.289Z</time></trkpt><trkpt lat="45.3630616" lon="4.187602"><ele>493.57142857142856</ele><time>2026-04-02T11:45:24.289Z</time></trkpt><trkpt lat="45.363049" lon="4.1876982"><ele>491.71428571428567</ele><time>2026-04-02T11:45:25.29Z</time></trkpt><trkpt lat="45.3630286" lon="4.1878008"><ele>489.8571428571428</ele><time>2026-04-02T11:45:26.289Z</time></trkpt><trkpt lat="45.3630071" lon="4.187902"><ele>487.99999999999994</ele><time>2026-04-02T11:45:27.288Z</time></trkpt><trkpt lat="45.3629922" lon="4.188005"><ele>486.49999999999994</ele><time>2026-04-02T11:45:28.289Z</time></trkpt><trkpt lat="45.362995" lon="4.1881159"><ele>485.0</ele><time>2026-04-02T11:45:29.289Z</time></trkpt><trkpt lat="45.3630055" lon="4.1882267"><ele>483.5</ele><time>2026-04-02T11:45:30.288Z</time></trkpt><trkpt lat="45.3630228" lon="4.1883354"><ele>482.0</ele><time>2026-04-02T11:45:31.288Z</time></trkpt><trkpt lat="45.3630436" lon="4.1884463"><ele>480.49999999999994</ele><time>2026-04-02T11:45:32.289Z</time></trkpt><trkpt lat="45.3630651" lon="4.188556"><ele>479.0</ele><time>2026-04-02T11:45:33.288Z</time></trkpt><trkpt lat="45.3630894" lon="4.1886612"><ele>479.0</ele><time>2026-04-02T11:45:34.288Z</time></trkpt><trkpt lat="45.3631117" lon="4.1887654"><ele>479.0</ele><time>2026-04-02T11:45:35.289Z</time></trkpt><trkpt lat="45.3631342" lon="4.1888668"><ele>479.0</ele><time>2026-04-02T11:45:36.289Z</time></trkpt><trkpt lat="45.3631549" lon="4.1889655"><ele>479.0</ele><time>2026-04-02T11:45:37.288Z</time></trkpt><trkpt lat="45.3631754" lon="4.1890618"><ele>479.0</ele><time>2026-04-02T11:45:38.29Z</time></trkpt><trkpt lat="45.3631906" lon="4.1891666"><ele>479.0</ele><time>2026-04-02T11:45:39.289Z</time></trkpt><trkpt lat="45.3632014" lon="4.1892681"><ele>479.0</ele><time>2026-04-02T11:45:40.288Z</time></trkpt><trkpt lat="45.3632052" lon="4.1893723"><ele>476.99999999999994</ele><time>2026-04-02T11:45:41.289Z</time></trkpt><trkpt lat="45.3632104" lon="4.1894791"><ele>475.0</ele><time>2026-04-02T11:45:42.287Z</time></trkpt><trkpt lat="45.3632087" lon="4.1895818"><ele>473.0</ele><time>2026-04-02T11:45:43.289Z</time></trkpt><trkpt lat="45.3632041" lon="4.1896781"><ele>471.0</ele><time>2026-04-02T11:45:44.289Z</time></trkpt><trkpt lat="45.3631966" lon="4.1897676"><ele>468.99999999999994</ele><time>2026-04-02T11:45:45.288Z</time></trkpt><trkpt lat="45.3631742" lon="4.1899251"><ele>467.0</ele><time>2026-04-02T11:45:47.288Z</time></trkpt><trkpt lat="45.3631689" lon="4.1900603"><ele>464.6</ele><time>2026-04-02T11:45:49.287Z</time></trkpt><trkpt lat="45.363237" lon="4.1901624"><ele>462.20000000000005</ele><time>2026-04-02T11:45:51.288Z</time></trkpt><trkpt lat="45.3633412" lon="4.1901875"><ele>459.8</ele><time>2026-04-02T11:45:53.29Z</time></trkpt><trkpt lat="45.3634574" lon="4.1901794"><ele>457.4</ele><time>2026-04-02T11:45:55.288Z</time></trkpt><trkpt lat="45.3635833" lon="4.1901603"><ele>455.0</ele><time>2026-04-02T11:45:57.289Z</time></trkpt><trkpt lat="45.3636513" lon="4.1901557"><ele>455.0</ele><time>2026-04-02T11:45:58.29Z</time></trkpt><trkpt lat="45.3637144" lon="4.1901514"><ele>455.0</ele><time>2026-04-02T11:45:59.29Z</time></trkpt><trkpt lat="45.3638394" lon="4.1901662"><ele>455.0</ele><time>2026-04-02T11:46:01.289Z</time></trkpt><trkpt lat="45.3639494" lon="4.1902204"><ele>455.0</ele><time>2026-04-02T11:46:03.289Z</time></trkpt><trkpt lat="45.3640557" lon="4.1903"><ele>455.0</ele><time>2026-04-02T11:46:05.288Z</time></trkpt><trkpt lat="45.3641189" lon="4.190435"><ele>455.3333333333333</ele><time>2026-04-02T11:46:07.288Z</time></trkpt><trkpt lat="45.364099" lon="4.1905817"><ele>455.66666666666663</ele><time>2026-04-02T11:46:09.288Z</time></trkpt><trkpt lat="45.3640425" lon="4.1907259"><ele>456.0</ele><time>2026-04-02T11:46:11.289Z</time></trkpt><trkpt lat="45.3640018" lon="4.1907969"><ele>456.33333333333337</ele><time>2026-04-02T11:46:12.289Z</time></trkpt><trkpt lat="45.3639552" lon="4.1908739"><ele>456.6666666666667</ele><time>2026-04-02T11:46:13.289Z</time></trkpt><trkpt lat="45.3639029" lon="4.1909585"><ele>457.0</ele><time>2026-04-02T11:46:14.288Z</time></trkpt><trkpt lat="45.3638529" lon="4.1910404"><ele>455.50000000000006</ele><time>2026-04-02T11:46:15.287Z</time></trkpt><trkpt lat="45.3637992" lon="4.1911285"><ele>454.0</ele><time>2026-04-02T11:46:16.288Z</time></trkpt><trkpt lat="45.3637484" lon="4.1912189"><ele>452.5</ele><time>2026-04-02T11:46:17.289Z</time></trkpt><trkpt lat="45.3636899" lon="4.1913063"><ele>451.0</ele><time>2026-04-02T11:46:18.288Z</time></trkpt><trkpt lat="45.3636282" lon="4.1913879"><ele>449.50000000000006</ele><time>2026-04-02T11:46:19.289Z</time></trkpt><trkpt lat="45.3635652" lon="4.1914613"><ele>448.0</ele><time>2026-04-02T11:46:20.289Z</time></trkpt><trkpt lat="45.3635016" lon="4.1915403"><ele>448.00000000000006</ele><time>2026-04-02T11:46:21.288Z</time></trkpt><trkpt lat="45.3634496" lon="4.1916014"><ele>448.0</ele><time>2026-04-02T11:46:22.29Z</time></trkpt><trkpt lat="45.3633896" lon="4.1916752"><ele>448.0</ele><time>2026-04-02T11:46:24.29Z</time></trkpt><trkpt lat="45.3633435" lon="4.1917471"><ele>448.0</ele><time>2026-04-02T11:46:30.288Z</time></trkpt><trkpt lat="45.363297" lon="4.1918198"><ele>448.00000000000006</ele><time>2026-04-02T11:46:32.289Z</time></trkpt><trkpt lat="45.363251" lon="4.1919431"><ele>448.0</ele><time>2026-04-02T11:46:34.287Z</time></trkpt><trkpt lat="45.3632292" lon="4.1920388"><ele>448.00000000000006</ele><time>2026-04-02T11:46:35.289Z</time></trkpt><trkpt lat="45.3631973" lon="4.1921456"><ele>448.0</ele><time>2026-04-02T11:46:36.289Z</time></trkpt><trkpt lat="45.3631658" lon="4.1922474"><ele>448.0</ele><time>2026-04-02T11:46:37.289Z</time></trkpt><trkpt lat="45.3631323" lon="4.1923352"><ele>448.0</ele><time>2026-04-02T11:46:38.288Z</time></trkpt><trkpt lat="45.3630755" lon="4.1924785"><ele>448.00000000000006</ele><time>2026-04-02T11:46:40.289Z</time></trkpt><trkpt lat="45.3630399" lon="4.1925867"><ele>448.0</ele><time>2026-04-02T11:46:42.287Z</time></trkpt><trkpt lat="45.3630126" lon="4.1927057"><ele>447.6666666666667</ele><time>2026-04-02T11:46:44.29Z</time></trkpt><trkpt lat="45.3630667" lon="4.1928019"><ele>447.33333333333337</ele><time>2026-04-02T11:46:46.289Z</time></trkpt><trkpt lat="45.3631618" lon="4.1927984"><ele>447.0</ele><time>2026-04-02T11:46:48.288Z</time></trkpt><trkpt lat="45.3632216" lon="4.1927521"><ele>446.66666666666663</ele><time>2026-04-02T11:46:49.29Z</time></trkpt><trkpt lat="45.3632866" lon="4.1927181"><ele>446.3333333333333</ele><time>2026-04-02T11:46:50.289Z</time></trkpt><trkpt lat="45.3633526" lon="4.1926826"><ele>446.0</ele><time>2026-04-02T11:46:51.288Z</time></trkpt><trkpt lat="45.3634291" lon="4.1926542"><ele>445.99999999999994</ele><time>2026-04-02T11:46:52.29Z</time></trkpt><trkpt lat="45.3635095" lon="4.1926187"><ele>446.0</ele><time>2026-04-02T11:46:53.287Z</time></trkpt><trkpt lat="45.36359" lon="4.1925835"><ele>446.0</ele><time>2026-04-02T11:46:54.29Z</time></trkpt><trkpt lat="45.3636734" lon="4.1925497"><ele>446.0</ele><time>2026-04-02T11:46:55.289Z</time></trkpt><trkpt lat="45.3637541" lon="4.1925104"><ele>445.99999999999994</ele><time>2026-04-02T11:46:56.288Z</time></trkpt><trkpt lat="45.3638365" lon="4.1924752"><ele>446.0</ele><time>2026-04-02T11:46:57.288Z</time></trkpt><trkpt lat="45.3639216" lon="4.1924405"><ele>445.8</ele><time>2026-04-02T11:46:58.29Z</time></trkpt><trkpt lat="45.3640114" lon="4.1924051"><ele>445.6</ele><time>2026-04-02T11:46:59.289Z</time></trkpt><trkpt lat="45.3641042" lon="4.1923667"><ele>445.4</ele><time>2026-04-02T11:47:00.289Z</time></trkpt><trkpt lat="45.3641992" lon="4.1923318"><ele>445.2</ele><time>2026-04-02T11:47:01.29Z</time></trkpt><trkpt lat="45.3642992" lon="4.192295"><ele>445.0</ele><time>2026-04-02T11:47:02.289Z</time></trkpt><trkpt lat="45.3644023" lon="4.1922591"><ele>446.2</ele><time>2026-04-02T11:47:03.288Z</time></trkpt><trkpt lat="45.3645083" lon="4.1922277"><ele>447.4</ele><time>2026-04-02T11:47:04.289Z</time></trkpt><trkpt lat="45.3646167" lon="4.1921937"><ele>448.6</ele><time>2026-04-02T11:47:05.289Z</time></trkpt><trkpt lat="45.3647286" lon="4.1921551"><ele>449.8</ele><time>2026-04-02T11:47:06.289Z</time></trkpt><trkpt lat="45.3648396" lon="4.1921174"><ele>451.0</ele><time>2026-04-02T11:47:07.289Z</time></trkpt><trkpt lat="45.3649521" lon="4.1920859"><ele>451.0</ele><time>2026-04-02T11:47:08.288Z</time></trkpt><trkpt lat="45.3650638" lon="4.1920566"><ele>451.0</ele><time>2026-04-02T11:47:09.288Z</time></trkpt><trkpt lat="45.3651792" lon="4.1920316"><ele>451.0</ele><time>2026-04-02T11:47:10.289Z</time></trkpt><trkpt lat="45.3652972" lon="4.1920118"><ele>451.0</ele><time>2026-04-02T11:47:11.289Z</time></trkpt><trkpt lat="45.365419" lon="4.191999"><ele>450.75</ele><time>2026-04-02T11:47:12.289Z</time></trkpt><trkpt lat="45.3655427" lon="4.1919886"><ele>450.5</ele><time>2026-04-02T11:47:13.289Z</time></trkpt><trkpt lat="45.3656609" lon="4.1919843"><ele>450.25</ele><time>2026-04-02T11:47:14.288Z</time></trkpt><trkpt lat="45.3657786" lon="4.1919887"><ele>450.0</ele><time>2026-04-02T11:47:15.288Z</time></trkpt><trkpt lat="45.365899" lon="4.1919998"><ele>450.0</ele><time>2026-04-02T11:47:16.289Z</time></trkpt><trkpt lat="45.366021" lon="4.1920102"><ele>450.0</ele><time>2026-04-02T11:47:17.288Z</time></trkpt><trkpt lat="45.366149" lon="4.1920268"><ele>450.0</ele><time>2026-04-02T11:47:18.29Z</time></trkpt><trkpt lat="45.3662749" lon="4.1920516"><ele>450.0</ele><time>2026-04-02T11:47:19.289Z</time></trkpt><trkpt lat="45.3663977" lon="4.1920794"><ele>449.8</ele><time>2026-04-02T11:47:20.288Z</time></trkpt><trkpt lat="45.366511" lon="4.1921066"><ele>449.6</ele><time>2026-04-02T11:47:21.288Z</time></trkpt><trkpt lat="45.3666173" lon="4.192141"><ele>449.4</ele><time>2026-04-02T11:47:22.29Z</time></trkpt><trkpt lat="45.3667257" lon="4.1921807"><ele>449.2</ele><time>2026-04-02T11:47:23.288Z</time></trkpt><trkpt lat="45.3668353" lon="4.1922175"><ele>449.0</ele><time>2026-04-02T11:47:24.289Z</time></trkpt><trkpt lat="45.3669479" lon="4.1922519"><ele>449.0</ele><time>2026-04-02T11:47:25.288Z</time></trkpt><trkpt lat="45.3670581" lon="4.1922868"><ele>449.0</ele><time>2026-04-02T11:47:26.288Z</time></trkpt><trkpt lat="45.3671707" lon="4.1923284"><ele>449.0</ele><time>2026-04-02T11:47:27.288Z</time></trkpt><trkpt lat="45.3672784" lon="4.1923731"><ele>449.0</ele><time>2026-04-02T11:47:28.289Z</time></trkpt><trkpt lat="45.3673821" lon="4.192422"><ele>448.2</ele><time>2026-04-02T11:47:29.288Z</time></trkpt><trkpt lat="45.367485" lon="4.1924685"><ele>447.4</ele><time>2026-04-02T11:47:30.288Z</time></trkpt><trkpt lat="45.3675913" lon="4.1925139"><ele>446.6</ele><time>2026-04-02T11:47:31.288Z</time></trkpt><trkpt lat="45.3676991" lon="4.1925578"><ele>445.8</ele><time>2026-04-02T11:47:32.29Z</time></trkpt><trkpt lat="45.3678086" lon="4.1926019"><ele>445.0</ele><time>2026-04-02T11:47:33.289Z</time></trkpt><trkpt lat="45.3679197" lon="4.1926558"><ele>445.6</ele><time>2026-04-02T11:47:34.289Z</time></trkpt><trkpt lat="45.3680284" lon="4.1926992"><ele>446.2</ele><time>2026-04-02T11:47:35.29Z</time></trkpt><trkpt lat="45.3681353" lon="4.1927424"><ele>446.79999999999995</ele><time>2026-04-02T11:47:36.289Z</time></trkpt><trkpt lat="45.3682419" lon="4.1927905"><ele>447.4</ele><time>2026-04-02T11:47:37.29Z</time></trkpt><trkpt lat="45.3683463" lon="4.1928423"><ele>448.0</ele><time>2026-04-02T11:47:38.288Z</time></trkpt><trkpt lat="45.3684505" lon="4.1928908"><ele>448.0</ele><time>2026-04-02T11:47:39.287Z</time></trkpt><trkpt lat="45.3685559" lon="4.192936"><ele>447.99999999999994</ele><time>2026-04-02T11:47:40.289Z</time></trkpt><trkpt lat="45.3686592" lon="4.1929791"><ele>447.99999999999994</ele><time>2026-04-02T11:47:41.289Z</time></trkpt><trkpt lat="45.3687671" lon="4.1930279"><ele>448.0</ele><time>2026-04-02T11:47:42.289Z</time></trkpt><trkpt lat="45.3688738" lon="4.1930721"><ele>448.0</ele><time>2026-04-02T11:47:43.288Z</time></trkpt><trkpt lat="45.3689813" lon="4.1931169"><ele>446.5</ele><time>2026-04-02T11:47:44.289Z</time></trkpt><trkpt lat="45.3690887" lon="4.1931758"><ele>445.0</ele><time>2026-04-02T11:47:45.29Z</time></trkpt><trkpt lat="45.3691992" lon="4.1932491"><ele>443.5</ele><time>2026-04-02T11:47:46.29Z</time></trkpt><trkpt lat="45.3693104" lon="4.1933309"><ele>442.0</ele><time>2026-04-02T11:47:47.289Z</time></trkpt><trkpt lat="45.3694239" lon="4.1934162"><ele>442.0</ele><time>2026-04-02T11:47:48.288Z</time></trkpt><trkpt lat="45.3695256" lon="4.1934959"><ele>442.00000000000006</ele><time>2026-04-02T11:47:49.289Z</time></trkpt><trkpt lat="45.3696152" lon="4.1935685"><ele>442.00000000000006</ele><time>2026-04-02T11:47:50.289Z</time></trkpt><trkpt lat="45.3696907" lon="4.1936405"><ele>442.0</ele><time>2026-04-02T11:47:51.288Z</time></trkpt><trkpt lat="45.3697535" lon="4.1937107"><ele>442.0</ele><time>2026-04-02T11:47:52.289Z</time></trkpt><trkpt lat="45.3698086" lon="4.193785"><ele>441.00000000000006</ele><time>2026-04-02T11:47:53.29Z</time></trkpt><trkpt lat="45.369855" lon="4.1938641"><ele>440.0</ele><time>2026-04-02T11:47:54.288Z</time></trkpt><trkpt lat="45.3698886" lon="4.193968"><ele>439.0</ele><time>2026-04-02T11:47:55.289Z</time></trkpt><trkpt lat="45.3699161" lon="4.1940892"><ele>438.0</ele><time>2026-04-02T11:47:56.289Z</time></trkpt><trkpt lat="45.3699472" lon="4.194228"><ele>437.00000000000006</ele><time>2026-04-02T11:47:57.289Z</time></trkpt><trkpt lat="45.3699765" lon="4.1943653"><ele>436.0</ele><time>2026-04-02T11:47:58.29Z</time></trkpt><trkpt lat="45.3699883" lon="4.1945046"><ele>436.0</ele><time>2026-04-02T11:47:59.289Z</time></trkpt><trkpt lat="45.369985" lon="4.1946574"><ele>436.0</ele><time>2026-04-02T11:48:00.288Z</time></trkpt><trkpt lat="45.3699762" lon="4.1948078"><ele>436.0</ele><time>2026-04-02T11:48:01.29Z</time></trkpt><trkpt lat="45.3699634" lon="4.1949615"><ele>436.0</ele><time>2026-04-02T11:48:02.288Z</time></trkpt><trkpt lat="45.3699527" lon="4.1951152"><ele>436.0</ele><time>2026-04-02T11:48:03.29Z</time></trkpt><trkpt lat="45.3699402" lon="4.1952718"><ele>434.75</ele><time>2026-04-02T11:48:04.289Z</time></trkpt><trkpt lat="45.3699261" lon="4.1954309"><ele>433.5</ele><time>2026-04-02T11:48:05.289Z</time></trkpt><trkpt lat="45.369911" lon="4.1955923"><ele>432.25</ele><time>2026-04-02T11:48:06.288Z</time></trkpt><trkpt lat="45.3698968" lon="4.1957531"><ele>431.0</ele><time>2026-04-02T11:48:07.289Z</time></trkpt><trkpt lat="45.3698836" lon="4.1959162"><ele>430.25</ele><time>2026-04-02T11:48:08.29Z</time></trkpt><trkpt lat="45.3698679" lon="4.1960774"><ele>429.5</ele><time>2026-04-02T11:48:09.29Z</time></trkpt><trkpt lat="45.3698565" lon="4.1962385"><ele>428.75</ele><time>2026-04-02T11:48:10.288Z</time></trkpt><trkpt lat="45.3698444" lon="4.196401"><ele>428.0</ele><time>2026-04-02T11:48:11.29Z</time></trkpt><trkpt lat="45.3698334" lon="4.1965687"><ele>426.75</ele><time>2026-04-02T11:48:12.29Z</time></trkpt><trkpt lat="45.3698209" lon="4.1967339"><ele>425.5</ele><time>2026-04-02T11:48:13.29Z</time></trkpt><trkpt lat="45.3698063" lon="4.1968988"><ele>424.25</ele><time>2026-04-02T11:48:14.289Z</time></trkpt><trkpt lat="45.3697913" lon="4.1970683"><ele>423.0</ele><time>2026-04-02T11:48:15.29Z</time></trkpt><trkpt lat="45.3697789" lon="4.1972345"><ele>423.79999999999995</ele><time>2026-04-02T11:48:16.288Z</time></trkpt><trkpt lat="45.3697687" lon="4.197398"><ele>424.6</ele><time>2026-04-02T11:48:17.29Z</time></trkpt><trkpt lat="45.3697578" lon="4.1975585"><ele>425.40000000000003</ele><time>2026-04-02T11:48:18.288Z</time></trkpt><trkpt lat="45.3697469" lon="4.197714"><ele>426.20000000000005</ele><time>2026-04-02T11:48:19.289Z</time></trkpt><trkpt lat="45.3697343" lon="4.1978673"><ele>427.0</ele><time>2026-04-02T11:48:20.289Z</time></trkpt><trkpt lat="45.3697198" lon="4.1980141"><ele>427.0</ele><time>2026-04-02T11:48:21.29Z</time></trkpt><trkpt lat="45.3697093" lon="4.1981665"><ele>427.00000000000006</ele><time>2026-04-02T11:48:22.29Z</time></trkpt><trkpt lat="45.3696939" lon="4.198327"><ele>427.00000000000006</ele><time>2026-04-02T11:48:23.289Z</time></trkpt><trkpt lat="45.3696802" lon="4.1984849"><ele>427.0</ele><time>2026-04-02T11:48:24.289Z</time></trkpt><trkpt lat="45.369672" lon="4.1986452"><ele>427.0</ele><time>2026-04-02T11:48:25.289Z</time></trkpt><trkpt lat="45.3696561" lon="4.198801"><ele>429.6</ele><time>2026-04-02T11:48:26.289Z</time></trkpt><trkpt lat="45.3696425" lon="4.198941"><ele>432.20000000000005</ele><time>2026-04-02T11:48:27.288Z</time></trkpt><trkpt lat="45.369634" lon="4.1990782"><ele>434.8</ele><time>2026-04-02T11:48:28.288Z</time></trkpt><trkpt lat="45.3696235" lon="4.1992121"><ele>437.4</ele><time>2026-04-02T11:48:29.289Z</time></trkpt><trkpt lat="45.3696146" lon="4.1993413"><ele>440.0</ele><time>2026-04-02T11:48:30.289Z</time></trkpt><trkpt lat="45.3696048" lon="4.1994703"><ele>441.2</ele><time>2026-04-02T11:48:31.289Z</time></trkpt><trkpt lat="45.369599" lon="4.199599"><ele>442.4</ele><time>2026-04-02T11:48:32.29Z</time></trkpt><trkpt lat="45.3695954" lon="4.199725"><ele>443.6</ele><time>2026-04-02T11:48:33.289Z</time></trkpt><trkpt lat="45.3695851" lon="4.1998594"><ele>444.8</ele><time>2026-04-02T11:48:34.288Z</time></trkpt><trkpt lat="45.3695744" lon="4.1999888"><ele>446.0</ele><time>2026-04-02T11:48:35.29Z</time></trkpt><trkpt lat="45.3695641" lon="4.2001219"><ele>446.49999999999994</ele><time>2026-04-02T11:48:36.287Z</time></trkpt><trkpt lat="45.3695543" lon="4.2002448"><ele>447.0</ele><time>2026-04-02T11:48:37.29Z</time></trkpt><trkpt lat="45.3695443" lon="4.2003589"><ele>447.5</ele><time>2026-04-02T11:48:38.288Z</time></trkpt><trkpt lat="45.3695371" lon="4.200453"><ele>448.0</ele><time>2026-04-02T11:48:39.29Z</time></trkpt><trkpt lat="45.3695149" lon="4.2006227"><ele>448.49999999999994</ele><time>2026-04-02T11:48:41.288Z</time></trkpt><trkpt lat="45.3694941" lon="4.2007111"><ele>449.0</ele><time>2026-04-02T11:48:42.289Z</time></trkpt><trkpt lat="45.3694915" lon="4.2008111"><ele>448.99999999999994</ele><time>2026-04-02T11:48:43.288Z</time></trkpt><trkpt lat="45.3694988" lon="4.2009084"><ele>449.0</ele><time>2026-04-02T11:48:44.29Z</time></trkpt><trkpt lat="45.3695076" lon="4.2010143"><ele>449.0</ele><time>2026-04-02T11:48:45.29Z</time></trkpt><trkpt lat="45.3695043" lon="4.2011237"><ele>449.0</ele><time>2026-04-02T11:48:46.29Z</time></trkpt><trkpt lat="45.3695058" lon="4.201243"><ele>448.99999999999994</ele><time>2026-04-02T11:48:47.289Z</time></trkpt><trkpt lat="45.3695052" lon="4.2013644"><ele>449.0</ele><time>2026-04-02T11:48:48.289Z</time></trkpt><trkpt lat="45.3695097" lon="4.2014954"><ele>449.2</ele><time>2026-04-02T11:48:49.289Z</time></trkpt><trkpt lat="45.3695091" lon="4.2016288"><ele>449.4</ele><time>2026-04-02T11:48:50.288Z</time></trkpt><trkpt lat="45.3695149" lon="4.2017769"><ele>449.6</ele><time>2026-04-02T11:48:51.289Z</time></trkpt><trkpt lat="45.3695171" lon="4.2019209"><ele>449.8</ele><time>2026-04-02T11:48:52.288Z</time></trkpt><trkpt lat="45.3695224" lon="4.2020691"><ele>450.0</ele><time>2026-04-02T11:48:53.289Z</time></trkpt><trkpt lat="45.3695232" lon="4.2022196"><ele>449.8</ele><time>2026-04-02T11:48:54.29Z</time></trkpt><trkpt lat="45.3695188" lon="4.2023708"><ele>449.6</ele><time>2026-04-02T11:48:55.289Z</time></trkpt><trkpt lat="45.3695141" lon="4.2025187"><ele>449.4</ele><time>2026-04-02T11:48:56.29Z</time></trkpt><trkpt lat="45.3695168" lon="4.2026698"><ele>449.2</ele><time>2026-04-02T11:48:57.289Z</time></trkpt><trkpt lat="45.3695184" lon="4.2028246"><ele>449.0</ele><time>2026-04-02T11:48:58.288Z</time></trkpt><trkpt lat="45.3695199" lon="4.2029736"><ele>448.99999999999994</ele><time>2026-04-02T11:48:59.287Z</time></trkpt><trkpt lat="45.3695157" lon="4.2031159"><ele>449.0</ele><time>2026-04-02T11:49:00.29Z</time></trkpt><trkpt lat="45.369513" lon="4.2032443"><ele>449.0</ele><time>2026-04-02T11:49:01.29Z</time></trkpt><trkpt lat="45.3695021" lon="4.2033707"><ele>449.0</ele><time>2026-04-02T11:49:02.289Z</time></trkpt><trkpt lat="45.3695068" lon="4.2034793"><ele>448.99999999999994</ele><time>2026-04-02T11:49:03.289Z</time></trkpt><trkpt lat="45.3695066" lon="4.2035836"><ele>449.0</ele><time>2026-04-02T11:49:04.288Z</time></trkpt><trkpt lat="45.3695117" lon="4.2036773"><ele>448.8333333333333</ele><time>2026-04-02T11:49:05.29Z</time></trkpt><trkpt lat="45.3694976" lon="4.2038157"><ele>448.66666666666663</ele><time>2026-04-02T11:49:07.288Z</time></trkpt><trkpt lat="45.3694919" lon="4.2039214"><ele>448.5</ele><time>2026-04-02T11:49:13.289Z</time></trkpt><trkpt lat="45.3695183" lon="4.2040044"><ele>448.33333333333337</ele><time>2026-04-02T11:49:14.29Z</time></trkpt><trkpt lat="45.3695567" lon="4.2040988"><ele>448.1666666666667</ele><time>2026-04-02T11:49:15.29Z</time></trkpt><trkpt lat="45.3696336" lon="4.2041816"><ele>448.0</ele><time>2026-04-02T11:49:16.289Z</time></trkpt><trkpt lat="45.3697128" lon="4.2042781"><ele>448.0</ele><time>2026-04-02T11:49:17.289Z</time></trkpt><trkpt lat="45.3697935" lon="4.2044289"><ele>448.0</ele><time>2026-04-02T11:49:18.288Z</time></trkpt><trkpt lat="45.3698803" lon="4.2046094"><ele>448.0</ele><time>2026-04-02T11:49:19.289Z</time></trkpt><trkpt lat="45.3699557" lon="4.204775"><ele>448.0</ele><time>2026-04-02T11:49:20.288Z</time></trkpt><trkpt lat="45.3700322" lon="4.2049342"><ele>448.25</ele><time>2026-04-02T11:49:21.289Z</time></trkpt><trkpt lat="45.370102" lon="4.2050843"><ele>448.5</ele><time>2026-04-02T11:49:22.29Z</time></trkpt><trkpt lat="45.370168" lon="4.2052344"><ele>448.75</ele><time>2026-04-02T11:49:23.289Z</time></trkpt><trkpt lat="45.370239" lon="4.2053858"><ele>449.0</ele><time>2026-04-02T11:49:24.289Z</time></trkpt><trkpt lat="45.3703116" lon="4.2055451"><ele>449.3333333333333</ele><time>2026-04-02T11:49:25.29Z</time></trkpt><trkpt lat="45.3703896" lon="4.2057063"><ele>449.66666666666663</ele><time>2026-04-02T11:49:26.29Z</time></trkpt><trkpt lat="45.3704738" lon="4.2058825"><ele>450.0</ele><time>2026-04-02T11:49:27.288Z</time></trkpt><trkpt lat="45.3705645" lon="4.2060795"><ele>449.25</ele><time>2026-04-02T11:49:28.29Z</time></trkpt><trkpt lat="45.3706483" lon="4.206263"><ele>448.5</ele><time>2026-04-02T11:49:29.289Z</time></trkpt><trkpt lat="45.3707176" lon="4.206421"><ele>447.75</ele><time>2026-04-02T11:49:30.288Z</time></trkpt><trkpt lat="45.3707797" lon="4.2065552"><ele>447.0</ele><time>2026-04-02T11:49:31.29Z</time></trkpt><trkpt lat="45.370825" lon="4.2066638"><ele>447.0</ele><time>2026-04-02T11:49:32.288Z</time></trkpt><trkpt lat="45.3708547" lon="4.2067548"><ele>447.0</ele><time>2026-04-02T11:49:33.289Z</time></trkpt><trkpt lat="45.3708743" lon="4.206852"><ele>447.0</ele><time>2026-04-02T11:49:34.29Z</time></trkpt><trkpt lat="45.3708981" lon="4.2069703"><ele>447.0</ele><time>2026-04-02T11:49:35.29Z</time></trkpt><trkpt lat="45.3709457" lon="4.2070571"><ele>447.0</ele><time>2026-04-02T11:49:36.289Z</time></trkpt><trkpt lat="45.3710071" lon="4.2071014"><ele>447.0</ele><time>2026-04-02T11:49:37.289Z</time></trkpt><trkpt lat="45.3711333" lon="4.2070502"><ele>447.0</ele><time>2026-04-02T11:49:39.289Z</time></trkpt><trkpt lat="45.3711885" lon="4.2069467"><ele>447.0</ele><time>2026-04-02T11:49:40.289Z</time></trkpt><trkpt lat="45.3712251" lon="4.2068502"><ele>447.0</ele><time>2026-04-02T11:49:41.29Z</time></trkpt><trkpt lat="45.3712672" lon="4.2067804"><ele>447.0</ele><time>2026-04-02T11:49:42.289Z</time></trkpt><trkpt lat="45.3713849" lon="4.2067758"><ele>447.0</ele><time>2026-04-02T11:49:44.289Z</time></trkpt><trkpt lat="45.3714471" lon="4.2068337"><ele>447.0</ele><time>2026-04-02T11:49:45.289Z</time></trkpt><trkpt lat="45.371485" lon="4.206956"><ele>446.5</ele><time>2026-04-02T11:49:46.289Z</time></trkpt><trkpt lat="45.371534" lon="4.207092"><ele>446.0</ele><time>2026-04-02T11:49:47.289Z</time></trkpt><trkpt lat="45.3715967" lon="4.2072549"><ele>445.5</ele><time>2026-04-02T11:49:48.289Z</time></trkpt><trkpt lat="45.371673" lon="4.2074284"><ele>445.0</ele><time>2026-04-02T11:49:49.29Z</time></trkpt><trkpt lat="45.3717526" lon="4.2075436"><ele>445.6666666666667</ele><time>2026-04-02T11:49:50.289Z</time></trkpt><trkpt lat="45.3718181" lon="4.2076238"><ele>446.33333333333337</ele><time>2026-04-02T11:49:51.289Z</time></trkpt><trkpt lat="45.3718417" lon="4.2077439"><ele>447.0</ele><time>2026-04-02T11:49:53.29Z</time></trkpt><trkpt lat="45.3717788" lon="4.2077946"><ele>447.66666666666663</ele><time>2026-04-02T11:49:55.289Z</time></trkpt><trkpt lat="45.3717171" lon="4.2077371"><ele>448.3333333333333</ele><time>2026-04-02T11:49:58.289Z</time></trkpt><trkpt lat="45.3716796" lon="4.2076379"><ele>449.0</ele><time>2026-04-02T11:55:30.29Z</time></trkpt><trkpt lat="45.3716707" lon="4.2075341"><ele>449.0</ele><time>2026-04-02T11:55:33.29Z</time></trkpt><trkpt lat="45.3716597" lon="4.2074302"><ele>449.0</ele><time>2026-04-02T11:55:43.29Z</time></trkpt><trkpt lat="45.3716297" lon="4.2072956"><ele>449.0</ele><time>2026-04-02T11:55:45.291Z</time></trkpt><trkpt lat="45.371592" lon="4.2071711"><ele>449.0</ele><time>2026-04-02T11:55:46.291Z</time></trkpt><trkpt lat="45.3715435" lon="4.2070282"><ele>449.0</ele><time>2026-04-02T11:55:47.29Z</time></trkpt><trkpt lat="45.3714937" lon="4.2068964"><ele>448.66666666666663</ele><time>2026-04-02T11:55:48.29Z</time></trkpt><trkpt lat="45.3714518" lon="4.2067947"><ele>448.3333333333333</ele><time>2026-04-02T11:55:49.291Z</time></trkpt><trkpt lat="45.3713959" lon="4.2067358"><ele>448.0</ele><time>2026-04-02T11:55:50.291Z</time></trkpt><trkpt lat="45.3713214" lon="4.2067064"><ele>447.66666666666663</ele><time>2026-04-02T11:55:51.29Z</time></trkpt><trkpt lat="45.3712469" lon="4.2067182"><ele>447.3333333333333</ele><time>2026-04-02T11:55:52.289Z</time></trkpt><trkpt lat="45.3711601" lon="4.2067278"><ele>447.0</ele><time>2026-04-02T11:55:53.291Z</time></trkpt><trkpt lat="45.3710737" lon="4.2067113"><ele>447.0</ele><time>2026-04-02T11:55:54.291Z</time></trkpt><trkpt lat="45.370976" lon="4.2066762"><ele>447.00000000000006</ele><time>2026-04-02T11:55:55.29Z</time></trkpt><trkpt lat="45.3708862" lon="4.2065896"><ele>447.00000000000006</ele><time>2026-04-02T11:55:56.289Z</time></trkpt><trkpt lat="45.3708065" lon="4.2064778"><ele>447.0</ele><time>2026-04-02T11:55:57.291Z</time></trkpt><trkpt lat="45.37073" lon="4.2063457"><ele>447.0</ele><time>2026-04-02T11:55:58.291Z</time></trkpt><trkpt lat="45.3706679" lon="4.2062184"><ele>447.40000000000003</ele><time>2026-04-02T11:55:59.291Z</time></trkpt><trkpt lat="45.37061" lon="4.206091"><ele>447.80000000000007</ele><time>2026-04-02T11:56:00.29Z</time></trkpt><trkpt lat="45.3705517" lon="4.2059674"><ele>448.2</ele><time>2026-04-02T11:56:01.291Z</time></trkpt><trkpt lat="45.3704944" lon="4.2058437"><ele>448.6</ele><time>2026-04-02T11:56:02.29Z</time></trkpt><trkpt lat="45.37044" lon="4.2057277"><ele>449.0</ele><time>2026-04-02T11:56:03.29Z</time></trkpt><trkpt lat="45.3703827" lon="4.2056164"><ele>449.0</ele><time>2026-04-02T11:56:04.291Z</time></trkpt><trkpt lat="45.37033" lon="4.2055018"><ele>449.0</ele><time>2026-04-02T11:56:05.289Z</time></trkpt><trkpt lat="45.3702781" lon="4.2053881"><ele>449.0</ele><time>2026-04-02T11:56:06.291Z</time></trkpt><trkpt lat="45.3702281" lon="4.205272"><ele>449.0</ele><time>2026-04-02T11:56:07.292Z</time></trkpt><trkpt lat="45.3701774" lon="4.2051575"><ele>449.0</ele><time>2026-04-02T11:56:08.291Z</time></trkpt><trkpt lat="45.3701236" lon="4.2050432"><ele>449.0</ele><time>2026-04-02T11:56:09.29Z</time></trkpt><trkpt lat="45.3700636" lon="4.2049247"><ele>449.0</ele><time>2026-04-02T11:56:10.29Z</time></trkpt><trkpt lat="45.3700057" lon="4.2048131"><ele>449.0</ele><time>2026-04-02T11:56:11.289Z</time></trkpt><trkpt lat="45.369951" lon="4.2046946"><ele>449.0</ele><time>2026-04-02T11:56:12.29Z</time></trkpt><trkpt lat="45.3699011" lon="4.2045875"><ele>449.0</ele><time>2026-04-02T11:56:13.291Z</time></trkpt><trkpt lat="45.3698572" lon="4.204482"><ele>448.8333333333333</ele><time>2026-04-02T11:56:14.289Z</time></trkpt><trkpt lat="45.3698195" lon="4.2043837"><ele>448.66666666666663</ele><time>2026-04-02T11:56:15.29Z</time></trkpt><trkpt lat="45.3697866" lon="4.2042867"><ele>448.5</ele><time>2026-04-02T11:56:16.29Z</time></trkpt><trkpt lat="45.3697594" lon="4.2041967"><ele>448.33333333333337</ele><time>2026-04-02T11:56:17.291Z</time></trkpt><trkpt lat="45.3697182" lon="4.2040269"><ele>448.1666666666667</ele><time>2026-04-02T11:56:19.291Z</time></trkpt><trkpt lat="45.3696787" lon="4.203947"><ele>448.0</ele><time>2026-04-02T11:56:20.292Z</time></trkpt><trkpt lat="45.369577" lon="4.2038887"><ele>448.0</ele><time>2026-04-02T11:56:22.289Z</time></trkpt><trkpt lat="45.3695134" lon="4.2039535"><ele>447.99999999999994</ele><time>2026-04-02T11:56:23.29Z</time></trkpt><trkpt lat="45.3694421" lon="4.2040071"><ele>447.99999999999994</ele><time>2026-04-02T11:56:24.289Z</time></trkpt><trkpt lat="45.3693565" lon="4.2040451"><ele>448.0</ele><time>2026-04-02T11:56:25.292Z</time></trkpt><trkpt lat="45.3692603" lon="4.2040819"><ele>448.0</ele><time>2026-04-02T11:56:26.29Z</time></trkpt><trkpt lat="45.3691619" lon="4.2041349"><ele>448.0</ele><time>2026-04-02T11:56:27.29Z</time></trkpt><trkpt lat="45.3690607" lon="4.2041758"><ele>447.99999999999994</ele><time>2026-04-02T11:56:28.291Z</time></trkpt><trkpt lat="45.3689535" lon="4.2042143"><ele>447.99999999999994</ele><time>2026-04-02T11:56:29.29Z</time></trkpt><trkpt lat="45.3688429" lon="4.2042517"><ele>448.0</ele><time>2026-04-02T11:56:30.291Z</time></trkpt><trkpt lat="45.3687317" lon="4.2042874"><ele>448.0</ele><time>2026-04-02T11:56:31.29Z</time></trkpt><trkpt lat="45.3686211" lon="4.2043227"><ele>449.0</ele><time>2026-04-02T11:56:32.291Z</time></trkpt><trkpt lat="45.3685131" lon="4.204357"><ele>450.0</ele><time>2026-04-02T11:56:33.29Z</time></trkpt><trkpt lat="45.3683989" lon="4.2043888"><ele>451.0</ele><time>2026-04-02T11:56:34.291Z</time></trkpt><trkpt lat="45.3682818" lon="4.204423"><ele>452.0</ele><time>2026-04-02T11:56:35.29Z</time></trkpt><trkpt lat="45.3681638" lon="4.2044572"><ele>452.0</ele><time>2026-04-02T11:56:36.291Z</time></trkpt><trkpt lat="45.3680494" lon="4.2044811"><ele>452.0</ele><time>2026-04-02T11:56:37.29Z</time></trkpt><trkpt lat="45.3679309" lon="4.2044959"><ele>452.0</ele><time>2026-04-02T11:56:38.289Z</time></trkpt><trkpt lat="45.3678099" lon="4.2045051"><ele>452.0</ele><time>2026-04-02T11:56:39.29Z</time></trkpt><trkpt lat="45.3676902" lon="4.2045031"><ele>453.0</ele><time>2026-04-02T11:56:40.291Z</time></trkpt><trkpt lat="45.3675674" lon="4.2045046"><ele>454.0</ele><time>2026-04-02T11:56:41.291Z</time></trkpt><trkpt lat="45.3674444" lon="4.2045111"><ele>455.0</ele><time>2026-04-02T11:56:42.291Z</time></trkpt><trkpt lat="45.3673228" lon="4.204501"><ele>456.0</ele><time>2026-04-02T11:56:43.291Z</time></trkpt><trkpt lat="45.3672026" lon="4.2044873"><ele>456.0</ele><time>2026-04-02T11:56:44.29Z</time></trkpt><trkpt lat="45.3670793" lon="4.2044721"><ele>456.0</ele><time>2026-04-02T11:56:45.291Z</time></trkpt><trkpt lat="45.3669573" lon="4.2044468"><ele>456.0</ele><time>2026-04-02T11:56:46.29Z</time></trkpt><trkpt lat="45.366837" lon="4.2044036"><ele>456.0</ele><time>2026-04-02T11:56:47.291Z</time></trkpt><trkpt lat="45.3667169" lon="4.2043512"><ele>456.0</ele><time>2026-04-02T11:56:48.291Z</time></trkpt><trkpt lat="45.3665961" lon="4.2042989"><ele>456.0</ele><time>2026-04-02T11:56:49.291Z</time></trkpt><trkpt lat="45.3664797" lon="4.2042396"><ele>456.0</ele><time>2026-04-02T11:56:50.291Z</time></trkpt><trkpt lat="45.3663655" lon="4.2041633"><ele>456.0</ele><time>2026-04-02T11:56:51.29Z</time></trkpt><trkpt lat="45.3662476" lon="4.2040937"><ele>457.0</ele><time>2026-04-02T11:56:52.29Z</time></trkpt><trkpt lat="45.366131" lon="4.204017"><ele>458.0</ele><time>2026-04-02T11:56:53.29Z</time></trkpt><trkpt lat="45.3660208" lon="4.2039374"><ele>459.0</ele><time>2026-04-02T11:56:54.29Z</time></trkpt><trkpt lat="45.365916" lon="4.2038563"><ele>460.0</ele><time>2026-04-02T11:56:55.291Z</time></trkpt><trkpt lat="45.3658107" lon="4.2037733"><ele>460.0</ele><time>2026-04-02T11:56:56.292Z</time></trkpt><trkpt lat="45.3657093" lon="4.2036916"><ele>460.0</ele><time>2026-04-02T11:56:57.291Z</time></trkpt><trkpt lat="45.3656187" lon="4.2036165"><ele>460.0</ele><time>2026-04-02T11:56:58.291Z</time></trkpt><trkpt lat="45.365551" lon="4.2035575"><ele>460.0</ele><time>2026-04-02T11:56:59.289Z</time></trkpt><trkpt lat="45.3654668" lon="4.2034728"><ele>460.0</ele><time>2026-04-02T11:57:01.29Z</time></trkpt><trkpt lat="45.3654164" lon="4.2033956"><ele>460.2</ele><time>2026-04-02T11:57:07.29Z</time></trkpt><trkpt lat="45.3653561" lon="4.2033025"><ele>460.4</ele><time>2026-04-02T11:57:09.29Z</time></trkpt><trkpt lat="45.3652633" lon="4.2032658"><ele>460.6</ele><time>2026-04-02T11:57:11.29Z</time></trkpt><trkpt lat="45.3651657" lon="4.2033529"><ele>460.8</ele><time>2026-04-02T11:57:13.291Z</time></trkpt><trkpt lat="45.365107" lon="4.2034418"><ele>461.0</ele><time>2026-04-02T11:57:14.29Z</time></trkpt><trkpt lat="45.365043" lon="4.2035173"><ele>461.0</ele><time>2026-04-02T11:57:15.29Z</time></trkpt><trkpt lat="45.3649578" lon="4.2035811"><ele>461.0</ele><time>2026-04-02T11:57:16.29Z</time></trkpt><trkpt lat="45.3648654" lon="4.2036341"><ele>461.0</ele><time>2026-04-02T11:57:17.291Z</time></trkpt><trkpt lat="45.3647687" lon="4.2036814"><ele>461.0</ele><time>2026-04-02T11:57:18.29Z</time></trkpt><trkpt lat="45.3646637" lon="4.2037169"><ele>461.0</ele><time>2026-04-02T11:57:19.292Z</time></trkpt><trkpt lat="45.3645496" lon="4.2037476"><ele>461.75</ele><time>2026-04-02T11:57:20.29Z</time></trkpt><trkpt lat="45.3644309" lon="4.2037769"><ele>462.5</ele><time>2026-04-02T11:57:21.289Z</time></trkpt><trkpt lat="45.3643147" lon="4.2038089"><ele>463.25</ele><time>2026-04-02T11:57:22.291Z</time></trkpt><trkpt lat="45.3641922" lon="4.2038435"><ele>464.0</ele><time>2026-04-02T11:57:23.291Z</time></trkpt><trkpt lat="45.3640659" lon="4.2038833"><ele>464.0</ele><time>2026-04-02T11:57:24.291Z</time></trkpt><trkpt lat="45.3639464" lon="4.2039323"><ele>464.0</ele><time>2026-04-02T11:57:25.292Z</time></trkpt><trkpt lat="45.3638235" lon="4.2039834"><ele>464.0</ele><time>2026-04-02T11:57:26.291Z</time></trkpt><trkpt lat="45.3637025" lon="4.2040337"><ele>464.0</ele><time>2026-04-02T11:57:27.29Z</time></trkpt><trkpt lat="45.3635791" lon="4.2040905"><ele>465.75</ele><time>2026-04-02T11:57:28.29Z</time></trkpt><trkpt lat="45.3634533" lon="4.204156"><ele>467.5</ele><time>2026-04-02T11:57:29.291Z</time></trkpt><trkpt lat="45.3633239" lon="4.2042377"><ele>469.25</ele><time>2026-04-02T11:57:30.29Z</time></trkpt><trkpt lat="45.3631863" lon="4.2043254"><ele>471.0</ele><time>2026-04-02T11:57:31.291Z</time></trkpt><trkpt lat="45.3630426" lon="4.2044254"><ele>471.75</ele><time>2026-04-02T11:57:32.29Z</time></trkpt><trkpt lat="45.3629121" lon="4.2045137"><ele>472.5</ele><time>2026-04-02T11:57:33.291Z</time></trkpt><trkpt lat="45.3627938" lon="4.2045985"><ele>473.25</ele><time>2026-04-02T11:57:34.29Z</time></trkpt><trkpt lat="45.3626847" lon="4.2046816"><ele>474.0</ele><time>2026-04-02T11:57:35.292Z</time></trkpt><trkpt lat="45.3625804" lon="4.2047776"><ele>475.5</ele><time>2026-04-02T11:57:36.291Z</time></trkpt><trkpt lat="45.3624782" lon="4.2048899"><ele>477.0</ele><time>2026-04-02T11:57:37.292Z</time></trkpt><trkpt lat="45.3623899" lon="4.2050171"><ele>478.5</ele><time>2026-04-02T11:57:38.291Z</time></trkpt><trkpt lat="45.3623032" lon="4.2051535"><ele>480.0</ele><time>2026-04-02T11:57:39.291Z</time></trkpt><trkpt lat="45.3622116" lon="4.2053002"><ele>481.0</ele><time>2026-04-02T11:57:40.29Z</time></trkpt><trkpt lat="45.3621103" lon="4.2054559"><ele>482.0</ele><time>2026-04-02T11:57:41.292Z</time></trkpt><trkpt lat="45.362018" lon="4.2056193"><ele>483.0</ele><time>2026-04-02T11:57:42.292Z</time></trkpt><trkpt lat="45.3619282" lon="4.2057575"><ele>484.0</ele><time>2026-04-02T11:57:43.29Z</time></trkpt><trkpt lat="45.3618428" lon="4.2058788"><ele>484.0</ele><time>2026-04-02T11:57:44.291Z</time></trkpt><trkpt lat="45.3617605" lon="4.20598"><ele>484.0</ele><time>2026-04-02T11:57:45.292Z</time></trkpt><trkpt lat="45.3616628" lon="4.2060528"><ele>484.0</ele><time>2026-04-02T11:57:46.291Z</time></trkpt><trkpt lat="45.3615559" lon="4.2060916"><ele>484.0</ele><time>2026-04-02T11:57:47.292Z</time></trkpt><trkpt lat="45.3614384" lon="4.2060919"><ele>484.0</ele><time>2026-04-02T11:57:48.29Z</time></trkpt><trkpt lat="45.3613307" lon="4.206063"><ele>484.79999999999995</ele><time>2026-04-02T11:57:49.291Z</time></trkpt><trkpt lat="45.3612522" lon="4.2060328"><ele>485.59999999999997</ele><time>2026-04-02T11:57:50.291Z</time></trkpt><trkpt lat="45.3611507" lon="4.2059667"><ele>486.4</ele><time>2026-04-02T11:57:52.292Z</time></trkpt><trkpt lat="45.3610755" lon="4.2060031"><ele>487.2</ele><time>2026-04-02T11:57:54.291Z</time></trkpt><trkpt lat="45.3610951" lon="4.2061418"><ele>488.0</ele><time>2026-04-02T11:57:56.289Z</time></trkpt><trkpt lat="45.3611045" lon="4.2062998"><ele>488.0</ele><time>2026-04-02T11:57:58.292Z</time></trkpt><trkpt lat="45.361116" lon="4.2064648"><ele>487.99999999999994</ele><time>2026-04-02T11:58:00.291Z</time></trkpt><trkpt lat="45.3611281" lon="4.2066488"><ele>487.99999999999994</ele><time>2026-04-02T11:58:02.291Z</time></trkpt><trkpt lat="45.3611365" lon="4.2067452"><ele>488.0</ele><time>2026-04-02T11:58:03.291Z</time></trkpt><trkpt lat="45.3611599" lon="4.2068404"><ele>488.0</ele><time>2026-04-02T11:58:04.291Z</time></trkpt><trkpt lat="45.3611941" lon="4.2069509"><ele>488.49999999999994</ele><time>2026-04-02T11:58:05.291Z</time></trkpt><trkpt lat="45.3612459" lon="4.2070676"><ele>489.0</ele><time>2026-04-02T11:58:06.292Z</time></trkpt><trkpt lat="45.3612952" lon="4.2071623"><ele>489.5</ele><time>2026-04-02T11:58:07.292Z</time></trkpt><trkpt lat="45.3613329" lon="4.2072414"><ele>490.0</ele><time>2026-04-02T11:58:08.29Z</time></trkpt><trkpt lat="45.3613858" lon="4.2073399"><ele>490.49999999999994</ele><time>2026-04-02T11:58:10.292Z</time></trkpt><trkpt lat="45.3614106" lon="4.2074453"><ele>491.0</ele><time>2026-04-02T11:58:13.292Z</time></trkpt><trkpt lat="45.3613495" lon="4.2075323"><ele>491.4285714285714</ele><time>2026-04-02T11:58:15.292Z</time></trkpt><trkpt lat="45.3612921" lon="4.2075726"><ele>491.8571428571428</ele><time>2026-04-02T11:58:16.292Z</time></trkpt><trkpt lat="45.3612306" lon="4.2076118"><ele>492.2857142857143</ele><time>2026-04-02T11:58:17.29Z</time></trkpt><trkpt lat="45.3611684" lon="4.2076599"><ele>492.71428571428567</ele><time>2026-04-02T11:58:18.291Z</time></trkpt><trkpt lat="45.3610994" lon="4.2077053"><ele>493.1428571428571</ele><time>2026-04-02T11:58:19.29Z</time></trkpt><trkpt lat="45.3610311" lon="4.2077537"><ele>493.57142857142856</ele><time>2026-04-02T11:58:20.291Z</time></trkpt><trkpt lat="45.3609632" lon="4.2078074"><ele>494.0</ele><time>2026-04-02T11:58:21.291Z</time></trkpt><trkpt lat="45.3608724" lon="4.2078726"><ele>493.99999999999994</ele><time>2026-04-02T11:58:23.291Z</time></trkpt><trkpt lat="45.3608079" lon="4.2078872"><ele>494.0</ele><time>2026-04-02T11:58:30.291Z</time></trkpt><trkpt lat="45.3607499" lon="4.2079601"><ele>494.0</ele><time>2026-04-02T11:58:32.291Z</time></trkpt><trkpt lat="45.3606467" lon="4.2080627"><ele>494.0</ele><time>2026-04-02T11:58:34.291Z</time></trkpt><trkpt lat="45.3605827" lon="4.2081162"><ele>493.99999999999994</ele><time>2026-04-02T11:58:35.29Z</time></trkpt><trkpt lat="45.3605151" lon="4.2081728"><ele>494.0</ele><time>2026-04-02T11:58:36.292Z</time></trkpt><trkpt lat="45.3604512" lon="4.2082297"><ele>496.66666666666663</ele><time>2026-04-02T11:58:37.29Z</time></trkpt><trkpt lat="45.3603512" lon="4.2083081"><ele>499.3333333333333</ele><time>2026-04-02T11:58:39.291Z</time></trkpt><trkpt lat="45.3602821" lon="4.2083309"><ele>502.0</ele><time>2026-04-02T11:58:42.292Z</time></trkpt><trkpt lat="45.3603222" lon="4.2084676"><ele>504.66666666666663</ele><time>2026-04-02T11:58:51.292Z</time></trkpt><trkpt lat="45.360377" lon="4.2085252"><ele>507.3333333333333</ele><time>2026-04-02T11:58:52.291Z</time></trkpt><trkpt lat="45.3604308" lon="4.2085878"><ele>510.0</ele><time>2026-04-02T11:58:53.292Z</time></trkpt><trkpt lat="45.3605126" lon="4.208698"><ele>510.0</ele><time>2026-04-02T11:58:55.291Z</time></trkpt><trkpt lat="45.3605158" lon="4.2088014"><ele>510.0</ele><time>2026-04-02T11:58:57.291Z</time></trkpt><trkpt lat="45.3604675" lon="4.2089016"><ele>510.0</ele><time>2026-04-02T11:58:59.291Z</time></trkpt><trkpt lat="45.3603762" lon="4.2089881"><ele>510.0</ele><time>2026-04-02T11:59:01.291Z</time></trkpt><trkpt lat="45.3602785" lon="4.2090402"><ele>510.0</ele><time>2026-04-02T11:59:03.29Z</time></trkpt><trkpt lat="45.3601778" lon="4.2090478"><ele>510.0</ele><time>2026-04-02T11:59:05.292Z</time></trkpt><trkpt lat="45.3600904" lon="4.2089797"><ele>510.0</ele><time>2026-04-02T11:59:07.292Z</time></trkpt><trkpt lat="45.3600107" lon="4.2088822"><ele>510.0</ele><time>2026-04-02T11:59:09.291Z</time></trkpt><trkpt lat="45.3599098" lon="4.208779"><ele>510.0</ele><time>2026-04-02T11:59:11.289Z</time></trkpt><trkpt lat="45.3598491" lon="4.2087231"><ele>510.0</ele><time>2026-04-02T11:59:12.29Z</time></trkpt><trkpt lat="45.3597918" lon="4.2086816"><ele>510.0</ele><time>2026-04-02T11:59:13.29Z</time></trkpt><trkpt lat="45.3597268" lon="4.2086416"><ele>510.0</ele><time>2026-04-02T11:59:14.291Z</time></trkpt><trkpt lat="45.3596602" lon="4.2086007"><ele>510.0</ele><time>2026-04-02T11:59:15.291Z</time></trkpt><trkpt lat="45.3595936" lon="4.208555"><ele>510.0</ele><time>2026-04-02T11:59:16.292Z</time></trkpt><trkpt lat="45.359529" lon="4.2085047"><ele>510.0</ele><time>2026-04-02T11:59:17.29Z</time></trkpt><trkpt lat="45.3594571" lon="4.2084595"><ele>510.0</ele><time>2026-04-02T11:59:18.291Z</time></trkpt><trkpt lat="45.3593801" lon="4.2084026"><ele>513.8333333333334</ele><time>2026-04-02T11:59:19.291Z</time></trkpt><trkpt lat="45.3593253" lon="4.2083495"><ele>517.6666666666666</ele><time>2026-04-02T11:59:20.292Z</time></trkpt><trkpt lat="45.359235" lon="4.2082785"><ele>521.5</ele><time>2026-04-02T11:59:22.29Z</time></trkpt><trkpt lat="45.3591736" lon="4.2082267"><ele>525.3333333333333</ele><time>2026-04-02T11:59:25.291Z</time></trkpt><trkpt lat="45.3591505" lon="4.2081326"><ele>529.1666666666666</ele><time>2026-04-02T12:00:16.291Z</time></trkpt><trkpt lat="45.3591209" lon="4.2080189"><ele>533.0</ele><time>2026-04-02T12:00:19.291Z</time></trkpt><trkpt lat="45.3590637" lon="4.2079332"><ele>533.0</ele><time>2026-04-02T12:00:39.291Z</time></trkpt><trkpt lat="45.3589948" lon="4.2078546"><ele>533.0</ele><time>2026-04-02T12:00:42.292Z</time></trkpt><trkpt lat="45.3589568" lon="4.2077767"><ele>533.0</ele><time>2026-04-02T12:01:10.291Z</time></trkpt><trkpt lat="45.3590199" lon="4.2077796"><ele>533.0</ele><time>2026-04-02T12:01:35.292Z</time></trkpt><trkpt lat="45.359074" lon="4.2078315"><ele>533.0</ele><time>2026-04-02T12:01:40.292Z</time></trkpt><trkpt lat="45.35908" lon="4.2079582"><ele>533.0</ele><time>2026-04-02T12:01:47.291Z</time></trkpt><trkpt lat="45.3591211" lon="4.2080323"><ele>533.0</ele><time>2026-04-02T12:01:48.292Z</time></trkpt><trkpt lat="45.3591437" lon="4.2081749"><ele>535.1999999999999</ele><time>2026-04-02T12:01:50.291Z</time></trkpt><trkpt lat="45.3591448" lon="4.2083121"><ele>537.4</ele><time>2026-04-02T12:01:52.291Z</time></trkpt><trkpt lat="45.3592021" lon="4.208423"><ele>539.5999999999999</ele><time>2026-04-02T12:01:54.29Z</time></trkpt><trkpt lat="45.359252" lon="4.2085701"><ele>541.8</ele><time>2026-04-02T12:01:56.291Z</time></trkpt><trkpt lat="45.3592868" lon="4.2086593"><ele>544.0</ele><time>2026-04-02T12:01:57.292Z</time></trkpt><trkpt lat="45.3593305" lon="4.2087468"><ele>544.0</ele><time>2026-04-02T12:01:58.29Z</time></trkpt><trkpt lat="45.3593659" lon="4.2088383"><ele>544.0</ele><time>2026-04-02T12:01:59.293Z</time></trkpt><trkpt lat="45.3594067" lon="4.208939"><ele>544.0</ele><time>2026-04-02T12:02:00.29Z</time></trkpt><trkpt lat="45.3594444" lon="4.2090181"><ele>544.0</ele><time>2026-04-02T12:02:01.291Z</time></trkpt><trkpt lat="45.3594657" lon="4.2091206"><ele>544.0</ele><time>2026-04-02T12:02:03.292Z</time></trkpt><trkpt lat="45.3594571" lon="4.2092396"><ele>544.0</ele><time>2026-04-02T12:02:06.292Z</time></trkpt><trkpt lat="45.3593727" lon="4.2092224"><ele>545.8333333333334</ele><time>2026-04-02T12:02:10.291Z</time></trkpt><trkpt lat="45.3592945" lon="4.2091977"><ele>547.6666666666667</ele><time>2026-04-02T12:02:13.291Z</time></trkpt><trkpt lat="45.3592206" lon="4.2091482"><ele>549.5</ele><time>2026-04-02T12:02:17.291Z</time></trkpt><trkpt lat="45.3591501" lon="4.2091575"><ele>551.3333333333334</ele><time>2026-04-02T12:02:22.291Z</time></trkpt><trkpt lat="45.3591469" lon="4.2092653"><ele>553.1666666666666</ele><time>2026-04-02T12:02:25.291Z</time></trkpt><trkpt lat="45.3591293" lon="4.2093838"><ele>555.0</ele><time>2026-04-02T12:02:28.292Z</time></trkpt><trkpt lat="45.3591202" lon="4.2095015"><ele>555.0</ele><time>2026-04-02T12:02:31.293Z</time></trkpt><trkpt lat="45.3590862" lon="4.2095982"><ele>555.0</ele><time>2026-04-02T12:02:33.292Z</time></trkpt><trkpt lat="45.359044" lon="4.2096844"><ele>555.0</ele><time>2026-04-02T12:02:35.292Z</time></trkpt><trkpt lat="45.3589899" lon="4.2097755"><ele>555.0</ele><time>2026-04-02T12:02:37.292Z</time></trkpt><trkpt lat="45.3589217" lon="4.2097422"><ele>555.0</ele><time>2026-04-02T12:02:39.292Z</time></trkpt><trkpt lat="45.3588925" lon="4.2096432"><ele>555.0</ele><time>2026-04-02T12:02:41.292Z</time></trkpt><trkpt lat="45.358831" lon="4.2095285"><ele>561.5</ele><time>2026-04-02T12:02:43.293Z</time></trkpt><trkpt lat="45.3587789" lon="4.2094621"><ele>568.0</ele><time>2026-04-02T12:02:44.293Z</time></trkpt><trkpt lat="45.3587283" lon="4.2093911"><ele>574.5</ele><time>2026-04-02T12:02:45.293Z</time></trkpt><trkpt lat="45.3586748" lon="4.2093402"><ele>581.0</ele><time>2026-04-02T12:02:46.291Z</time></trkpt><trkpt lat="45.3586196" lon="4.2092884"><ele>587.5</ele><time>2026-04-02T12:02:47.292Z</time></trkpt><trkpt lat="45.3585205" lon="4.2091995"><ele>594.0</ele><time>2026-04-02T12:02:49.292Z</time></trkpt><trkpt lat="45.3584706" lon="4.2091296"><ele>594.0</ele><time>2026-04-02T12:02:50.292Z</time></trkpt><trkpt lat="45.3584278" lon="4.209062"><ele>594.0</ele><time>2026-04-02T12:02:51.293Z</time></trkpt><trkpt lat="45.3583826" lon="4.2089961"><ele>594.0</ele><time>2026-04-02T12:02:52.292Z</time></trkpt><trkpt lat="45.3583185" lon="4.2088376"><ele>594.0</ele><time>2026-04-02T12:02:54.291Z</time></trkpt><trkpt lat="45.3583009" lon="4.2087392"><ele>594.0</ele><time>2026-04-02T12:02:55.291Z</time></trkpt><trkpt lat="45.3582637" lon="4.2085624"><ele>594.0</ele><time>2026-04-02T12:02:57.293Z</time></trkpt><trkpt lat="45.3582428" lon="4.2084653"><ele>594.0</ele><time>2026-04-02T12:02:58.292Z</time></trkpt><trkpt lat="45.3582201" lon="4.2083245"><ele>594.0</ele><time>2026-04-02T12:03:00.293Z</time></trkpt><trkpt lat="45.3581775" lon="4.2082573"><ele>594.0</ele><time>2026-04-02T12:03:01.291Z</time></trkpt><trkpt lat="45.3580954" lon="4.2081837"><ele>594.0</ele><time>2026-04-02T12:03:03.292Z</time></trkpt><trkpt lat="45.3580425" lon="4.2081211"><ele>594.0</ele><time>2026-04-02T12:03:04.292Z</time></trkpt><trkpt lat="45.3579589" lon="4.208069"><ele>594.0</ele><time>2026-04-02T12:03:06.293Z</time></trkpt><trkpt lat="45.3578596" lon="4.2079764"><ele>594.0</ele><time>2026-04-02T12:03:08.292Z</time></trkpt><trkpt lat="45.3578012" lon="4.2079368"><ele>594.0</ele><time>2026-04-02T12:03:09.291Z</time></trkpt><trkpt lat="45.3577325" lon="4.2078929"><ele>594.0</ele><time>2026-04-02T12:03:10.293Z</time></trkpt><trkpt lat="45.3576651" lon="4.2078298"><ele>594.0</ele><time>2026-04-02T12:03:11.293Z</time></trkpt><trkpt lat="45.3575655" lon="4.2077301"><ele>594.0</ele><time>2026-04-02T12:03:13.291Z</time></trkpt><trkpt lat="45.3574733" lon="4.2076587"><ele>594.0</ele><time>2026-04-02T12:03:15.292Z</time></trkpt><trkpt lat="45.357365" lon="4.2076337"><ele>594.0</ele><time>2026-04-02T12:03:17.292Z</time></trkpt><trkpt lat="45.357275" lon="4.2076683"><ele>594.0</ele><time>2026-04-02T12:03:19.292Z</time></trkpt><trkpt lat="45.3571749" lon="4.2077115"><ele>594.0</ele><time>2026-04-02T12:03:21.291Z</time></trkpt><trkpt lat="45.3570933" lon="4.2077508"><ele>595.6</ele><time>2026-04-02T12:03:23.292Z</time></trkpt><trkpt lat="45.3570103" lon="4.2078363"><ele>597.2</ele><time>2026-04-02T12:03:25.291Z</time></trkpt><trkpt lat="45.3569748" lon="4.2079122"><ele>598.8000000000001</ele><time>2026-04-02T12:03:26.292Z</time></trkpt><trkpt lat="45.3568814" lon="4.2080748"><ele>600.4</ele><time>2026-04-02T12:03:28.292Z</time></trkpt><trkpt lat="45.3568393" lon="4.2081596"><ele>602.0</ele><time>2026-04-02T12:03:29.292Z</time></trkpt><trkpt lat="45.3567984" lon="4.2082283"><ele>602.0</ele><time>2026-04-02T12:03:30.292Z</time></trkpt><trkpt lat="45.3567339" lon="4.2083406"><ele>602.0</ele><time>2026-04-02T12:03:32.292Z</time></trkpt><trkpt lat="45.3566906" lon="4.2084318"><ele>602.0</ele><time>2026-04-02T12:03:34.293Z</time></trkpt><trkpt lat="45.3566582" lon="4.2085832"><ele>602.0</ele><time>2026-04-02T12:03:36.292Z</time></trkpt><trkpt lat="45.3566354" lon="4.2086809"><ele>602.0</ele><time>2026-04-02T12:03:37.292Z</time></trkpt><trkpt lat="45.356609" lon="4.2087733"><ele>602.0</ele><time>2026-04-02T12:03:38.292Z</time></trkpt><trkpt lat="45.3565755" lon="4.2088641"><ele>602.0</ele><time>2026-04-02T12:03:39.292Z</time></trkpt><trkpt lat="45.356529" lon="4.2089299"><ele>602.0</ele><time>2026-04-02T12:03:40.292Z</time></trkpt><trkpt lat="45.3564371" lon="4.2089831"><ele>602.0</ele><time>2026-04-02T12:03:42.292Z</time></trkpt><trkpt lat="45.3563391" lon="4.2089958"><ele>602.0</ele><time>2026-04-02T12:03:53.291Z</time></trkpt><trkpt lat="45.3562747" lon="4.2090275"><ele>602.0</ele><time>2026-04-02T12:03:55.293Z</time></trkpt><trkpt lat="45.3562082" lon="4.2090899"><ele>602.0</ele><time>2026-04-02T12:03:57.292Z</time></trkpt><trkpt lat="45.3561524" lon="4.209136"><ele>604.0</ele><time>2026-04-02T12:04:00.293Z</time></trkpt><trkpt lat="45.3561209" lon="4.2090501"><ele>606.0</ele><time>2026-04-02T12:04:09.291Z</time></trkpt><trkpt lat="45.3561176" lon="4.2089535"><ele>608.0</ele><time>2026-04-02T12:04:12.293Z</time></trkpt><trkpt lat="45.3560811" lon="4.2088107"><ele>610.0</ele><time>2026-04-02T12:04:14.292Z</time></trkpt><trkpt lat="45.3560557" lon="4.2086676"><ele>612.0</ele><time>2026-04-02T12:04:16.293Z</time></trkpt><trkpt lat="45.3560243" lon="4.2085643"><ele>614.0</ele><time>2026-04-02T12:04:18.292Z</time></trkpt><trkpt lat="45.3560014" lon="4.2084798"><ele>613.9999999999999</ele><time>2026-04-02T12:04:20.292Z</time></trkpt><trkpt lat="45.3559739" lon="4.2083814"><ele>614.0</ele><time>2026-04-02T12:04:46.293Z</time></trkpt><trkpt lat="45.3559168" lon="4.2083127"><ele>614.0</ele><time>2026-04-02T12:04:50.291Z</time></trkpt><trkpt lat="45.3558692" lon="4.2082438"><ele>614.0</ele><time>2026-04-02T12:05:12.293Z</time></trkpt><trkpt lat="45.355809" lon="4.2082094"><ele>614.0</ele><time>2026-04-02T12:08:37.292Z</time></trkpt><trkpt lat="45.3557458" lon="4.2081497"><ele>613.9999999999999</ele><time>2026-04-02T12:08:40.293Z</time></trkpt><trkpt lat="45.3556836" lon="4.2080723"><ele>614.0</ele><time>2026-04-02T12:08:43.294Z</time></trkpt><trkpt lat="45.3556144" lon="4.2080264"><ele>613.3333333333333</ele><time>2026-04-02T12:08:45.292Z</time></trkpt><trkpt lat="45.3555413" lon="4.2079958"><ele>612.6666666666666</ele><time>2026-04-02T12:08:47.294Z</time></trkpt><trkpt lat="45.3554621" lon="4.2079714"><ele>612.0</ele><time>2026-04-02T12:08:49.293Z</time></trkpt><trkpt lat="45.3553935" lon="4.2079394"><ele>611.3333333333334</ele><time>2026-04-02T12:08:51.293Z</time></trkpt><trkpt lat="45.3553188" lon="4.2078969"><ele>610.6666666666667</ele><time>2026-04-02T12:08:53.293Z</time></trkpt><trkpt lat="45.3552203" lon="4.2078345"><ele>610.0</ele><time>2026-04-02T12:08:55.294Z</time></trkpt><trkpt lat="45.3551433" lon="4.2077554"><ele>610.0</ele><time>2026-04-02T12:08:57.291Z</time></trkpt><trkpt lat="45.35508" lon="4.2076722"><ele>610.0</ele><time>2026-04-02T12:08:59.294Z</time></trkpt><trkpt lat="45.3550271" lon="4.2076093"><ele>610.0</ele><time>2026-04-02T12:09:01.292Z</time></trkpt><trkpt lat="45.3549717" lon="4.2075012"><ele>610.0</ele><time>2026-04-02T12:09:03.291Z</time></trkpt><trkpt lat="45.3549303" lon="4.2074169"><ele>610.0</ele><time>2026-04-02T12:09:05.293Z</time></trkpt><trkpt lat="45.3548868" lon="4.2073227"><ele>610.0</ele><time>2026-04-02T12:09:15.294Z</time></trkpt><trkpt lat="45.3548505" lon="4.207235"><ele>609.0</ele><time>2026-04-02T12:09:19.294Z</time></trkpt><trkpt lat="45.3547884" lon="4.207211"><ele>608.0</ele><time>2026-04-02T12:09:42.294Z</time></trkpt><trkpt lat="45.3547411" lon="4.2071363"><ele>607.0</ele><time>2026-04-02T12:09:57.294Z</time></trkpt><trkpt lat="45.3547482" lon="4.2070324"><ele>606.0</ele><time>2026-04-02T12:10:35.292Z</time></trkpt><trkpt lat="45.3547165" lon="4.2069431"><ele>605.0</ele><time>2026-04-02T12:11:07.294Z</time></trkpt><trkpt lat="45.3547554" lon="4.2068657"><ele>604.0</ele><time>2026-04-02T12:11:17.295Z</time></trkpt><trkpt lat="45.354819" lon="4.2067712"><ele>603.0</ele><time>2026-04-02T12:11:20.294Z</time></trkpt><trkpt lat="45.3548774" lon="4.2066563"><ele>603.0</ele><time>2026-04-02T12:11:22.292Z</time></trkpt><trkpt lat="45.3548769" lon="4.2065388"><ele>603.0</ele><time>2026-04-02T12:11:25.293Z</time></trkpt><trkpt lat="45.3548409" lon="4.2064553"><ele>603.0</ele><time>2026-04-02T12:11:29.293Z</time></trkpt><trkpt lat="45.3547839" lon="4.2063734"><ele>603.0</ele><time>2026-04-02T12:11:41.294Z</time></trkpt><trkpt lat="45.354709" lon="4.2062838"><ele>603.0</ele><time>2026-04-02T12:11:43.294Z</time></trkpt><trkpt lat="45.3546193" lon="4.2061866"><ele>603.0</ele><time>2026-04-02T12:11:45.295Z</time></trkpt><trkpt lat="45.3545638" lon="4.2061437"><ele>604.3333333333334</ele><time>2026-04-02T12:11:46.294Z</time></trkpt><trkpt lat="45.354502" lon="4.2061002"><ele>605.6666666666666</ele><time>2026-04-02T12:11:47.293Z</time></trkpt><trkpt lat="45.3544421" lon="4.2060595"><ele>607.0</ele><time>2026-04-02T12:11:48.294Z</time></trkpt><trkpt lat="45.3543345" lon="4.2059972"><ele>608.3333333333333</ele><time>2026-04-02T12:11:50.293Z</time></trkpt><trkpt lat="45.35424" lon="4.2059515"><ele>609.6666666666666</ele><time>2026-04-02T12:11:52.294Z</time></trkpt><trkpt lat="45.3541586" lon="4.2059516"><ele>611.0</ele><time>2026-04-02T12:11:54.294Z</time></trkpt><trkpt lat="45.3540911" lon="4.2059409"><ele>611.0000000000001</ele><time>2026-04-02T12:11:56.294Z</time></trkpt><trkpt lat="45.3540189" lon="4.2058984"><ele>611.0</ele><time>2026-04-02T12:11:58.295Z</time></trkpt><trkpt lat="45.3539546" lon="4.205884"><ele>611.0</ele><time>2026-04-02T12:12:00.295Z</time></trkpt><trkpt lat="45.3538937" lon="4.205856"><ele>611.0</ele><time>2026-04-02T12:12:19.293Z</time></trkpt><trkpt lat="45.3538304" lon="4.2058193"><ele>611.0</ele><time>2026-04-02T12:12:32.294Z</time></trkpt><trkpt lat="45.3537758" lon="4.2057556"><ele>611.0000000000001</ele><time>2026-04-02T12:12:37.295Z</time></trkpt><trkpt lat="45.3537131" lon="4.2057258"><ele>611.0</ele><time>2026-04-02T12:12:49.294Z</time></trkpt><trkpt lat="45.3536389" lon="4.2057126"><ele>610.8571428571429</ele><time>2026-04-02T12:12:55.293Z</time></trkpt><trkpt lat="45.353575" lon="4.2056856"><ele>610.7142857142858</ele><time>2026-04-02T12:12:59.294Z</time></trkpt><trkpt lat="45.3535102" lon="4.2056745"><ele>610.5714285714287</ele><time>2026-04-02T12:13:04.294Z</time></trkpt><trkpt lat="45.3534474" lon="4.2056904"><ele>610.4285714285714</ele><time>2026-04-02T12:13:08.294Z</time></trkpt><trkpt lat="45.3533801" lon="4.20566"><ele>610.2857142857142</ele><time>2026-04-02T12:13:13.294Z</time></trkpt><trkpt lat="45.3533071" lon="4.2056677"><ele>610.1428571428572</ele><time>2026-04-02T12:13:18.294Z</time></trkpt><trkpt lat="45.3532245" lon="4.2056765"><ele>610.0</ele><time>2026-04-02T12:14:19.294Z</time></trkpt><trkpt lat="45.3531382" lon="4.2056865"><ele>612.0</ele><time>2026-04-02T12:14:22.296Z</time></trkpt><trkpt lat="45.3530623" lon="4.2057104"><ele>614.0</ele><time>2026-04-02T12:14:25.294Z</time></trkpt><trkpt lat="45.353052" lon="4.2057989"><ele>616.0</ele><time>2026-04-02T12:14:38.293Z</time></trkpt><trkpt lat="45.3531272" lon="4.2058734"><ele>618.0</ele><time>2026-04-02T12:14:55.294Z</time></trkpt><trkpt lat="45.353207" lon="4.2059003"><ele>620.0</ele><time>2026-04-02T12:14:57.294Z</time></trkpt><trkpt lat="45.3533138" lon="4.2059518"><ele>622.0</ele><time>2026-04-02T12:14:59.294Z</time></trkpt><trkpt lat="45.3533868" lon="4.2059976"><ele>622.0</ele><time>2026-04-02T12:15:01.294Z</time></trkpt><trkpt lat="45.3534412" lon="4.2060501"><ele>622.0</ele><time>2026-04-02T12:15:03.295Z</time></trkpt><trkpt lat="45.3534842" lon="4.2061335"><ele>622.0</ele><time>2026-04-02T12:15:09.293Z</time></trkpt><trkpt lat="45.353526" lon="4.2062513"><ele>622.0</ele><time>2026-04-02T12:15:12.294Z</time></trkpt><trkpt lat="45.3535392" lon="4.2063713"><ele>622.0</ele><time>2026-04-02T12:15:15.294Z</time></trkpt><trkpt lat="45.3535132" lon="4.2064984"><ele>622.0</ele><time>2026-04-02T12:15:27.294Z</time></trkpt><trkpt lat="45.3534946" lon="4.2066072"><ele>624.0</ele><time>2026-04-02T12:15:29.294Z</time></trkpt><trkpt lat="45.3534693" lon="4.206717"><ele>626.0</ele><time>2026-04-02T12:15:31.295Z</time></trkpt><trkpt lat="45.353436" lon="4.2068209"><ele>628.0</ele><time>2026-04-02T12:15:33.295Z</time></trkpt><trkpt lat="45.3533805" lon="4.2069199"><ele>630.0</ele><time>2026-04-02T12:15:35.295Z</time></trkpt><trkpt lat="45.3533042" lon="4.2070118"><ele>632.0</ele><time>2026-04-02T12:15:37.294Z</time></trkpt><trkpt lat="45.3532295" lon="4.2070242"><ele>634.0</ele><time>2026-04-02T12:15:39.294Z</time></trkpt><trkpt lat="45.3531472" lon="4.2069632"><ele>634.0</ele><time>2026-04-02T12:15:41.293Z</time></trkpt><trkpt lat="45.3530884" lon="4.2069199"><ele>634.0</ele><time>2026-04-02T12:15:42.296Z</time></trkpt><trkpt lat="45.3530018" lon="4.2068555"><ele>634.0</ele><time>2026-04-02T12:15:44.295Z</time></trkpt><trkpt lat="45.3529341" lon="4.2068183"><ele>634.0</ele><time>2026-04-02T12:15:47.296Z</time></trkpt><trkpt lat="45.3528646" lon="4.2068195"><ele>634.0</ele><time>2026-04-02T12:16:08.294Z</time></trkpt><trkpt lat="45.3527853" lon="4.2068887"><ele>634.0</ele><time>2026-04-02T12:16:11.294Z</time></trkpt><trkpt lat="45.3527559" lon="4.2069832"><ele>635.0</ele><time>2026-04-02T12:16:13.294Z</time></trkpt><trkpt lat="45.3527549" lon="4.2071125"><ele>636.0</ele><time>2026-04-02T12:16:15.293Z</time></trkpt><trkpt lat="45.3527628" lon="4.2072508"><ele>637.0</ele><time>2026-04-02T12:16:17.295Z</time></trkpt><trkpt lat="45.3527246" lon="4.2073566"><ele>638.0</ele><time>2026-04-02T12:16:19.296Z</time></trkpt><trkpt lat="45.3526671" lon="4.2074357"><ele>639.0</ele><time>2026-04-02T12:16:21.295Z</time></trkpt><trkpt lat="45.352604" lon="4.2074531"><ele>640.0</ele><time>2026-04-02T12:16:23.296Z</time></trkpt><trkpt lat="45.3525309" lon="4.2074391"><ele>641.0</ele><time>2026-04-02T12:16:25.295Z</time></trkpt><trkpt lat="45.3524647" lon="4.2074147"><ele>642.0</ele><time>2026-04-02T12:16:28.294Z</time></trkpt><trkpt lat="45.3524385" lon="4.2073283"><ele>643.0</ele><time>2026-04-02T12:16:32.295Z</time></trkpt><trkpt lat="45.3524151" lon="4.2074172"><ele>644.0</ele><time>2026-04-02T12:16:47.296Z</time></trkpt><trkpt lat="45.3523587" lon="4.2075051"><ele>645.0</ele><time>2026-04-02T12:16:49.295Z</time></trkpt><trkpt lat="45.3523127" lon="4.2075728"><ele>646.0</ele><time>2026-04-02T12:16:51.294Z</time></trkpt><trkpt lat="45.3522435" lon="4.2076371"><ele>647.0</ele><time>2026-04-02T12:16:54.296Z</time></trkpt><trkpt lat="45.3521775" lon="4.2076681"><ele>646.8333333333333</ele><time>2026-04-02T12:16:56.296Z</time></trkpt><trkpt lat="45.3521105" lon="4.2076328"><ele>646.6666666666666</ele><time>2026-04-02T12:16:58.294Z</time></trkpt><trkpt lat="45.352062" lon="4.2075706"><ele>646.5</ele><time>2026-04-02T12:17:01.295Z</time></trkpt><trkpt lat="45.3520322" lon="4.2074907"><ele>646.3333333333334</ele><time>2026-04-02T12:17:10.296Z</time></trkpt><trkpt lat="45.3519868" lon="4.207397"><ele>646.1666666666667</ele><time>2026-04-02T12:17:12.295Z</time></trkpt><trkpt lat="45.3518889" lon="4.2073469"><ele>646.0</ele><time>2026-04-02T12:17:14.295Z</time></trkpt><trkpt lat="45.3517891" lon="4.207297"><ele>646.0</ele><time>2026-04-02T12:17:16.296Z</time></trkpt><trkpt lat="45.3516817" lon="4.2072368"><ele>646.0</ele><time>2026-04-02T12:17:18.295Z</time></trkpt><trkpt lat="45.351624" lon="4.2071733"><ele>646.0</ele><time>2026-04-02T12:17:19.294Z</time></trkpt><trkpt lat="45.3515669" lon="4.2071169"><ele>646.0</ele><time>2026-04-02T12:17:20.295Z</time></trkpt><trkpt lat="45.3514971" lon="4.2070459"><ele>646.0</ele><time>2026-04-02T12:17:21.294Z</time></trkpt><trkpt lat="45.3514246" lon="4.2069812"><ele>646.0</ele><time>2026-04-02T12:17:22.295Z</time></trkpt><trkpt lat="45.3513529" lon="4.2069095"><ele>647.1666666666667</ele><time>2026-04-02T12:17:23.295Z</time></trkpt><trkpt lat="45.3512758" lon="4.2068478"><ele>648.3333333333334</ele><time>2026-04-02T12:17:24.294Z</time></trkpt><trkpt lat="45.3512047" lon="4.2067794"><ele>649.5</ele><time>2026-04-02T12:17:25.295Z</time></trkpt><trkpt lat="45.3511258" lon="4.2067337"><ele>650.6666666666666</ele><time>2026-04-02T12:17:26.294Z</time></trkpt><trkpt lat="45.3510432" lon="4.2066819"><ele>651.8333333333333</ele><time>2026-04-02T12:17:27.295Z</time></trkpt><trkpt lat="45.3509566" lon="4.2066404"><ele>653.0</ele><time>2026-04-02T12:17:28.296Z</time></trkpt><trkpt lat="45.3508696" lon="4.2066051"><ele>653.0</ele><time>2026-04-02T12:17:29.295Z</time></trkpt><trkpt lat="45.3507778" lon="4.2065667"><ele>653.0</ele><time>2026-04-02T12:17:30.296Z</time></trkpt><trkpt lat="45.3506802" lon="4.2065274"><ele>653.0</ele><time>2026-04-02T12:17:31.296Z</time></trkpt><trkpt lat="45.3505853" lon="4.2064962"><ele>653.0</ele><time>2026-04-02T12:17:32.295Z</time></trkpt><trkpt lat="45.3505086" lon="4.2064648"><ele>653.0</ele><time>2026-04-02T12:17:33.296Z</time></trkpt><trkpt lat="45.3504383" lon="4.2064216"><ele>652.5714285714287</ele><time>2026-04-02T12:17:34.295Z</time></trkpt><trkpt lat="45.3503854" lon="4.2063542"><ele>652.1428571428571</ele><time>2026-04-02T12:17:35.295Z</time></trkpt><trkpt lat="45.3503317" lon="4.2062815"><ele>651.7142857142858</ele><time>2026-04-02T12:17:36.295Z</time></trkpt><trkpt lat="45.3502873" lon="4.20618"><ele>651.2857142857143</ele><time>2026-04-02T12:17:37.295Z</time></trkpt><trkpt lat="45.3502585" lon="4.2060766"><ele>650.8571428571429</ele><time>2026-04-02T12:17:38.295Z</time></trkpt><trkpt lat="45.3502279" lon="4.2059893"><ele>650.4285714285714</ele><time>2026-04-02T12:17:39.294Z</time></trkpt><trkpt lat="45.3501975" lon="4.2058975"><ele>650.0</ele><time>2026-04-02T12:17:40.297Z</time></trkpt><trkpt lat="45.3501629" lon="4.2058069"><ele>650.0</ele><time>2026-04-02T12:17:41.294Z</time></trkpt><trkpt lat="45.3501293" lon="4.2057129"><ele>650.0</ele><time>2026-04-02T12:17:42.296Z</time></trkpt><trkpt lat="45.3500913" lon="4.2056247"><ele>650.0</ele><time>2026-04-02T12:17:43.296Z</time></trkpt><trkpt lat="45.3500475" lon="4.2055396"><ele>650.0</ele><time>2026-04-02T12:17:44.295Z</time></trkpt><trkpt lat="45.3500107" lon="4.2054467"><ele>650.0</ele><time>2026-04-02T12:17:45.296Z</time></trkpt><trkpt lat="45.3499728" lon="4.2053606"><ele>650.0</ele><time>2026-04-02T12:17:46.295Z</time></trkpt><trkpt lat="45.3499467" lon="4.2052733"><ele>650.0</ele><time>2026-04-02T12:17:47.294Z</time></trkpt><trkpt lat="45.3499083" lon="4.2051507"><ele>650.2</ele><time>2026-04-02T12:17:49.295Z</time></trkpt><trkpt lat="45.3498351" lon="4.2050525"><ele>650.4</ele><time>2026-04-02T12:18:38.295Z</time></trkpt><trkpt lat="45.3497583" lon="4.2049834"><ele>650.5999999999999</ele><time>2026-04-02T12:18:40.293Z</time></trkpt><trkpt lat="45.3496752" lon="4.2049512"><ele>650.8</ele><time>2026-04-02T12:18:42.295Z</time></trkpt><trkpt lat="45.349566" lon="4.2049298"><ele>651.0</ele><time>2026-04-02T12:18:44.296Z</time></trkpt><trkpt lat="45.3494919" lon="4.2049326"><ele>651.0</ele><time>2026-04-02T12:18:45.294Z</time></trkpt><trkpt lat="45.3494119" lon="4.2049243"><ele>651.0</ele><time>2026-04-02T12:18:46.295Z</time></trkpt><trkpt lat="45.3493263" lon="4.2048971"><ele>651.0</ele><time>2026-04-02T12:18:47.296Z</time></trkpt><trkpt lat="45.3492361" lon="4.2048627"><ele>651.0</ele><time>2026-04-02T12:18:48.296Z</time></trkpt><trkpt lat="45.3491481" lon="4.2048281"><ele>651.0</ele><time>2026-04-02T12:18:49.296Z</time></trkpt><trkpt lat="45.3490533" lon="4.2047804"><ele>650.3333333333334</ele><time>2026-04-02T12:18:50.295Z</time></trkpt><trkpt lat="45.3489641" lon="4.2047193"><ele>649.6666666666666</ele><time>2026-04-02T12:18:51.295Z</time></trkpt><trkpt lat="45.3488841" lon="4.2046692"><ele>649.0</ele><time>2026-04-02T12:18:52.296Z</time></trkpt><trkpt lat="45.3488037" lon="4.2046266"><ele>648.3333333333333</ele><time>2026-04-02T12:18:53.294Z</time></trkpt><trkpt lat="45.3487364" lon="4.2045759"><ele>647.6666666666666</ele><time>2026-04-02T12:18:54.295Z</time></trkpt><trkpt lat="45.3486622" lon="4.204527"><ele>647.0</ele><time>2026-04-02T12:18:55.296Z</time></trkpt><trkpt lat="45.3486043" lon="4.2044705"><ele>646.8571428571429</ele><time>2026-04-02T12:18:56.296Z</time></trkpt><trkpt lat="45.3485438" lon="4.2044181"><ele>646.7142857142858</ele><time>2026-04-02T12:18:57.296Z</time></trkpt><trkpt lat="45.3484833" lon="4.2043695"><ele>646.5714285714287</ele><time>2026-04-02T12:18:58.296Z</time></trkpt><trkpt lat="45.3484293" lon="4.2043098"><ele>646.4285714285714</ele><time>2026-04-02T12:18:59.295Z</time></trkpt><trkpt lat="45.348369" lon="4.2042697"><ele>646.2857142857143</ele><time>2026-04-02T12:19:00.294Z</time></trkpt><trkpt lat="45.3483097" lon="4.2042281"><ele>646.1428571428572</ele><time>2026-04-02T12:19:01.295Z</time></trkpt><trkpt lat="45.3482479" lon="4.2041812"><ele>646.0</ele><time>2026-04-02T12:19:02.296Z</time></trkpt><trkpt lat="45.3481864" lon="4.2041355"><ele>646.0</ele><time>2026-04-02T12:19:03.295Z</time></trkpt><trkpt lat="45.3481237" lon="4.2040843"><ele>646.0</ele><time>2026-04-02T12:19:04.296Z</time></trkpt><trkpt lat="45.3480559" lon="4.2040422"><ele>646.0</ele><time>2026-04-02T12:19:05.296Z</time></trkpt><trkpt lat="45.3479918" lon="4.2039958"><ele>646.0</ele><time>2026-04-02T12:19:06.295Z</time></trkpt><trkpt lat="45.347922" lon="4.2039456"><ele>646.0</ele><time>2026-04-02T12:19:07.295Z</time></trkpt><trkpt lat="45.3478549" lon="4.2038889"><ele>646.0</ele><time>2026-04-02T12:19:08.296Z</time></trkpt><trkpt lat="45.3477785" lon="4.2038313"><ele>646.0</ele><time>2026-04-02T12:19:09.296Z</time></trkpt><trkpt lat="45.3477046" lon="4.2037765"><ele>646.0</ele><time>2026-04-02T12:19:10.296Z</time></trkpt><trkpt lat="45.3476328" lon="4.2037246"><ele>646.0</ele><time>2026-04-02T12:19:11.295Z</time></trkpt><trkpt lat="45.347566" lon="4.2036676"><ele>646.0</ele><time>2026-04-02T12:19:12.296Z</time></trkpt><trkpt lat="45.3475043" lon="4.2036036"><ele>646.0</ele><time>2026-04-02T12:19:13.294Z</time></trkpt><trkpt lat="45.3474425" lon="4.2035182"><ele>646.0</ele><time>2026-04-02T12:19:14.295Z</time></trkpt><trkpt lat="45.347371" lon="4.2034311"><ele>646.0</ele><time>2026-04-02T12:19:15.296Z</time></trkpt><trkpt lat="45.3473082" lon="4.2033579"><ele>646.0</ele><time>2026-04-02T12:19:16.296Z</time></trkpt><trkpt lat="45.3472533" lon="4.203296"><ele>646.0</ele><time>2026-04-02T12:19:17.296Z</time></trkpt><trkpt lat="45.347177" lon="4.2032218"><ele>646.0</ele><time>2026-04-02T12:19:21.295Z</time></trkpt><trkpt lat="45.3470737" lon="4.2031417"><ele>646.0</ele><time>2026-04-02T12:19:23.294Z</time></trkpt><trkpt lat="45.3470134" lon="4.2031089"><ele>646.0</ele><time>2026-04-02T12:19:24.294Z</time></trkpt><trkpt lat="45.3469524" lon="4.2030836"><ele>645.0</ele><time>2026-04-02T12:19:25.295Z</time></trkpt><trkpt lat="45.3468448" lon="4.2030403"><ele>644.0</ele><time>2026-04-02T12:19:27.295Z</time></trkpt><trkpt lat="45.3467795" lon="4.2030126"><ele>643.0</ele><time>2026-04-02T12:19:30.296Z</time></trkpt><trkpt lat="45.3467044" lon="4.2030139"><ele>642.0</ele><time>2026-04-02T12:20:49.295Z</time></trkpt><trkpt lat="45.3466303" lon="4.2030151"><ele>641.0</ele><time>2026-04-02T12:20:51.295Z</time></trkpt><trkpt lat="45.3465443" lon="4.2029809"><ele>640.0</ele><time>2026-04-02T12:21:02.296Z</time></trkpt><trkpt lat="45.3464471" lon="4.2029437"><ele>640.1666666666667</ele><time>2026-04-02T12:21:04.296Z</time></trkpt><trkpt lat="45.3463621" lon="4.2029002"><ele>640.3333333333334</ele><time>2026-04-02T12:21:06.297Z</time></trkpt><trkpt lat="45.3462784" lon="4.2028803"><ele>640.5</ele><time>2026-04-02T12:21:08.295Z</time></trkpt><trkpt lat="45.3462031" lon="4.2028457"><ele>640.6666666666666</ele><time>2026-04-02T12:21:10.296Z</time></trkpt><trkpt lat="45.3461382" lon="4.2028242"><ele>640.8333333333333</ele><time>2026-04-02T12:21:12.296Z</time></trkpt><trkpt lat="45.3460734" lon="4.2027863"><ele>641.0</ele><time>2026-04-02T12:21:17.296Z</time></trkpt><trkpt lat="45.3461641" lon="4.2028496"><ele>641.0</ele><time>2026-04-02T12:21:24.296Z</time></trkpt><trkpt lat="45.3462547" lon="4.2028647"><ele>641.0</ele><time>2026-04-02T12:21:25.295Z</time></trkpt><trkpt lat="45.3463566" lon="4.2029051"><ele>641.0</ele><time>2026-04-02T12:21:26.294Z</time></trkpt><trkpt lat="45.3464581" lon="4.2029522"><ele>641.0</ele><time>2026-04-02T12:21:27.297Z</time></trkpt><trkpt lat="45.3465479" lon="4.2029927"><ele>641.0</ele><time>2026-04-02T12:21:28.297Z</time></trkpt><trkpt lat="45.346648" lon="4.203019"><ele>640.8333333333333</ele><time>2026-04-02T12:21:30.296Z</time></trkpt><trkpt lat="45.346661" lon="4.2029053"><ele>640.6666666666666</ele><time>2026-04-02T12:21:33.296Z</time></trkpt><trkpt lat="45.3466142" lon="4.2028199"><ele>640.5</ele><time>2026-04-02T12:21:35.297Z</time></trkpt><trkpt lat="45.346554" lon="4.2027356"><ele>640.3333333333334</ele><time>2026-04-02T12:21:36.296Z</time></trkpt><trkpt lat="45.3464998" lon="4.2026417"><ele>640.1666666666667</ele><time>2026-04-02T12:21:37.296Z</time></trkpt><trkpt lat="45.34645" lon="4.2025634"><ele>640.0</ele><time>2026-04-02T12:21:38.296Z</time></trkpt><trkpt lat="45.3463997" lon="4.2024964"><ele>640.2</ele><time>2026-04-02T12:21:39.295Z</time></trkpt><trkpt lat="45.3463525" lon="4.2024224"><ele>640.4</ele><time>2026-04-02T12:21:40.294Z</time></trkpt><trkpt lat="45.3462672" lon="4.2022985"><ele>640.5999999999999</ele><time>2026-04-02T12:21:42.296Z</time></trkpt><trkpt lat="45.3461972" lon="4.2021931"><ele>640.8</ele><time>2026-04-02T12:21:44.297Z</time></trkpt><trkpt lat="45.3461177" lon="4.2020726"><ele>641.0</ele><time>2026-04-02T12:21:46.296Z</time></trkpt><trkpt lat="45.3460288" lon="4.2019639"><ele>639.6666666666666</ele><time>2026-04-02T12:21:48.294Z</time></trkpt><trkpt lat="45.3459531" lon="4.2018243"><ele>638.3333333333333</ele><time>2026-04-02T12:21:50.295Z</time></trkpt><trkpt lat="45.3458988" lon="4.2017501"><ele>637.0</ele><time>2026-04-02T12:21:51.297Z</time></trkpt><trkpt lat="45.3458407" lon="4.2016602"><ele>635.6666666666666</ele><time>2026-04-02T12:21:52.296Z</time></trkpt><trkpt lat="45.3457931" lon="4.2015652"><ele>634.3333333333334</ele><time>2026-04-02T12:21:53.296Z</time></trkpt><trkpt lat="45.3457513" lon="4.201465"><ele>633.0</ele><time>2026-04-02T12:21:54.295Z</time></trkpt><trkpt lat="45.3457003" lon="4.2013565"><ele>632.6</ele><time>2026-04-02T12:21:55.297Z</time></trkpt><trkpt lat="45.3456501" lon="4.2012312"><ele>632.1999999999999</ele><time>2026-04-02T12:21:56.297Z</time></trkpt><trkpt lat="45.3456104" lon="4.2010867"><ele>631.8</ele><time>2026-04-02T12:21:57.296Z</time></trkpt><trkpt lat="45.3455829" lon="4.2009619"><ele>631.4</ele><time>2026-04-02T12:21:58.296Z</time></trkpt><trkpt lat="45.3455521" lon="4.2008497"><ele>631.0</ele><time>2026-04-02T12:21:59.296Z</time></trkpt><trkpt lat="45.3455322" lon="4.2007381"><ele>630.2</ele><time>2026-04-02T12:22:00.296Z</time></trkpt><trkpt lat="45.3455076" lon="4.2006307"><ele>629.4000000000001</ele><time>2026-04-02T12:22:01.295Z</time></trkpt><trkpt lat="45.3454746" lon="4.2005367"><ele>628.6</ele><time>2026-04-02T12:22:02.297Z</time></trkpt><trkpt lat="45.3454265" lon="4.2004274"><ele>627.8000000000001</ele><time>2026-04-02T12:22:04.294Z</time></trkpt><trkpt lat="45.3453752" lon="4.2003007"><ele>627.0</ele><time>2026-04-02T12:22:06.294Z</time></trkpt><trkpt lat="45.3453013" lon="4.200158"><ele>627.0</ele><time>2026-04-02T12:22:08.296Z</time></trkpt><trkpt lat="45.3452538" lon="4.2000805"><ele>627.0</ele><time>2026-04-02T12:22:09.296Z</time></trkpt><trkpt lat="45.3451583" lon="4.199955"><ele>627.0</ele><time>2026-04-02T12:22:11.296Z</time></trkpt><trkpt lat="45.3450595" lon="4.1998614"><ele>627.0</ele><time>2026-04-02T12:22:13.295Z</time></trkpt><trkpt lat="45.3449941" lon="4.1998324"><ele>627.0</ele><time>2026-04-02T12:22:14.297Z</time></trkpt><trkpt lat="45.3449149" lon="4.1997898"><ele>625.5</ele><time>2026-04-02T12:22:15.295Z</time></trkpt><trkpt lat="45.3448416" lon="4.1997531"><ele>624.0</ele><time>2026-04-02T12:22:16.296Z</time></trkpt><trkpt lat="45.3447767" lon="4.1997184"><ele>622.5</ele><time>2026-04-02T12:22:17.295Z</time></trkpt><trkpt lat="45.3446884" lon="4.1996438"><ele>621.0</ele><time>2026-04-02T12:22:19.296Z</time></trkpt><trkpt lat="45.3446244" lon="4.1995539"><ele>619.5</ele><time>2026-04-02T12:22:21.297Z</time></trkpt><trkpt lat="45.3445923" lon="4.1994739"><ele>618.0</ele><time>2026-04-02T12:22:23.297Z</time></trkpt><trkpt lat="45.3445207" lon="4.1993872"><ele>616.0</ele><time>2026-04-02T12:22:57.297Z</time></trkpt><trkpt lat="45.3444368" lon="4.1993686"><ele>614.0</ele><time>2026-04-02T12:22:59.296Z</time></trkpt><trkpt lat="45.3443666" lon="4.1994503"><ele>612.0</ele><time>2026-04-02T12:23:01.296Z</time></trkpt><trkpt lat="45.3442819" lon="4.1995293"><ele>610.0</ele><time>2026-04-02T12:23:03.296Z</time></trkpt><trkpt lat="45.3441868" lon="4.1995934"><ele>608.0</ele><time>2026-04-02T12:23:05.296Z</time></trkpt><trkpt lat="45.3440763" lon="4.1996486"><ele>608.0</ele><time>2026-04-02T12:23:07.297Z</time></trkpt><trkpt lat="45.3440022" lon="4.1996427"><ele>608.0</ele><time>2026-04-02T12:23:09.295Z</time></trkpt><trkpt lat="45.3439389" lon="4.1996141"><ele>608.0</ele><time>2026-04-02T12:23:11.297Z</time></trkpt><trkpt lat="45.3438785" lon="4.1995503"><ele>608.0</ele><time>2026-04-02T12:23:13.297Z</time></trkpt><trkpt lat="45.3438238" lon="4.1994685"><ele>608.0</ele><time>2026-04-02T12:23:15.297Z</time></trkpt><trkpt lat="45.3437855" lon="4.1993786"><ele>608.0</ele><time>2026-04-02T12:23:17.297Z</time></trkpt><trkpt lat="45.3437677" lon="4.1992848"><ele>608.0</ele><time>2026-04-02T12:23:19.296Z</time></trkpt><trkpt lat="45.3437599" lon="4.1991873"><ele>604.0</ele><time>2026-04-02T12:23:21.297Z</time></trkpt><trkpt lat="45.3437405" lon="4.1990681"><ele>600.0</ele><time>2026-04-02T12:23:23.296Z</time></trkpt><trkpt lat="45.3437192" lon="4.1989576"><ele>596.0</ele><time>2026-04-02T12:23:25.296Z</time></trkpt><trkpt lat="45.3437037" lon="4.19886"><ele>592.0</ele><time>2026-04-02T12:23:27.297Z</time></trkpt><trkpt lat="45.3436809" lon="4.1987471"><ele>588.0</ele><time>2026-04-02T12:23:30.297Z</time></trkpt><trkpt lat="45.343662" lon="4.1986423"><ele>584.0</ele><time>2026-04-02T12:23:33.296Z</time></trkpt><trkpt lat="45.3437107" lon="4.1985373"><ele>583.5714285714286</ele><time>2026-04-02T12:23:36.297Z</time></trkpt><trkpt lat="45.3437777" lon="4.1984987"><ele>583.1428571428571</ele><time>2026-04-02T12:23:39.296Z</time></trkpt><trkpt lat="45.3438419" lon="4.198471"><ele>582.7142857142858</ele><time>2026-04-02T12:23:48.296Z</time></trkpt><trkpt lat="45.3438541" lon="4.1983758"><ele>582.2857142857142</ele><time>2026-04-02T12:23:50.296Z</time></trkpt><trkpt lat="45.3437981" lon="4.1983094"><ele>581.8571428571429</ele><time>2026-04-02T12:23:51.295Z</time></trkpt><trkpt lat="45.3437483" lon="4.1981978"><ele>581.4285714285714</ele><time>2026-04-02T12:23:53.297Z</time></trkpt><trkpt lat="45.3438043" lon="4.1981355"><ele>581.0</ele><time>2026-04-02T12:23:55.297Z</time></trkpt><trkpt lat="45.3439146" lon="4.1981201"><ele>581.0</ele><time>2026-04-02T12:23:57.297Z</time></trkpt><trkpt lat="45.3440057" lon="4.1981178"><ele>581.0</ele><time>2026-04-02T12:23:59.295Z</time></trkpt><trkpt lat="45.3441033" lon="4.1981094"><ele>581.0</ele><time>2026-04-02T12:24:02.296Z</time></trkpt><trkpt lat="45.3441927" lon="4.1981084"><ele>581.0</ele><time>2026-04-02T12:24:04.296Z</time></trkpt><trkpt lat="45.344284" lon="4.1981183"><ele>581.0</ele><time>2026-04-02T12:24:06.297Z</time></trkpt><trkpt lat="45.3443303" lon="4.1981935"><ele>581.0</ele><time>2026-04-02T12:24:08.296Z</time></trkpt><trkpt lat="45.3442868" lon="4.19826"><ele>583.0</ele><time>2026-04-02T12:24:10.297Z</time></trkpt><trkpt lat="45.3442074" lon="4.1983084"><ele>585.0</ele><time>2026-04-02T12:24:12.297Z</time></trkpt><trkpt lat="45.3441336" lon="4.1983401"><ele>587.0</ele><time>2026-04-02T12:24:15.297Z</time></trkpt><trkpt lat="45.3440819" lon="4.1984045"><ele>589.0</ele><time>2026-04-02T12:24:30.296Z</time></trkpt><trkpt lat="45.3440159" lon="4.1984321"><ele>591.0</ele><time>2026-04-02T12:24:48.297Z</time></trkpt><trkpt lat="45.3439993" lon="4.1985314"><ele>593.0</ele><time>2026-04-02T12:24:52.297Z</time></trkpt><trkpt lat="45.3439874" lon="4.1986334"><ele>595.0</ele><time>2026-04-02T12:24:54.297Z</time></trkpt><trkpt lat="45.3439533" lon="4.1987129"><ele>595.0</ele><time>2026-04-02T12:24:56.296Z</time></trkpt><trkpt lat="45.3439112" lon="4.1988047"><ele>595.0</ele><time>2026-04-02T12:24:58.298Z</time></trkpt><trkpt lat="45.3438582" lon="4.1989001"><ele>595.0</ele><time>2026-04-02T12:25:00.297Z</time></trkpt><trkpt lat="45.3438141" lon="4.199001"><ele>595.0</ele><time>2026-04-02T12:25:02.297Z</time></trkpt><trkpt lat="45.3438343" lon="4.1991561"><ele>595.0</ele><time>2026-04-02T12:25:04.297Z</time></trkpt><trkpt lat="45.3438715" lon="4.199303"><ele>597.1666666666667</ele><time>2026-04-02T12:25:06.297Z</time></trkpt><trkpt lat="45.3439217" lon="4.1994154"><ele>599.3333333333334</ele><time>2026-04-02T12:25:08.296Z</time></trkpt><trkpt lat="45.3439975" lon="4.1995253"><ele>601.5</ele><time>2026-04-02T12:25:10.298Z</time></trkpt><trkpt lat="45.3440725" lon="4.1995267"><ele>603.6666666666666</ele><time>2026-04-02T12:25:12.295Z</time></trkpt><trkpt lat="45.3440453" lon="4.1994222"><ele>605.8333333333333</ele><time>2026-04-02T12:25:14.297Z</time></trkpt><trkpt lat="45.3439873" lon="4.199335"><ele>608.0</ele><time>2026-04-02T12:25:16.297Z</time></trkpt><trkpt lat="45.3439386" lon="4.1992378"><ele>608.0</ele><time>2026-04-02T12:25:18.297Z</time></trkpt><trkpt lat="45.343891" lon="4.199128"><ele>608.0</ele><time>2026-04-02T12:25:20.296Z</time></trkpt><trkpt lat="45.3439205" lon="4.1990327"><ele>608.0</ele><time>2026-04-02T12:25:26.298Z</time></trkpt><trkpt lat="45.3439893" lon="4.1990776"><ele>608.0</ele><time>2026-04-02T12:25:29.297Z</time></trkpt><trkpt lat="45.3440403" lon="4.1991889"><ele>608.0</ele><time>2026-04-02T12:25:32.298Z</time></trkpt><trkpt lat="45.3441055" lon="4.1992735"><ele>608.0</ele><time>2026-04-02T12:25:34.295Z</time></trkpt><trkpt lat="45.3441797" lon="4.1993208"><ele>608.0</ele><time>2026-04-02T12:25:36.297Z</time></trkpt><trkpt lat="45.3442491" lon="4.1992584"><ele>608.0</ele><time>2026-04-02T12:25:38.297Z</time></trkpt><trkpt lat="45.3443196" lon="4.1991814"><ele>608.0</ele><time>2026-04-02T12:25:40.295Z</time></trkpt><trkpt lat="45.3443853" lon="4.1991075"><ele>608.0</ele><time>2026-04-02T12:25:42.297Z</time></trkpt><trkpt lat="45.3444877" lon="4.1990633"><ele>608.0</ele><time>2026-04-02T12:25:44.297Z</time></trkpt><trkpt lat="45.3445769" lon="4.199034"><ele>608.0</ele><time>2026-04-02T12:25:46.296Z</time></trkpt><trkpt lat="45.3446343" lon="4.1989942"><ele>608.0</ele><time>2026-04-02T12:25:48.296Z</time></trkpt><trkpt lat="45.3445834" lon="4.198914"><ele>608.0</ele><time>2026-04-02T12:25:52.295Z</time></trkpt><trkpt lat="45.3444848" lon="4.198952"><ele>608.0</ele><time>2026-04-02T12:25:54.296Z</time></trkpt><trkpt lat="45.3444187" lon="4.1989783"><ele>608.0</ele><time>2026-04-02T12:25:56.298Z</time></trkpt><trkpt lat="45.3443546" lon="4.1989894"><ele>608.0</ele><time>2026-04-02T12:25:58.296Z</time></trkpt><trkpt lat="45.344274" lon="4.1990111"><ele>608.0</ele><time>2026-04-02T12:26:01.296Z</time></trkpt><trkpt lat="45.3441798" lon="4.1990025"><ele>608.0</ele><time>2026-04-02T12:26:04.297Z</time></trkpt><trkpt lat="45.344095" lon="4.1989682"><ele>608.0</ele><time>2026-04-02T12:26:07.297Z</time></trkpt><trkpt lat="45.3440251" lon="4.1988902"><ele>608.0</ele><time>2026-04-02T12:26:10.296Z</time></trkpt><trkpt lat="45.3440453" lon="4.1987853"><ele>608.0</ele><time>2026-04-02T12:26:13.296Z</time></trkpt><trkpt lat="45.3441011" lon="4.1987223"><ele>608.0</ele><time>2026-04-02T12:26:16.297Z</time></trkpt><trkpt lat="45.3441559" lon="4.1986539"><ele>606.1428571428571</ele><time>2026-04-02T12:26:26.298Z</time></trkpt><trkpt lat="45.3442017" lon="4.1985832"><ele>604.2857142857143</ele><time>2026-04-02T12:26:28.297Z</time></trkpt><trkpt lat="45.3442494" lon="4.1985163"><ele>602.4285714285714</ele><time>2026-04-02T12:26:30.297Z</time></trkpt><trkpt lat="45.3441843" lon="4.1985294"><ele>600.5714285714286</ele><time>2026-04-02T12:26:36.296Z</time></trkpt><trkpt lat="45.3441155" lon="4.1985856"><ele>598.7142857142858</ele><time>2026-04-02T12:26:38.296Z</time></trkpt><trkpt lat="45.3440435" lon="4.1986387"><ele>596.8571428571429</ele><time>2026-04-02T12:26:57.297Z</time></trkpt><trkpt lat="45.3440074" lon="4.1985636"><ele>595.0</ele><time>2026-04-02T12:27:00.297Z</time></trkpt><trkpt lat="45.3440425" lon="4.1984881"><ele>595.0</ele><time>2026-04-02T12:27:03.296Z</time></trkpt></trkseg><trkseg><trkpt lat="45.3441279" lon="4.1983573"><ele>595.0</ele><time>2026-04-02T12:41:55.298Z</time></trkpt><trkpt lat="45.3441907" lon="4.1983117"><ele>595.0</ele><time>2026-04-02T12:41:57.299Z</time></trkpt><trkpt lat="45.3442569" lon="4.1982713"><ele>595.0</ele><time>2026-04-02T12:41:59.299Z</time></trkpt><trkpt lat="45.3443143" lon="4.1982201"><ele>595.0</ele><time>2026-04-02T12:42:01.298Z</time></trkpt><trkpt lat="45.3442573" lon="4.1981228"><ele>595.0</ele><time>2026-04-02T12:42:04.298Z</time></trkpt><trkpt lat="45.344166" lon="4.198101"><ele>595.0</ele><time>2026-04-02T12:42:06.297Z</time></trkpt><trkpt lat="45.3440728" lon="4.1981096"><ele>593.0</ele><time>2026-04-02T12:42:08.298Z</time></trkpt><trkpt lat="45.3439982" lon="4.1981121"><ele>591.0</ele><time>2026-04-02T12:42:10.298Z</time></trkpt><trkpt lat="45.3439208" lon="4.198113"><ele>589.0</ele><time>2026-04-02T12:42:12.298Z</time></trkpt><trkpt lat="45.3438519" lon="4.1981196"><ele>587.0</ele><time>2026-04-02T12:42:14.298Z</time></trkpt><trkpt lat="45.3437704" lon="4.1981434"><ele>585.0</ele><time>2026-04-02T12:42:16.298Z</time></trkpt><trkpt lat="45.3437194" lon="4.1982098"><ele>583.0</ele><time>2026-04-02T12:42:18.297Z</time></trkpt><trkpt lat="45.3437638" lon="4.1982774"><ele>581.0</ele><time>2026-04-02T12:42:19.298Z</time></trkpt><trkpt lat="45.3438317" lon="4.1983823"><ele>579.5714285714286</ele><time>2026-04-02T12:42:21.298Z</time></trkpt><trkpt lat="45.343824" lon="4.1984737"><ele>578.1428571428571</ele><time>2026-04-02T12:42:23.297Z</time></trkpt><trkpt lat="45.3437551" lon="4.1985215"><ele>576.7142857142858</ele><time>2026-04-02T12:42:26.298Z</time></trkpt><trkpt lat="45.3436976" lon="4.1985686"><ele>575.2857142857142</ele><time>2026-04-02T12:42:29.298Z</time></trkpt><trkpt lat="45.3436546" lon="4.1986486"><ele>573.8571428571429</ele><time>2026-04-02T12:42:49.298Z</time></trkpt><trkpt lat="45.3436081" lon="4.1985652"><ele>572.4285714285714</ele><time>2026-04-02T12:42:53.299Z</time></trkpt><trkpt lat="45.3435777" lon="4.1984584"><ele>571.0</ele><time>2026-04-02T12:42:57.298Z</time></trkpt><trkpt lat="45.3435348" lon="4.1983357"><ele>571.0</ele><time>2026-04-02T12:43:00.297Z</time></trkpt><trkpt lat="45.343511" lon="4.1982226"><ele>571.0</ele><time>2026-04-02T12:43:02.299Z</time></trkpt><trkpt lat="45.3434801" lon="4.1981176"><ele>571.0</ele><time>2026-04-02T12:43:04.298Z</time></trkpt><trkpt lat="45.3434352" lon="4.1980348"><ele>571.0</ele><time>2026-04-02T12:43:06.298Z</time></trkpt><trkpt lat="45.3433945" lon="4.1979401"><ele>571.0</ele><time>2026-04-02T12:43:08.298Z</time></trkpt><trkpt lat="45.34336" lon="4.1978581"><ele>571.0</ele><time>2026-04-02T12:43:10.298Z</time></trkpt><trkpt lat="45.3433196" lon="4.1977656"><ele>571.2</ele><time>2026-04-02T12:43:13.298Z</time></trkpt><trkpt lat="45.3432908" lon="4.1976575"><ele>571.4000000000001</ele><time>2026-04-02T12:43:17.297Z</time></trkpt><trkpt lat="45.3432984" lon="4.1975586"><ele>571.6</ele><time>2026-04-02T12:43:21.298Z</time></trkpt><trkpt lat="45.3433407" lon="4.1974148"><ele>571.8000000000001</ele><time>2026-04-02T12:43:24.299Z</time></trkpt><trkpt lat="45.3433879" lon="4.1972883"><ele>572.0</ele><time>2026-04-02T12:43:26.298Z</time></trkpt><trkpt lat="45.3434442" lon="4.1971715"><ele>571.6666666666666</ele><time>2026-04-02T12:43:28.298Z</time></trkpt><trkpt lat="45.3434823" lon="4.1970503"><ele>571.3333333333333</ele><time>2026-04-02T12:43:30.298Z</time></trkpt><trkpt lat="45.3435428" lon="4.1969632"><ele>571.0</ele><time>2026-04-02T12:43:32.299Z</time></trkpt><trkpt lat="45.3436232" lon="4.196911"><ele>570.6666666666666</ele><time>2026-04-02T12:43:34.297Z</time></trkpt><trkpt lat="45.3436878" lon="4.1968845"><ele>570.3333333333334</ele><time>2026-04-02T12:43:36.298Z</time></trkpt><trkpt lat="45.343779" lon="4.196886"><ele>570.0</ele><time>2026-04-02T12:43:38.299Z</time></trkpt><trkpt lat="45.3438433" lon="4.196877"><ele>567.2</ele><time>2026-04-02T12:43:39.299Z</time></trkpt><trkpt lat="45.3439767" lon="4.1968776"><ele>564.4</ele><time>2026-04-02T12:43:41.299Z</time></trkpt><trkpt lat="45.3440475" lon="4.196855"><ele>561.6</ele><time>2026-04-02T12:43:42.299Z</time></trkpt><trkpt lat="45.3441596" lon="4.1968533"><ele>558.8</ele><time>2026-04-02T12:43:44.299Z</time></trkpt><trkpt lat="45.3442687" lon="4.1968664"><ele>556.0</ele><time>2026-04-02T12:43:46.299Z</time></trkpt><trkpt lat="45.3443541" lon="4.1968789"><ele>556.0</ele><time>2026-04-02T12:43:48.298Z</time></trkpt><trkpt lat="45.3444162" lon="4.1969156"><ele>556.0</ele><time>2026-04-02T12:43:50.298Z</time></trkpt><trkpt lat="45.3444329" lon="4.1968287"><ele>556.0</ele><time>2026-04-02T12:43:54.299Z</time></trkpt><trkpt lat="45.3443738" lon="4.1967473"><ele>556.0</ele><time>2026-04-02T12:43:56.298Z</time></trkpt><trkpt lat="45.3443044" lon="4.1966686"><ele>556.0</ele><time>2026-04-02T12:43:58.299Z</time></trkpt><trkpt lat="45.3442387" lon="4.1966119"><ele>556.0</ele><time>2026-04-02T12:44:07.298Z</time></trkpt><trkpt lat="45.3441979" lon="4.1965412"><ele>556.0</ele><time>2026-04-02T12:44:10.298Z</time></trkpt><trkpt lat="45.3442706" lon="4.1965272"><ele>556.0</ele><time>2026-04-02T12:44:12.299Z</time></trkpt><trkpt lat="45.3443619" lon="4.1965179"><ele>556.0</ele><time>2026-04-02T12:44:14.298Z</time></trkpt><trkpt lat="45.3444277" lon="4.1965108"><ele>556.0</ele><time>2026-04-02T12:44:16.297Z</time></trkpt><trkpt lat="45.3444909" lon="4.1965107"><ele>556.0</ele><time>2026-04-02T12:44:20.299Z</time></trkpt><trkpt lat="45.3445751" lon="4.1965216"><ele>556.0</ele><time>2026-04-02T12:44:26.298Z</time></trkpt><trkpt lat="45.3446433" lon="4.1965513"><ele>556.0</ele><time>2026-04-02T12:44:28.298Z</time></trkpt><trkpt lat="45.3447054" lon="4.1966119"><ele>553.5</ele><time>2026-04-02T12:44:31.297Z</time></trkpt><trkpt lat="45.3447344" lon="4.1965155"><ele>551.0</ele><time>2026-04-02T12:44:35.298Z</time></trkpt><trkpt lat="45.3446804" lon="4.196397"><ele>548.5</ele><time>2026-04-02T12:44:37.298Z</time></trkpt><trkpt lat="45.3446394" lon="4.1963215"><ele>546.0</ele><time>2026-04-02T12:44:39.297Z</time></trkpt><trkpt lat="45.3445951" lon="4.1962485"><ele>543.5</ele><time>2026-04-02T12:44:41.298Z</time></trkpt><trkpt lat="45.3445525" lon="4.1961633"><ele>541.0</ele><time>2026-04-02T12:44:43.298Z</time></trkpt><trkpt lat="45.3444986" lon="4.1960862"><ele>539.5</ele><time>2026-04-02T12:44:45.298Z</time></trkpt><trkpt lat="45.3444575" lon="4.1960166"><ele>538.0</ele><time>2026-04-02T12:44:47.299Z</time></trkpt><trkpt lat="45.3444798" lon="4.1959228"><ele>536.5</ele><time>2026-04-02T12:45:27.299Z</time></trkpt><trkpt lat="45.3445789" lon="4.1959181"><ele>535.0</ele><time>2026-04-02T12:45:30.299Z</time></trkpt><trkpt lat="45.3446639" lon="4.1959241"><ele>533.5</ele><time>2026-04-02T12:45:33.298Z</time></trkpt><trkpt lat="45.3446571" lon="4.1958093"><ele>532.0</ele><time>2026-04-02T12:45:38.299Z</time></trkpt><trkpt lat="45.3446172" lon="4.1957353"><ele>532.0</ele><time>2026-04-02T12:45:40.299Z</time></trkpt><trkpt lat="45.3445571" lon="4.1956775"><ele>532.0</ele><time>2026-04-02T12:45:43.298Z</time></trkpt><trkpt lat="45.34452" lon="4.1956032"><ele>532.0</ele><time>2026-04-02T12:45:51.298Z</time></trkpt><trkpt lat="45.3444816" lon="4.1955162"><ele>532.0</ele><time>2026-04-02T12:46:02.298Z</time></trkpt><trkpt lat="45.3444478" lon="4.1954314"><ele>532.0</ele><time>2026-04-02T12:46:15.299Z</time></trkpt><trkpt lat="45.3443792" lon="4.1953718"><ele>532.0</ele><time>2026-04-02T12:46:28.299Z</time></trkpt><trkpt lat="45.3443552" lon="4.1952633"><ele>532.0</ele><time>2026-04-02T12:46:34.299Z</time></trkpt><trkpt lat="45.3443165" lon="4.1951789"><ele>528.5</ele><time>2026-04-02T12:46:37.299Z</time></trkpt><trkpt lat="45.3442941" lon="4.195073"><ele>525.0</ele><time>2026-04-02T12:46:45.298Z</time></trkpt><trkpt lat="45.3443097" lon="4.1951633"><ele>521.5</ele><time>2026-04-02T12:47:20.299Z</time></trkpt><trkpt lat="45.3443439" lon="4.1952414"><ele>518.0</ele><time>2026-04-02T12:47:24.298Z</time></trkpt><trkpt lat="45.3443803" lon="4.1953582"><ele>514.5</ele><time>2026-04-02T12:47:30.299Z</time></trkpt><trkpt lat="45.3444514" lon="4.1953776"><ele>511.0</ele><time>2026-04-02T12:47:34.298Z</time></trkpt><trkpt lat="45.3445344" lon="4.1953538"><ele>511.0</ele><time>2026-04-02T12:47:36.299Z</time></trkpt><trkpt lat="45.3445918" lon="4.1953046"><ele>511.0</ele><time>2026-04-02T12:47:38.297Z</time></trkpt><trkpt lat="45.34466" lon="4.1952501"><ele>511.0</ele><time>2026-04-02T12:47:41.299Z</time></trkpt><trkpt lat="45.3446348" lon="4.1951485"><ele>511.0</ele><time>2026-04-02T12:47:45.298Z</time></trkpt><trkpt lat="45.3445535" lon="4.1951231"><ele>511.0</ele><time>2026-04-02T12:47:49.299Z</time></trkpt><trkpt lat="45.3445159" lon="4.1950434"><ele>511.0</ele><time>2026-04-02T12:47:52.297Z</time></trkpt><trkpt lat="45.3444782" lon="4.1949639"><ele>511.0</ele><time>2026-04-02T12:47:57.298Z</time></trkpt><trkpt lat="45.3444163" lon="4.1949039"><ele>511.0</ele><time>2026-04-02T12:48:01.298Z</time></trkpt><trkpt lat="45.3443348" lon="4.19488"><ele>511.0</ele><time>2026-04-02T12:48:04.299Z</time></trkpt><trkpt lat="45.3442799" lon="4.1948361"><ele>511.0</ele><time>2026-04-02T12:48:11.299Z</time></trkpt><trkpt lat="45.3442378" lon="4.1947637"><ele>511.0</ele><time>2026-04-02T12:48:16.297Z</time></trkpt><trkpt lat="45.3441878" lon="4.1947032"><ele>511.0</ele><time>2026-04-02T12:48:19.299Z</time></trkpt><trkpt lat="45.3441352" lon="4.1946527"><ele>511.0</ele><time>2026-04-02T12:48:21.299Z</time></trkpt><trkpt lat="45.3440734" lon="4.194565"><ele>511.0</ele><time>2026-04-02T12:48:23.298Z</time></trkpt><trkpt lat="45.3440117" lon="4.1945007"><ele>508.6</ele><time>2026-04-02T12:48:24.298Z</time></trkpt><trkpt lat="45.3439337" lon="4.1944198"><ele>506.20000000000005</ele><time>2026-04-02T12:48:26.299Z</time></trkpt><trkpt lat="45.34385" lon="4.1943262"><ele>503.79999999999995</ele><time>2026-04-02T12:48:28.298Z</time></trkpt><trkpt lat="45.3437541" lon="4.1942448"><ele>501.4</ele><time>2026-04-02T12:48:30.298Z</time></trkpt><trkpt lat="45.3436838" lon="4.1941498"><ele>499.0</ele><time>2026-04-02T12:48:32.298Z</time></trkpt><trkpt lat="45.3436449" lon="4.1940365"><ele>502.1666666666667</ele><time>2026-04-02T12:48:34.298Z</time></trkpt><trkpt lat="45.3435716" lon="4.1939339"><ele>505.33333333333337</ele><time>2026-04-02T12:48:36.299Z</time></trkpt><trkpt lat="45.3435003" lon="4.193806"><ele>508.5</ele><time>2026-04-02T12:48:38.298Z</time></trkpt><trkpt lat="45.3434859" lon="4.1936887"><ele>511.66666666666663</ele><time>2026-04-02T12:48:40.298Z</time></trkpt><trkpt lat="45.3434465" lon="4.193606"><ele>514.8333333333333</ele><time>2026-04-02T12:48:42.298Z</time></trkpt><trkpt lat="45.3434039" lon="4.1935148"><ele>518.0</ele><time>2026-04-02T12:48:44.298Z</time></trkpt><trkpt lat="45.3433734" lon="4.193436"><ele>518.0</ele><time>2026-04-02T12:49:03.298Z</time></trkpt><trkpt lat="45.3433588" lon="4.1933486"><ele>518.0</ele><time>2026-04-02T12:49:05.298Z</time></trkpt><trkpt lat="45.3433239" lon="4.1932618"><ele>518.0</ele><time>2026-04-02T12:49:07.298Z</time></trkpt><trkpt lat="45.3432904" lon="4.1931591"><ele>518.0</ele><time>2026-04-02T12:49:10.298Z</time></trkpt><trkpt lat="45.3432355" lon="4.1931085"><ele>518.0</ele><time>2026-04-02T12:49:19.299Z</time></trkpt><trkpt lat="45.3431559" lon="4.1931124"><ele>518.0</ele><time>2026-04-02T12:49:26.299Z</time></trkpt><trkpt lat="45.3431423" lon="4.1932276"><ele>518.0</ele><time>2026-04-02T12:49:29.298Z</time></trkpt><trkpt lat="45.3431548" lon="4.1931276"><ele>518.0</ele><time>2026-04-02T12:50:14.298Z</time></trkpt><trkpt lat="45.3432134" lon="4.1930845"><ele>518.0</ele><time>2026-04-02T12:50:17.298Z</time></trkpt><trkpt lat="45.3432719" lon="4.1931286"><ele>518.0</ele><time>2026-04-02T12:50:19.297Z</time></trkpt><trkpt lat="45.3433193" lon="4.1932571"><ele>518.0</ele><time>2026-04-02T12:50:21.299Z</time></trkpt><trkpt lat="45.3433616" lon="4.1933715"><ele>518.0</ele><time>2026-04-02T12:50:23.298Z</time></trkpt><trkpt lat="45.3433592" lon="4.193466"><ele>518.0</ele><time>2026-04-02T12:50:27.299Z</time></trkpt><trkpt lat="45.343293" lon="4.1935096"><ele>518.0</ele><time>2026-04-02T12:50:31.299Z</time></trkpt><trkpt lat="45.3432109" lon="4.1934934"><ele>518.0</ele><time>2026-04-02T12:50:34.298Z</time></trkpt><trkpt lat="45.343148" lon="4.1934632"><ele>518.0</ele><time>2026-04-02T12:50:36.299Z</time></trkpt><trkpt lat="45.3430624" lon="4.193429"><ele>518.0</ele><time>2026-04-02T12:50:38.298Z</time></trkpt><trkpt lat="45.3429905" lon="4.1933755"><ele>518.0</ele><time>2026-04-02T12:50:40.298Z</time></trkpt><trkpt lat="45.3429271" lon="4.1933987"><ele>518.0</ele><time>2026-04-02T12:51:02.299Z</time></trkpt><trkpt lat="45.3429634" lon="4.1934948"><ele>517.1666666666666</ele><time>2026-04-02T12:51:07.299Z</time></trkpt><trkpt lat="45.3429869" lon="4.1935794"><ele>516.3333333333333</ele><time>2026-04-02T12:51:10.3Z</time></trkpt><trkpt lat="45.3429957" lon="4.1936907"><ele>515.5</ele><time>2026-04-02T12:51:13.298Z</time></trkpt><trkpt lat="45.3430056" lon="4.1937875"><ele>514.6666666666666</ele><time>2026-04-02T12:51:17.299Z</time></trkpt><trkpt lat="45.3430005" lon="4.193929"><ele>513.8333333333334</ele><time>2026-04-02T12:51:20.299Z</time></trkpt><trkpt lat="45.3429998" lon="4.1940615"><ele>513.0</ele><time>2026-04-02T12:51:22.299Z</time></trkpt><trkpt lat="45.3429992" lon="4.1941794"><ele>514.8571428571429</ele><time>2026-04-02T12:51:24.299Z</time></trkpt><trkpt lat="45.3429773" lon="4.1942656"><ele>516.7142857142858</ele><time>2026-04-02T12:51:26.299Z</time></trkpt><trkpt lat="45.3429148" lon="4.1943423"><ele>518.5714285714286</ele><time>2026-04-02T12:51:29.299Z</time></trkpt><trkpt lat="45.3428823" lon="4.1944396"><ele>520.4285714285714</ele><time>2026-04-02T12:51:37.298Z</time></trkpt><trkpt lat="45.342863" lon="4.1945294"><ele>522.2857142857142</ele><time>2026-04-02T12:51:39.298Z</time></trkpt><trkpt lat="45.3428433" lon="4.1946549"><ele>524.1428571428571</ele><time>2026-04-02T12:51:42.299Z</time></trkpt><trkpt lat="45.3428543" lon="4.194744"><ele>526.0</ele><time>2026-04-02T12:51:44.299Z</time></trkpt><trkpt lat="45.3428846" lon="4.1948752"><ele>528.5</ele><time>2026-04-02T12:51:47.299Z</time></trkpt><trkpt lat="45.342893" lon="4.1949666"><ele>531.0</ele><time>2026-04-02T12:51:49.299Z</time></trkpt><trkpt lat="45.3429006" lon="4.1950664"><ele>533.5</ele><time>2026-04-02T12:51:52.3Z</time></trkpt><trkpt lat="45.3428946" lon="4.1951579"><ele>536.0</ele><time>2026-04-02T12:51:55.298Z</time></trkpt><trkpt lat="45.3428879" lon="4.1952777"><ele>538.5</ele><time>2026-04-02T12:51:57.298Z</time></trkpt><trkpt lat="45.3428717" lon="4.1954257"><ele>541.0</ele><time>2026-04-02T12:51:59.3Z</time></trkpt><trkpt lat="45.3428602" lon="4.195544"><ele>541.0000000000001</ele><time>2026-04-02T12:52:01.299Z</time></trkpt><trkpt lat="45.3428474" lon="4.1956451"><ele>541.0</ele><time>2026-04-02T12:52:03.3Z</time></trkpt><trkpt lat="45.3428179" lon="4.1957579"><ele>541.0</ele><time>2026-04-02T12:52:05.298Z</time></trkpt><trkpt lat="45.3427746" lon="4.1958596"><ele>541.0</ele><time>2026-04-02T12:52:07.299Z</time></trkpt><trkpt lat="45.3427771" lon="4.1958175"><ele>541.0</ele><time>2026-04-02T12:53:30.298Z</time></trkpt><trkpt lat="45.3427309" lon="4.1957491"><ele>541.0000000000001</ele><time>2026-04-02T12:53:47.299Z</time></trkpt><trkpt lat="45.3427433" lon="4.1958419"><ele>541.0</ele><time>2026-04-02T12:56:23.273Z</time></trkpt><trkpt lat="45.3427603" lon="4.1960032"><ele>543.0000000000001</ele><time>2026-04-02T13:01:08.3Z</time></trkpt><trkpt lat="45.3427802" lon="4.1960918"><ele>545.0</ele><time>2026-04-02T13:01:12.3Z</time></trkpt><trkpt lat="45.3427955" lon="4.19618"><ele>547.0</ele><time>2026-04-02T13:01:35.301Z</time></trkpt><trkpt lat="45.3428134" lon="4.1962675"><ele>549.0</ele><time>2026-04-02T13:01:37.3Z</time></trkpt><trkpt lat="45.3428543" lon="4.1963584"><ele>551.0</ele><time>2026-04-02T13:01:40.301Z</time></trkpt><trkpt lat="45.3428787" lon="4.1964552"><ele>553.0000000000001</ele><time>2026-04-02T13:01:42.301Z</time></trkpt><trkpt lat="45.3429146" lon="4.1965574"><ele>555.0</ele><time>2026-04-02T13:01:44.3Z</time></trkpt><trkpt lat="45.3429569" lon="4.1966467"><ele>555.1428571428572</ele><time>2026-04-02T13:01:46.3Z</time></trkpt><trkpt lat="45.3429889" lon="4.1967304"><ele>555.2857142857143</ele><time>2026-04-02T13:01:48.3Z</time></trkpt><trkpt lat="45.343024" lon="4.1968217"><ele>555.4285714285714</ele><time>2026-04-02T13:01:50.3Z</time></trkpt><trkpt lat="45.3430526" lon="4.1969133"><ele>555.5714285714287</ele><time>2026-04-02T13:01:53.3Z</time></trkpt><trkpt lat="45.3430001" lon="4.1969674"><ele>555.7142857142858</ele><time>2026-04-02T13:02:07.299Z</time></trkpt><trkpt lat="45.3430555" lon="4.1969171"><ele>555.8571428571429</ele><time>2026-04-02T13:02:35.301Z</time></trkpt><trkpt lat="45.3431054" lon="4.1970296"><ele>556.0</ele><time>2026-04-02T13:02:37.3Z</time></trkpt><trkpt lat="45.343136" lon="4.1971311"><ele>558.3333333333334</ele><time>2026-04-02T13:02:39.3Z</time></trkpt><trkpt lat="45.3431675" lon="4.1972416"><ele>560.6666666666667</ele><time>2026-04-02T13:02:41.301Z</time></trkpt><trkpt lat="45.343191" lon="4.1973349"><ele>563.0</ele><time>2026-04-02T13:02:43.301Z</time></trkpt><trkpt lat="45.3432593" lon="4.1973663"><ele>565.3333333333334</ele><time>2026-04-02T13:03:00.299Z</time></trkpt><trkpt lat="45.3433162" lon="4.1974114"><ele>567.6666666666666</ele><time>2026-04-02T13:03:03.3Z</time></trkpt><trkpt lat="45.3433832" lon="4.1973283"><ele>570.0</ele><time>2026-04-02T13:03:11.3Z</time></trkpt><trkpt lat="45.3434307" lon="4.1971945"><ele>570.0</ele><time>2026-04-02T13:03:13.3Z</time></trkpt><trkpt lat="45.343486" lon="4.1970448"><ele>570.0</ele><time>2026-04-02T13:03:15.3Z</time></trkpt><trkpt lat="45.3435694" lon="4.1969583"><ele>570.0</ele><time>2026-04-02T13:03:17.3Z</time></trkpt><trkpt lat="45.3436729" lon="4.1968947"><ele>570.0</ele><time>2026-04-02T13:03:19.299Z</time></trkpt><trkpt lat="45.3437798" lon="4.1968854"><ele>570.0</ele><time>2026-04-02T13:03:21.3Z</time></trkpt><trkpt lat="45.3438623" lon="4.1968857"><ele>567.6666666666666</ele><time>2026-04-02T13:03:22.3Z</time></trkpt><trkpt lat="45.3439399" lon="4.1968781"><ele>565.3333333333334</ele><time>2026-04-02T13:03:23.299Z</time></trkpt><trkpt lat="45.3440122" lon="4.1968758"><ele>563.0</ele><time>2026-04-02T13:03:24.301Z</time></trkpt><trkpt lat="45.3440763" lon="4.1968693"><ele>560.6666666666667</ele><time>2026-04-02T13:03:25.299Z</time></trkpt><trkpt lat="45.3441436" lon="4.1968602"><ele>558.3333333333334</ele><time>2026-04-02T13:03:26.3Z</time></trkpt><trkpt lat="45.3442746" lon="4.1968572"><ele>556.0</ele><time>2026-04-02T13:03:28.301Z</time></trkpt><trkpt lat="45.3443825" lon="4.1968799"><ele>556.0</ele><time>2026-04-02T13:03:30.3Z</time></trkpt><trkpt lat="45.3444647" lon="4.1969089"><ele>556.0</ele><time>2026-04-02T13:03:32.3Z</time></trkpt><trkpt lat="45.3444376" lon="4.1968189"><ele>556.0</ele><time>2026-04-02T13:03:35.3Z</time></trkpt><trkpt lat="45.3443732" lon="4.1967284"><ele>556.0</ele><time>2026-04-02T13:03:37.301Z</time></trkpt><trkpt lat="45.344316" lon="4.1966658"><ele>556.0</ele><time>2026-04-02T13:03:38.3Z</time></trkpt><trkpt lat="45.344233" lon="4.1966113"><ele>556.0</ele><time>2026-04-02T13:03:40.3Z</time></trkpt><trkpt lat="45.3442617" lon="4.1965292"><ele>556.0</ele><time>2026-04-02T13:03:44.3Z</time></trkpt><trkpt lat="45.3443861" lon="4.1965162"><ele>556.0</ele><time>2026-04-02T13:03:46.301Z</time></trkpt><trkpt lat="45.3444854" lon="4.1965082"><ele>556.0</ele><time>2026-04-02T13:03:48.3Z</time></trkpt><trkpt lat="45.3445561" lon="4.196523"><ele>556.0</ele><time>2026-04-02T13:03:52.3Z</time></trkpt><trkpt lat="45.3446437" lon="4.1965564"><ele>556.0</ele><time>2026-04-02T13:03:54.301Z</time></trkpt><trkpt lat="45.3447271" lon="4.196609"><ele>553.5</ele><time>2026-04-02T13:03:57.299Z</time></trkpt><trkpt lat="45.344743" lon="4.1965136"><ele>551.0</ele><time>2026-04-02T13:04:00.301Z</time></trkpt><trkpt lat="45.3446883" lon="4.1963763"><ele>548.5</ele><time>2026-04-02T13:04:02.3Z</time></trkpt><trkpt lat="45.3446456" lon="4.1962935"><ele>546.0</ele><time>2026-04-02T13:04:04.3Z</time></trkpt><trkpt lat="45.3445925" lon="4.1961955"><ele>543.5</ele><time>2026-04-02T13:04:06.301Z</time></trkpt><trkpt lat="45.3445296" lon="4.1960846"><ele>541.0</ele><time>2026-04-02T13:04:08.3Z</time></trkpt><trkpt lat="45.344472" lon="4.1959963"><ele>539.7142857142858</ele><time>2026-04-02T13:04:10.301Z</time></trkpt><trkpt lat="45.3445294" lon="4.195925"><ele>538.4285714285714</ele><time>2026-04-02T13:04:15.301Z</time></trkpt><trkpt lat="45.3446178" lon="4.1959276"><ele>537.1428571428571</ele><time>2026-04-02T13:04:17.3Z</time></trkpt><trkpt lat="45.3446935" lon="4.1959359"><ele>535.8571428571429</ele><time>2026-04-02T13:04:20.301Z</time></trkpt><trkpt lat="45.344688" lon="4.1958456"><ele>534.5714285714286</ele><time>2026-04-02T13:04:23.301Z</time></trkpt><trkpt lat="45.3446432" lon="4.19577"><ele>533.2857142857143</ele><time>2026-04-02T13:04:25.3Z</time></trkpt><trkpt lat="45.3445887" lon="4.1957021"><ele>532.0</ele><time>2026-04-02T13:04:27.299Z</time></trkpt><trkpt lat="45.3445252" lon="4.1956278"><ele>529.0</ele><time>2026-04-02T13:04:30.299Z</time></trkpt><trkpt lat="45.344487" lon="4.1955309"><ele>526.0</ele><time>2026-04-02T13:04:40.299Z</time></trkpt><trkpt lat="45.3444491" lon="4.1954538"><ele>523.0</ele><time>2026-04-02T13:04:42.3Z</time></trkpt><trkpt lat="45.3444866" lon="4.1953809"><ele>520.0</ele><time>2026-04-02T13:04:45.3Z</time></trkpt><trkpt lat="45.3445649" lon="4.1953645"><ele>517.0</ele><time>2026-04-02T13:04:46.3Z</time></trkpt><trkpt lat="45.344624" lon="4.1953023"><ele>514.0</ele><time>2026-04-02T13:04:48.3Z</time></trkpt><trkpt lat="45.3446726" lon="4.1952122"><ele>511.0</ele><time>2026-04-02T13:04:51.3Z</time></trkpt><trkpt lat="45.3446408" lon="4.1951167"><ele>511.00000000000006</ele><time>2026-04-02T13:04:54.3Z</time></trkpt><trkpt lat="45.3445611" lon="4.195117"><ele>511.0</ele><time>2026-04-02T13:04:56.3Z</time></trkpt><trkpt lat="45.3445133" lon="4.1950464"><ele>511.0</ele><time>2026-04-02T13:04:58.3Z</time></trkpt><trkpt lat="45.3445835" lon="4.1950106"><ele>511.0</ele><time>2026-04-02T13:05:02.301Z</time></trkpt><trkpt lat="45.344674" lon="4.1949538"><ele>511.00000000000006</ele><time>2026-04-02T13:05:03.301Z</time></trkpt><trkpt lat="45.3447416" lon="4.1948977"><ele>511.0</ele><time>2026-04-02T13:05:05.299Z</time></trkpt><trkpt lat="45.3448017" lon="4.1948352"><ele>504.1666666666667</ele><time>2026-04-02T13:05:07.3Z</time></trkpt><trkpt lat="45.3448584" lon="4.1947669"><ele>497.33333333333337</ele><time>2026-04-02T13:05:09.299Z</time></trkpt><trkpt lat="45.3449113" lon="4.1946944"><ele>490.5</ele><time>2026-04-02T13:05:11.301Z</time></trkpt><trkpt lat="45.344973" lon="4.1945988"><ele>483.66666666666663</ele><time>2026-04-02T13:05:14.301Z</time></trkpt><trkpt lat="45.3450211" lon="4.194504"><ele>476.8333333333333</ele><time>2026-04-02T13:05:17.299Z</time></trkpt><trkpt lat="45.3450176" lon="4.1944075"><ele>470.0</ele><time>2026-04-02T13:05:20.301Z</time></trkpt><trkpt lat="45.34497" lon="4.1942844"><ele>470.0</ele><time>2026-04-02T13:05:47.301Z</time></trkpt><trkpt lat="45.3449531" lon="4.194099"><ele>470.0</ele><time>2026-04-02T13:05:49.301Z</time></trkpt><trkpt lat="45.3449348" lon="4.1939829"><ele>470.0</ele><time>2026-04-02T13:05:50.301Z</time></trkpt><trkpt lat="45.3449181" lon="4.1938557"><ele>470.0</ele><time>2026-04-02T13:05:51.301Z</time></trkpt><trkpt lat="45.3448999" lon="4.1937244"><ele>470.0</ele><time>2026-04-02T13:05:52.301Z</time></trkpt><trkpt lat="45.3448802" lon="4.1935835"><ele>469.0</ele><time>2026-04-02T13:05:53.3Z</time></trkpt><trkpt lat="45.3448502" lon="4.1934352"><ele>468.0</ele><time>2026-04-02T13:05:54.299Z</time></trkpt><trkpt lat="45.3448032" lon="4.193283"><ele>467.0</ele><time>2026-04-02T13:05:55.3Z</time></trkpt><trkpt lat="45.3447407" lon="4.1931296"><ele>466.0</ele><time>2026-04-02T13:05:56.301Z</time></trkpt><trkpt lat="45.3446682" lon="4.1929771"><ele>468.0</ele><time>2026-04-02T13:05:57.3Z</time></trkpt><trkpt lat="45.3445948" lon="4.1928268"><ele>470.0</ele><time>2026-04-02T13:05:58.3Z</time></trkpt><trkpt lat="45.3445238" lon="4.1926868"><ele>472.0</ele><time>2026-04-02T13:05:59.301Z</time></trkpt><trkpt lat="45.3444538" lon="4.1925537"><ele>474.0</ele><time>2026-04-02T13:06:00.301Z</time></trkpt><trkpt lat="45.3443795" lon="4.1924227"><ele>468.75</ele><time>2026-04-02T13:06:01.299Z</time></trkpt><trkpt lat="45.3442951" lon="4.1923008"><ele>463.5</ele><time>2026-04-02T13:06:02.301Z</time></trkpt><trkpt lat="45.3441982" lon="4.1921967"><ele>458.25</ele><time>2026-04-02T13:06:03.3Z</time></trkpt><trkpt lat="45.3440874" lon="4.1921132"><ele>453.0</ele><time>2026-04-02T13:06:04.3Z</time></trkpt><trkpt lat="45.3439673" lon="4.1920414"><ele>454.75</ele><time>2026-04-02T13:06:05.301Z</time></trkpt><trkpt lat="45.3438409" lon="4.1919751"><ele>456.5</ele><time>2026-04-02T13:06:06.3Z</time></trkpt><trkpt lat="45.3437096" lon="4.1919161"><ele>458.25</ele><time>2026-04-02T13:06:07.301Z</time></trkpt><trkpt lat="45.3435786" lon="4.1918537"><ele>460.0</ele><time>2026-04-02T13:06:08.301Z</time></trkpt><trkpt lat="45.3434522" lon="4.191795"><ele>460.0</ele><time>2026-04-02T13:06:09.3Z</time></trkpt><trkpt lat="45.3433213" lon="4.1917547"><ele>460.0</ele><time>2026-04-02T13:06:10.301Z</time></trkpt><trkpt lat="45.343189" lon="4.1917459"><ele>460.0</ele><time>2026-04-02T13:06:11.301Z</time></trkpt><trkpt lat="45.3430516" lon="4.1917723"><ele>460.0</ele><time>2026-04-02T13:06:12.299Z</time></trkpt><trkpt lat="45.342917" lon="4.1918077"><ele>460.75</ele><time>2026-04-02T13:06:13.3Z</time></trkpt><trkpt lat="45.3427886" lon="4.1918226"><ele>461.5</ele><time>2026-04-02T13:06:14.3Z</time></trkpt><trkpt lat="45.3426597" lon="4.19181"><ele>462.25</ele><time>2026-04-02T13:06:15.301Z</time></trkpt><trkpt lat="45.3425359" lon="4.1917658"><ele>463.0</ele><time>2026-04-02T13:06:16.299Z</time></trkpt><trkpt lat="45.3424155" lon="4.1916984"><ele>463.0</ele><time>2026-04-02T13:06:17.3Z</time></trkpt><trkpt lat="45.3423034" lon="4.1916356"><ele>462.99999999999994</ele><time>2026-04-02T13:06:18.3Z</time></trkpt><trkpt lat="45.3422066" lon="4.1915949"><ele>462.99999999999994</ele><time>2026-04-02T13:06:19.3Z</time></trkpt><trkpt lat="45.3421105" lon="4.1915754"><ele>463.0</ele><time>2026-04-02T13:06:20.301Z</time></trkpt><trkpt lat="45.3420301" lon="4.1915519"><ele>463.0</ele><time>2026-04-02T13:06:21.3Z</time></trkpt><trkpt lat="45.3419583" lon="4.1915481"><ele>461.83333333333337</ele><time>2026-04-02T13:06:22.299Z</time></trkpt><trkpt lat="45.3418554" lon="4.1915577"><ele>460.6666666666667</ele><time>2026-04-02T13:06:24.3Z</time></trkpt><trkpt lat="45.3417857" lon="4.1916573"><ele>459.5</ele><time>2026-04-02T13:06:26.301Z</time></trkpt><trkpt lat="45.3417208" lon="4.1917445"><ele>458.33333333333337</ele><time>2026-04-02T13:06:28.301Z</time></trkpt><trkpt lat="45.3417235" lon="4.1918631"><ele>457.1666666666667</ele><time>2026-04-02T13:06:30.3Z</time></trkpt><trkpt lat="45.3417471" lon="4.1919486"><ele>456.0</ele><time>2026-04-02T13:06:32.301Z</time></trkpt><trkpt lat="45.3417567" lon="4.1920377"><ele>456.0</ele><time>2026-04-02T13:06:35.299Z</time></trkpt><trkpt lat="45.3417609" lon="4.1921278"><ele>456.0</ele><time>2026-04-02T13:06:41.3Z</time></trkpt><trkpt lat="45.341771" lon="4.1922687"><ele>456.0</ele><time>2026-04-02T13:06:43.301Z</time></trkpt><trkpt lat="45.341777" lon="4.1923982"><ele>456.0</ele><time>2026-04-02T13:06:45.299Z</time></trkpt><trkpt lat="45.3417804" lon="4.1925109"><ele>456.0</ele><time>2026-04-02T13:06:47.301Z</time></trkpt><trkpt lat="45.3417737" lon="4.1926365"><ele>456.0</ele><time>2026-04-02T13:06:49.301Z</time></trkpt><trkpt lat="45.3417705" lon="4.1927423"><ele>457.1428571428571</ele><time>2026-04-02T13:06:51.299Z</time></trkpt><trkpt lat="45.3417546" lon="4.1928786"><ele>458.2857142857142</ele><time>2026-04-02T13:06:53.3Z</time></trkpt><trkpt lat="45.3417395" lon="4.1929681"><ele>459.42857142857144</ele><time>2026-04-02T13:06:54.3Z</time></trkpt><trkpt lat="45.3417196" lon="4.1930566"><ele>460.57142857142856</ele><time>2026-04-02T13:06:55.3Z</time></trkpt><trkpt lat="45.34169" lon="4.1931452"><ele>461.7142857142857</ele><time>2026-04-02T13:06:56.301Z</time></trkpt><trkpt lat="45.3416616" lon="4.1932396"><ele>462.8571428571429</ele><time>2026-04-02T13:06:57.3Z</time></trkpt><trkpt lat="45.3416324" lon="4.1933248"><ele>464.00000000000006</ele><time>2026-04-02T13:06:58.301Z</time></trkpt><trkpt lat="45.3416057" lon="4.1934103"><ele>465.4285714285715</ele><time>2026-04-02T13:06:59.301Z</time></trkpt><trkpt lat="45.341579" lon="4.193493"><ele>466.8571428571429</ele><time>2026-04-02T13:07:00.3Z</time></trkpt><trkpt lat="45.3415517" lon="4.193581"><ele>468.2857142857143</ele><time>2026-04-02T13:07:01.301Z</time></trkpt><trkpt lat="45.3415331" lon="4.1936788"><ele>469.7142857142857</ele><time>2026-04-02T13:07:02.299Z</time></trkpt><trkpt lat="45.3415187" lon="4.193776"><ele>471.1428571428571</ele><time>2026-04-02T13:07:03.301Z</time></trkpt><trkpt lat="45.3415125" lon="4.1938906"><ele>472.5714285714285</ele><time>2026-04-02T13:07:04.3Z</time></trkpt><trkpt lat="45.3415168" lon="4.1939927"><ele>473.99999999999994</ele><time>2026-04-02T13:07:05.3Z</time></trkpt><trkpt lat="45.3415194" lon="4.1941071"><ele>476.75</ele><time>2026-04-02T13:07:06.301Z</time></trkpt><trkpt lat="45.3415235" lon="4.1942366"><ele>479.5</ele><time>2026-04-02T13:07:07.3Z</time></trkpt><trkpt lat="45.3415196" lon="4.1943827"><ele>482.25</ele><time>2026-04-02T13:07:08.3Z</time></trkpt><trkpt lat="45.3414999" lon="4.1945523"><ele>485.0</ele><time>2026-04-02T13:07:09.301Z</time></trkpt><trkpt lat="45.3414609" lon="4.1947376"><ele>485.6</ele><time>2026-04-02T13:07:10.3Z</time></trkpt><trkpt lat="45.3414065" lon="4.1948908"><ele>486.2</ele><time>2026-04-02T13:07:11.301Z</time></trkpt><trkpt lat="45.3413561" lon="4.1950197"><ele>486.79999999999995</ele><time>2026-04-02T13:07:12.301Z</time></trkpt><trkpt lat="45.3413112" lon="4.1951386"><ele>487.4</ele><time>2026-04-02T13:07:13.301Z</time></trkpt><trkpt lat="45.3412651" lon="4.1952394"><ele>488.0</ele><time>2026-04-02T13:07:14.3Z</time></trkpt><trkpt lat="45.3412125" lon="4.195324"><ele>488.0</ele><time>2026-04-02T13:07:15.3Z</time></trkpt><trkpt lat="45.3411564" lon="4.1953802"><ele>487.99999999999994</ele><time>2026-04-02T13:07:16.3Z</time></trkpt><trkpt lat="45.3410444" lon="4.19541"><ele>487.99999999999994</ele><time>2026-04-02T13:07:18.299Z</time></trkpt><trkpt lat="45.3409411" lon="4.1953796"><ele>488.0</ele><time>2026-04-02T13:07:20.3Z</time></trkpt><trkpt lat="45.3408683" lon="4.1954137"><ele>488.0</ele><time>2026-04-02T13:07:23.3Z</time></trkpt><trkpt lat="45.3408737" lon="4.1955641"><ele>487.99999999999994</ele><time>2026-04-02T13:07:27.301Z</time></trkpt><trkpt lat="45.3408911" lon="4.1956651"><ele>488.0</ele><time>2026-04-02T13:07:28.301Z</time></trkpt><trkpt lat="45.3409089" lon="4.1957834"><ele>487.99999999999994</ele><time>2026-04-02T13:07:29.301Z</time></trkpt><trkpt lat="45.3409309" lon="4.1958695"><ele>487.99999999999994</ele><time>2026-04-02T13:07:30.301Z</time></trkpt><trkpt lat="45.3409227" lon="4.1959697"><ele>488.0</ele><time>2026-04-02T13:07:32.301Z</time></trkpt><trkpt lat="45.3409422" lon="4.1960588"><ele>487.99999999999994</ele><time>2026-04-02T13:07:49.3Z</time></trkpt><trkpt lat="45.3409844" lon="4.1961398"><ele>487.99999999999994</ele><time>2026-04-02T13:07:57.3Z</time></trkpt><trkpt lat="45.3410284" lon="4.1962288"><ele>488.99999999999994</ele><time>2026-04-02T13:08:01.301Z</time></trkpt><trkpt lat="45.3410441" lon="4.1963234"><ele>490.0</ele><time>2026-04-02T13:08:16.3Z</time></trkpt><trkpt lat="45.3410496" lon="4.1964149"><ele>490.99999999999994</ele><time>2026-04-02T13:08:32.301Z</time></trkpt><trkpt lat="45.341073" lon="4.19651"><ele>491.99999999999994</ele><time>2026-04-02T13:08:40.3Z</time></trkpt><trkpt lat="45.3410545" lon="4.1966023"><ele>493.0</ele><time>2026-04-02T13:09:11.3Z</time></trkpt><trkpt lat="45.3410234" lon="4.1966965"><ele>493.99999999999994</ele><time>2026-04-02T13:09:21.299Z</time></trkpt><trkpt lat="45.3409944" lon="4.1967844"><ele>494.99999999999994</ele><time>2026-04-02T13:09:33.301Z</time></trkpt><trkpt lat="45.3410037" lon="4.1968782"><ele>495.71428571428567</ele><time>2026-04-02T13:10:01.299Z</time></trkpt><trkpt lat="45.3409836" lon="4.1969707"><ele>496.42857142857144</ele><time>2026-04-02T13:11:13.301Z</time></trkpt><trkpt lat="45.3410003" lon="4.1970945"><ele>497.1428571428571</ele><time>2026-04-02T13:11:26.302Z</time></trkpt><trkpt lat="45.3410135" lon="4.1971919"><ele>497.85714285714283</ele><time>2026-04-02T13:11:40.302Z</time></trkpt><trkpt lat="45.3410635" lon="4.1972593"><ele>498.57142857142856</ele><time>2026-04-02T13:11:44.302Z</time></trkpt><trkpt lat="45.3411063" lon="4.1973495"><ele>499.2857142857143</ele><time>2026-04-02T13:11:49.302Z</time></trkpt><trkpt lat="45.3411618" lon="4.1973922"><ele>500.0</ele><time>2026-04-02T13:12:10.302Z</time></trkpt><trkpt lat="45.341217" lon="4.1974504"><ele>500.2857142857143</ele><time>2026-04-02T13:12:30.302Z</time></trkpt><trkpt lat="45.3412401" lon="4.1975405"><ele>500.57142857142856</ele><time>2026-04-02T13:13:12.301Z</time></trkpt><trkpt lat="45.3412224" lon="4.1976493"><ele>500.85714285714283</ele><time>2026-04-02T13:13:25.301Z</time></trkpt><trkpt lat="45.3412906" lon="4.1976712"><ele>501.1428571428571</ele><time>2026-04-02T13:14:25.302Z</time></trkpt><trkpt lat="45.341356" lon="4.1977411"><ele>501.42857142857144</ele><time>2026-04-02T13:14:29.301Z</time></trkpt><trkpt lat="45.3414267" lon="4.1977619"><ele>501.71428571428567</ele><time>2026-04-02T13:14:54.302Z</time></trkpt><trkpt lat="45.3414996" lon="4.1977702"><ele>501.99999999999994</ele><time>2026-04-02T13:14:58.301Z</time></trkpt><trkpt lat="45.3415555" lon="4.1977245"><ele>501.99999999999994</ele><time>2026-04-02T13:15:07.3Z</time></trkpt><trkpt lat="45.3414889" lon="4.1977462"><ele>502.0</ele><time>2026-04-02T13:16:47.302Z</time></trkpt><trkpt lat="45.3414303" lon="4.1978007"><ele>501.99999999999994</ele><time>2026-04-02T13:16:51.3Z</time></trkpt><trkpt lat="45.3413673" lon="4.1977954"><ele>501.99999999999994</ele><time>2026-04-02T13:16:58.301Z</time></trkpt><trkpt lat="45.3413021" lon="4.1977969"><ele>502.0</ele><time>2026-04-02T13:17:08.3Z</time></trkpt><trkpt lat="45.3413601" lon="4.1977492"><ele>501.99999999999994</ele><time>2026-04-02T13:17:38.301Z</time></trkpt><trkpt lat="45.3414304" lon="4.197708"><ele>501.99999999999994</ele><time>2026-04-02T13:18:22.3Z</time></trkpt><trkpt lat="45.3414948" lon="4.1976838"><ele>501.99999999999994</ele><time>2026-04-02T13:20:35.301Z</time></trkpt><trkpt lat="45.3415585" lon="4.1977036"><ele>502.0</ele><time>2026-04-02T13:21:03.3Z</time></trkpt><trkpt lat="45.3416326" lon="4.1977303"><ele>501.99999999999994</ele><time>2026-04-02T13:21:36.302Z</time></trkpt><trkpt lat="45.3416894" lon="4.1977991"><ele>501.99999999999994</ele><time>2026-04-02T13:21:49.302Z</time></trkpt><trkpt lat="45.3416905" lon="4.1978932"><ele>502.0</ele><time>2026-04-02T13:22:15.302Z</time></trkpt><trkpt lat="45.3416507" lon="4.1979638"><ele>501.99999999999994</ele><time>2026-04-02T13:25:25.622Z</time></trkpt><trkpt lat="45.3417449" lon="4.1980204"><ele>501.99999999999994</ele><time>2026-04-02T13:31:45.091Z</time></trkpt><trkpt lat="45.3418227" lon="4.1980488"><ele>501.99999999999994</ele><time>2026-04-02T13:33:56.3Z</time></trkpt><trkpt lat="45.3418823" lon="4.1980908"><ele>502.0</ele><time>2026-04-02T13:34:20.301Z</time></trkpt><trkpt lat="45.3419433" lon="4.1980579"><ele>501.99999999999994</ele><time>2026-04-02T13:35:44.302Z</time></trkpt><trkpt lat="45.3419934" lon="4.1981208"><ele>501.99999999999994</ele><time>2026-04-02T13:40:51.302Z</time></trkpt><trkpt lat="45.342038" lon="4.198197"><ele>502.0</ele><time>2026-04-02T13:43:01.3Z</time></trkpt><trkpt lat="45.3419519" lon="4.1982799"><ele>501.99999999999994</ele><time>2026-04-02T14:01:58.09Z</time></trkpt><trkpt lat="45.3418883" lon="4.1983351"><ele>501.99999999999994</ele><time>2026-04-02T14:03:00.3Z</time></trkpt><trkpt lat="45.3418199" lon="4.198328"><ele>501.71428571428567</ele><time>2026-04-02T14:03:06.301Z</time></trkpt><trkpt lat="45.3418026" lon="4.1984167"><ele>501.42857142857144</ele><time>2026-04-02T14:03:25.3Z</time></trkpt><trkpt lat="45.3417491" lon="4.1984816"><ele>501.1428571428571</ele><time>2026-04-02T14:03:48.301Z</time></trkpt><trkpt lat="45.3417082" lon="4.1985498"><ele>500.85714285714283</ele><time>2026-04-02T14:03:56.301Z</time></trkpt><trkpt lat="45.3416517" lon="4.1986006"><ele>500.57142857142856</ele><time>2026-04-02T14:05:57.3Z</time></trkpt><trkpt lat="45.3415866" lon="4.1986542"><ele>500.2857142857143</ele><time>2026-04-02T14:06:16.301Z</time></trkpt><trkpt lat="45.3415003" lon="4.1987462"><ele>500.0</ele><time>2026-04-02T14:06:46.301Z</time></trkpt><trkpt lat="45.3414691" lon="4.1988342"><ele>500.0</ele><time>2026-04-02T14:24:47.302Z</time></trkpt><trkpt lat="45.3414065" lon="4.1988866"><ele>500.0</ele><time>2026-04-02T14:25:00.303Z</time></trkpt><trkpt lat="45.3413298" lon="4.1989548"><ele>500.0</ele><time>2026-04-02T14:25:11.302Z</time></trkpt><trkpt lat="45.3412654" lon="4.1989921"><ele>500.0</ele><time>2026-04-02T14:25:32.303Z</time></trkpt><trkpt lat="45.3412014" lon="4.1990459"><ele>500.0</ele><time>2026-04-02T14:25:43.302Z</time></trkpt><trkpt lat="45.3411575" lon="4.1991162"><ele>500.0</ele><time>2026-04-02T14:25:48.302Z</time></trkpt><trkpt lat="45.3410947" lon="4.1991708"><ele>500.0</ele><time>2026-04-02T14:25:53.303Z</time></trkpt><trkpt lat="45.3410433" lon="4.1992632"><ele>503.71428571428567</ele><time>2026-04-02T14:26:06.302Z</time></trkpt><trkpt lat="45.3409995" lon="4.1993388"><ele>507.42857142857144</ele><time>2026-04-02T14:26:15.302Z</time></trkpt><trkpt lat="45.3409369" lon="4.1993898"><ele>511.1428571428571</ele><time>2026-04-02T14:26:31.302Z</time></trkpt><trkpt lat="45.3408868" lon="4.1994526"><ele>514.8571428571429</ele><time>2026-04-02T14:26:59.302Z</time></trkpt><trkpt lat="45.3408865" lon="4.1995495"><ele>518.5714285714286</ele><time>2026-04-02T14:27:23.302Z</time></trkpt><trkpt lat="45.3409392" lon="4.1996271"><ele>522.2857142857142</ele><time>2026-04-02T14:28:09.301Z</time></trkpt><trkpt lat="45.3409803" lon="4.1996983"><ele>526.0</ele><time>2026-04-02T14:28:22.302Z</time></trkpt><trkpt lat="45.3409658" lon="4.1997991"><ele>525.8571428571429</ele><time>2026-04-02T14:29:23.303Z</time></trkpt><trkpt lat="45.3409831" lon="4.1999006"><ele>525.7142857142857</ele><time>2026-04-02T14:31:35.301Z</time></trkpt><trkpt lat="45.3409865" lon="4.1999917"><ele>525.5714285714286</ele><time>2026-04-02T14:31:38.302Z</time></trkpt><trkpt lat="45.3409777" lon="4.2000973"><ele>525.4285714285714</ele><time>2026-04-02T14:32:32.301Z</time></trkpt><trkpt lat="45.3409577" lon="4.2001863"><ele>525.2857142857142</ele><time>2026-04-02T14:33:06.302Z</time></trkpt><trkpt lat="45.3409359" lon="4.20028"><ele>525.1428571428571</ele><time>2026-04-02T14:34:22.303Z</time></trkpt><trkpt lat="45.3409264" lon="4.2003823"><ele>525.0</ele><time>2026-04-02T14:34:26.302Z</time></trkpt><trkpt lat="45.3409113" lon="4.2004715"><ele>525.0</ele><time>2026-04-02T14:35:10.302Z</time></trkpt><trkpt lat="45.340885" lon="4.2005615"><ele>525.0</ele><time>2026-04-02T14:35:34.303Z</time></trkpt><trkpt lat="45.3409519" lon="4.200581"><ele>525.0</ele><time>2026-04-02T14:36:05.302Z</time></trkpt><trkpt lat="45.3409285" lon="4.2006743"><ele>535.0</ele><time>2026-04-02T14:37:26.302Z</time></trkpt><trkpt lat="45.3409628" lon="4.200755"><ele>535.0</ele><time>2026-04-02T14:42:55.303Z</time></trkpt><trkpt lat="45.3409045" lon="4.2006989"><ele>535.0</ele><time>2026-04-02T14:43:10.303Z</time></trkpt></trkseg><trkseg><trkpt lat="45.3428793" lon="4.2073812"><ele>651.0</ele><time>2026-04-02T15:51:31.315Z</time></trkpt><trkpt lat="45.3429419" lon="4.2074267"><ele>651.0</ele><time>2026-04-02T15:51:34.316Z</time></trkpt><trkpt lat="45.3430216" lon="4.2074647"><ele>651.0</ele><time>2026-04-02T15:51:38.316Z</time></trkpt><trkpt lat="45.3430947" lon="4.2074917"><ele>651.0</ele><time>2026-04-02T15:51:40.316Z</time></trkpt><trkpt lat="45.343168" lon="4.2075147"><ele>651.0</ele><time>2026-04-02T15:51:42.317Z</time></trkpt><trkpt lat="45.343241" lon="4.2075305"><ele>651.0</ele><time>2026-04-02T15:51:45.317Z</time></trkpt><trkpt lat="45.3433088" lon="4.2075449"><ele>651.0</ele><time>2026-04-02T15:51:48.316Z</time></trkpt><trkpt lat="45.3433735" lon="4.2075589"><ele>650.0</ele><time>2026-04-02T15:51:51.315Z</time></trkpt><trkpt lat="45.3434397" lon="4.207574"><ele>649.0</ele><time>2026-04-02T15:51:55.316Z</time></trkpt><trkpt lat="45.3435242" lon="4.2075971"><ele>648.0</ele><time>2026-04-02T15:52:04.316Z</time></trkpt><trkpt lat="45.3436177" lon="4.2076138"><ele>647.0</ele><time>2026-04-02T15:52:07.315Z</time></trkpt><trkpt lat="45.3436846" lon="4.2076345"><ele>646.0</ele><time>2026-04-02T15:52:09.316Z</time></trkpt><trkpt lat="45.3437643" lon="4.2076577"><ele>645.0</ele><time>2026-04-02T15:52:11.316Z</time></trkpt><trkpt lat="45.3438543" lon="4.2076866"><ele>643.1666666666666</ele><time>2026-04-02T15:52:13.317Z</time></trkpt><trkpt lat="45.3439475" lon="4.2077128"><ele>641.3333333333334</ele><time>2026-04-02T15:52:15.316Z</time></trkpt><trkpt lat="45.3440377" lon="4.2077431"><ele>639.5</ele><time>2026-04-02T15:52:17.317Z</time></trkpt><trkpt lat="45.3441309" lon="4.2077631"><ele>637.6666666666667</ele><time>2026-04-02T15:52:19.317Z</time></trkpt><trkpt lat="45.3442149" lon="4.2077899"><ele>635.8333333333334</ele><time>2026-04-02T15:52:21.318Z</time></trkpt><trkpt lat="45.3442847" lon="4.2078036"><ele>634.0</ele><time>2026-04-02T15:52:23.318Z</time></trkpt><trkpt lat="45.34436" lon="4.207826"><ele>634.0</ele><time>2026-04-02T15:52:26.318Z</time></trkpt><trkpt lat="45.344437" lon="4.2078154"><ele>634.0</ele><time>2026-04-02T15:52:37.317Z</time></trkpt><trkpt lat="45.344501" lon="4.2078357"><ele>634.0</ele><time>2026-04-02T15:52:40.318Z</time></trkpt><trkpt lat="45.3445534" lon="4.2077523"><ele>634.0</ele><time>2026-04-02T15:52:51.318Z</time></trkpt><trkpt lat="45.3445758" lon="4.207645"><ele>634.0</ele><time>2026-04-02T15:52:57.316Z</time></trkpt><trkpt lat="45.3446143" lon="4.2075547"><ele>634.0</ele><time>2026-04-02T15:53:00.318Z</time></trkpt><trkpt lat="45.3446452" lon="4.2074738"><ele>634.0</ele><time>2026-04-02T15:53:03.317Z</time></trkpt><trkpt lat="45.3445988" lon="4.2073923"><ele>632.7142857142858</ele><time>2026-04-02T15:53:07.318Z</time></trkpt><trkpt lat="45.344579" lon="4.2072946"><ele>631.4285714285714</ele><time>2026-04-02T15:53:16.318Z</time></trkpt><trkpt lat="45.3446345" lon="4.2072282"><ele>630.1428571428571</ele><time>2026-04-02T15:53:20.317Z</time></trkpt><trkpt lat="45.3446366" lon="4.2071326"><ele>628.8571428571429</ele><time>2026-04-02T15:53:30.317Z</time></trkpt><trkpt lat="45.3446842" lon="4.2070601"><ele>627.5714285714286</ele><time>2026-04-02T15:53:46.316Z</time></trkpt><trkpt lat="45.3447223" lon="4.2069738"><ele>626.2857142857143</ele><time>2026-04-02T15:53:49.315Z</time></trkpt><trkpt lat="45.3448044" lon="4.2069634"><ele>625.0</ele><time>2026-04-02T15:53:54.317Z</time></trkpt><trkpt lat="45.3448767" lon="4.2069648"><ele>623.1428571428572</ele><time>2026-04-02T15:54:00.317Z</time></trkpt><trkpt lat="45.3449616" lon="4.2069992"><ele>621.2857142857143</ele><time>2026-04-02T15:54:04.304Z</time></trkpt><trkpt lat="45.3450255" lon="4.207014"><ele>619.4285714285714</ele><time>2026-04-02T15:54:06.318Z</time></trkpt><trkpt lat="45.3450913" lon="4.2070278"><ele>617.5714285714287</ele><time>2026-04-02T15:54:09.306Z</time></trkpt><trkpt lat="45.345138" lon="4.2070891"><ele>615.7142857142858</ele><time>2026-04-02T15:54:11.317Z</time></trkpt><trkpt lat="45.3451775" lon="4.2071801"><ele>613.8571428571429</ele><time>2026-04-02T15:54:14.317Z</time></trkpt><trkpt lat="45.3451955" lon="4.207277"><ele>612.0</ele><time>2026-04-02T15:54:28.318Z</time></trkpt><trkpt lat="45.3452197" lon="4.207361"><ele>612.0</ele><time>2026-04-02T15:54:31.317Z</time></trkpt><trkpt lat="45.3452329" lon="4.2074574"><ele>612.0</ele><time>2026-04-02T15:54:35.317Z</time></trkpt><trkpt lat="45.3452758" lon="4.2075306"><ele>612.0</ele><time>2026-04-02T15:55:33.317Z</time></trkpt><trkpt lat="45.345337" lon="4.2076095"><ele>612.0</ele><time>2026-04-02T15:55:52.318Z</time></trkpt><trkpt lat="45.3453963" lon="4.2076414"><ele>612.0</ele><time>2026-04-02T15:56:50.317Z</time></trkpt><trkpt lat="45.345351" lon="4.2076536"><ele>612.0</ele><time>2026-04-02T16:06:14.32Z</time></trkpt><trkpt lat="45.3452964" lon="4.2075861"><ele>612.0</ele><time>2026-04-02T16:06:20.321Z</time></trkpt><trkpt lat="45.3452487" lon="4.2076482"><ele>612.0</ele><time>2026-04-02T16:06:28.319Z</time></trkpt><trkpt lat="45.3452241" lon="4.2077369"><ele>612.0</ele><time>2026-04-02T16:07:43.319Z</time></trkpt><trkpt lat="45.3451791" lon="4.2078307"><ele>612.0</ele><time>2026-04-02T16:07:51.32Z</time></trkpt><trkpt lat="45.3451494" lon="4.2079174"><ele>612.0</ele><time>2026-04-02T16:07:55.319Z</time></trkpt><trkpt lat="45.345121" lon="4.2079975"><ele>612.0</ele><time>2026-04-02T16:08:08.32Z</time></trkpt><trkpt lat="45.3451014" lon="4.208085"><ele>612.0</ele><time>2026-04-02T16:08:16.307Z</time></trkpt><trkpt lat="45.3450795" lon="4.2081741"><ele>612.0</ele><time>2026-04-02T16:08:18.32Z</time></trkpt><trkpt lat="45.3450306" lon="4.2082737"><ele>612.8333333333334</ele><time>2026-04-02T16:08:20.321Z</time></trkpt><trkpt lat="45.3449955" lon="4.2083577"><ele>613.6666666666666</ele><time>2026-04-02T16:08:23.32Z</time></trkpt><trkpt lat="45.3449734" lon="4.2084807"><ele>614.5</ele><time>2026-04-02T16:08:26.313Z</time></trkpt><trkpt lat="45.3449499" lon="4.2085804"><ele>615.3333333333333</ele><time>2026-04-02T16:08:28.32Z</time></trkpt><trkpt lat="45.3449096" lon="4.20868"><ele>616.1666666666666</ele><time>2026-04-02T16:08:30.32Z</time></trkpt><trkpt lat="45.3449383" lon="4.2088396"><ele>617.0</ele><time>2026-04-02T16:08:32.32Z</time></trkpt><trkpt lat="45.3449559" lon="4.2089659"><ele>617.0</ele><time>2026-04-02T16:08:34.32Z</time></trkpt><trkpt lat="45.3449615" lon="4.2090637"><ele>617.0</ele><time>2026-04-02T16:08:36.321Z</time></trkpt><trkpt lat="45.3449649" lon="4.2091782"><ele>617.0</ele><time>2026-04-02T16:08:38.321Z</time></trkpt><trkpt lat="45.3450082" lon="4.2092469"><ele>617.0</ele><time>2026-04-02T16:08:39.321Z</time></trkpt><trkpt lat="45.3451009" lon="4.2093143"><ele>617.0</ele><time>2026-04-02T16:08:41.319Z</time></trkpt><trkpt lat="45.3451666" lon="4.2093172"><ele>617.0</ele><time>2026-04-02T16:08:43.321Z</time></trkpt><trkpt lat="45.3452573" lon="4.2092425"><ele>617.0</ele><time>2026-04-02T16:08:45.32Z</time></trkpt><trkpt lat="45.3453514" lon="4.2091494"><ele>617.0</ele><time>2026-04-02T16:08:47.308Z</time></trkpt><trkpt lat="45.3454513" lon="4.2090669"><ele>617.0</ele><time>2026-04-02T16:08:49.319Z</time></trkpt><trkpt lat="45.3455429" lon="4.2089608"><ele>617.0</ele><time>2026-04-02T16:08:51.321Z</time></trkpt><trkpt lat="45.3456119" lon="4.2088481"><ele>618.8333333333333</ele><time>2026-04-02T16:08:53.319Z</time></trkpt><trkpt lat="45.3456705" lon="4.2087988"><ele>620.6666666666666</ele><time>2026-04-02T16:08:54.321Z</time></trkpt><trkpt lat="45.3457235" lon="4.2087451"><ele>622.5</ele><time>2026-04-02T16:08:55.32Z</time></trkpt><trkpt lat="45.345834" lon="4.2086436"><ele>624.3333333333334</ele><time>2026-04-02T16:08:57.32Z</time></trkpt><trkpt lat="45.3458946" lon="4.2085839"><ele>626.1666666666667</ele><time>2026-04-02T16:08:58.319Z</time></trkpt><trkpt lat="45.3459543" lon="4.2085411"><ele>628.0</ele><time>2026-04-02T16:08:59.32Z</time></trkpt><trkpt lat="45.3460573" lon="4.2085121"><ele>628.0</ele><time>2026-04-02T16:09:01.321Z</time></trkpt><trkpt lat="45.3461302" lon="4.2084594"><ele>628.0</ele><time>2026-04-02T16:09:03.321Z</time></trkpt><trkpt lat="45.3461828" lon="4.2084017"><ele>628.0</ele><time>2026-04-02T16:09:05.32Z</time></trkpt><trkpt lat="45.3462503" lon="4.208366"><ele>628.0</ele><time>2026-04-02T16:09:16.32Z</time></trkpt><trkpt lat="45.3463363" lon="4.2083974"><ele>628.0</ele><time>2026-04-02T16:09:18.321Z</time></trkpt><trkpt lat="45.3464213" lon="4.2084099"><ele>628.0</ele><time>2026-04-02T16:09:20.321Z</time></trkpt><trkpt lat="45.3465347" lon="4.2084481"><ele>630.3333333333334</ele><time>2026-04-02T16:09:22.32Z</time></trkpt><trkpt lat="45.3466036" lon="4.2084717"><ele>632.6666666666667</ele><time>2026-04-02T16:09:23.32Z</time></trkpt><trkpt lat="45.3466745" lon="4.2084948"><ele>635.0</ele><time>2026-04-02T16:09:24.32Z</time></trkpt><trkpt lat="45.3467678" lon="4.2085137"><ele>637.3333333333334</ele><time>2026-04-02T16:09:25.319Z</time></trkpt><trkpt lat="45.346844" lon="4.2085479"><ele>639.6666666666666</ele><time>2026-04-02T16:09:26.321Z</time></trkpt><trkpt lat="45.3469173" lon="4.2085606"><ele>642.0</ele><time>2026-04-02T16:09:27.32Z</time></trkpt><trkpt lat="45.3470025" lon="4.2085751"><ele>642.0</ele><time>2026-04-02T16:09:28.319Z</time></trkpt><trkpt lat="45.3470968" lon="4.2086031"><ele>642.0</ele><time>2026-04-02T16:09:29.321Z</time></trkpt><trkpt lat="45.3471882" lon="4.2086331"><ele>642.0</ele><time>2026-04-02T16:09:30.32Z</time></trkpt><trkpt lat="45.3472822" lon="4.2086626"><ele>642.0</ele><time>2026-04-02T16:09:31.32Z</time></trkpt><trkpt lat="45.3473681" lon="4.2087017"><ele>642.0</ele><time>2026-04-02T16:09:32.321Z</time></trkpt><trkpt lat="45.3474562" lon="4.2087298"><ele>642.5</ele><time>2026-04-02T16:09:33.32Z</time></trkpt><trkpt lat="45.3475422" lon="4.2087463"><ele>643.0</ele><time>2026-04-02T16:09:34.32Z</time></trkpt><trkpt lat="45.3476246" lon="4.2087629"><ele>643.5</ele><time>2026-04-02T16:09:35.32Z</time></trkpt><trkpt lat="45.3477012" lon="4.2087782"><ele>644.0</ele><time>2026-04-02T16:09:36.32Z</time></trkpt><trkpt lat="45.347777" lon="4.2088079"><ele>644.5</ele><time>2026-04-02T16:09:37.32Z</time></trkpt><trkpt lat="45.3478535" lon="4.2088235"><ele>645.0</ele><time>2026-04-02T16:09:38.32Z</time></trkpt><trkpt lat="45.3479359" lon="4.2088399"><ele>645.0</ele><time>2026-04-02T16:09:39.321Z</time></trkpt><trkpt lat="45.3480127" lon="4.2088675"><ele>645.0</ele><time>2026-04-02T16:09:40.319Z</time></trkpt><trkpt lat="45.3480971" lon="4.2088917"><ele>645.0</ele><time>2026-04-02T16:09:41.321Z</time></trkpt><trkpt lat="45.3481819" lon="4.208921"><ele>645.0</ele><time>2026-04-02T16:09:42.32Z</time></trkpt><trkpt lat="45.3482692" lon="4.2089396"><ele>645.0</ele><time>2026-04-02T16:09:43.319Z</time></trkpt><trkpt lat="45.3483398" lon="4.2089668"><ele>645.0</ele><time>2026-04-02T16:09:44.321Z</time></trkpt><trkpt lat="45.3484112" lon="4.2090246"><ele>647.1666666666666</ele><time>2026-04-02T16:09:45.321Z</time></trkpt><trkpt lat="45.3484831" lon="4.2090832"><ele>649.3333333333334</ele><time>2026-04-02T16:09:46.32Z</time></trkpt><trkpt lat="45.3485501" lon="4.2091544"><ele>651.5</ele><time>2026-04-02T16:09:47.319Z</time></trkpt><trkpt lat="45.3486161" lon="4.2092109"><ele>653.6666666666667</ele><time>2026-04-02T16:09:48.321Z</time></trkpt><trkpt lat="45.3486752" lon="4.209283"><ele>655.8333333333334</ele><time>2026-04-02T16:09:49.321Z</time></trkpt><trkpt lat="45.3487342" lon="4.2093546"><ele>658.0</ele><time>2026-04-02T16:09:50.319Z</time></trkpt><trkpt lat="45.3487956" lon="4.2094174"><ele>658.0</ele><time>2026-04-02T16:09:51.32Z</time></trkpt><trkpt lat="45.3488571" lon="4.2094874"><ele>658.0</ele><time>2026-04-02T16:09:52.321Z</time></trkpt><trkpt lat="45.3489164" lon="4.2095611"><ele>658.0</ele><time>2026-04-02T16:09:53.321Z</time></trkpt><trkpt lat="45.3489731" lon="4.2096233"><ele>658.0</ele><time>2026-04-02T16:09:54.32Z</time></trkpt><trkpt lat="45.3490258" lon="4.2096736"><ele>658.0</ele><time>2026-04-02T16:09:55.32Z</time></trkpt><trkpt lat="45.3491357" lon="4.2097445"><ele>658.0</ele><time>2026-04-02T16:09:57.321Z</time></trkpt><trkpt lat="45.349258" lon="4.2098319"><ele>658.3333333333334</ele><time>2026-04-02T16:09:59.32Z</time></trkpt><trkpt lat="45.3493222" lon="4.2098887"><ele>658.6666666666667</ele><time>2026-04-02T16:10:00.321Z</time></trkpt><trkpt lat="45.3493849" lon="4.2099474"><ele>659.0</ele><time>2026-04-02T16:10:01.32Z</time></trkpt><trkpt lat="45.3494581" lon="4.2100257"><ele>659.3333333333334</ele><time>2026-04-02T16:10:02.321Z</time></trkpt><trkpt lat="45.3495295" lon="4.2101107"><ele>659.6666666666666</ele><time>2026-04-02T16:10:03.32Z</time></trkpt><trkpt lat="45.3496117" lon="4.2102032"><ele>660.0</ele><time>2026-04-02T16:10:04.32Z</time></trkpt><trkpt lat="45.3497023" lon="4.2103025"><ele>659.5</ele><time>2026-04-02T16:10:05.32Z</time></trkpt><trkpt lat="45.3497984" lon="4.2104002"><ele>659.0</ele><time>2026-04-02T16:10:06.32Z</time></trkpt><trkpt lat="45.3498982" lon="4.2105055"><ele>658.5</ele><time>2026-04-02T16:10:07.32Z</time></trkpt><trkpt lat="45.3499932" lon="4.2106057"><ele>658.0</ele><time>2026-04-02T16:10:08.321Z</time></trkpt><trkpt lat="45.3500859" lon="4.210701"><ele>659.2</ele><time>2026-04-02T16:10:09.321Z</time></trkpt><trkpt lat="45.3501807" lon="4.2108026"><ele>660.4</ele><time>2026-04-02T16:10:10.32Z</time></trkpt><trkpt lat="45.3502696" lon="4.2108985"><ele>661.6</ele><time>2026-04-02T16:10:11.321Z</time></trkpt><trkpt lat="45.3503611" lon="4.2109932"><ele>662.8000000000001</ele><time>2026-04-02T16:10:12.32Z</time></trkpt><trkpt lat="45.350449" lon="4.2110769"><ele>664.0</ele><time>2026-04-02T16:10:13.321Z</time></trkpt><trkpt lat="45.3505264" lon="4.211162"><ele>662.5</ele><time>2026-04-02T16:10:14.321Z</time></trkpt><trkpt lat="45.3506006" lon="4.2112324"><ele>661.0</ele><time>2026-04-02T16:10:15.32Z</time></trkpt><trkpt lat="45.350671" lon="4.2112937"><ele>659.5</ele><time>2026-04-02T16:10:16.321Z</time></trkpt><trkpt lat="45.3507441" lon="4.2113571"><ele>658.0</ele><time>2026-04-02T16:10:17.321Z</time></trkpt><trkpt lat="45.3508132" lon="4.2114307"><ele>656.5</ele><time>2026-04-02T16:10:18.321Z</time></trkpt><trkpt lat="45.3508823" lon="4.2114964"><ele>655.0</ele><time>2026-04-02T16:10:19.321Z</time></trkpt><trkpt lat="45.3509477" lon="4.2115606"><ele>655.0</ele><time>2026-04-02T16:10:20.32Z</time></trkpt><trkpt lat="45.3510446" lon="4.2116538"><ele>655.0</ele><time>2026-04-02T16:10:22.321Z</time></trkpt><trkpt lat="45.3510959" lon="4.2117483"><ele>655.0</ele><time>2026-04-02T16:10:24.319Z</time></trkpt><trkpt lat="45.3511214" lon="4.2118628"><ele>655.0</ele><time>2026-04-02T16:10:26.321Z</time></trkpt><trkpt lat="45.3511298" lon="4.2120083"><ele>655.0</ele><time>2026-04-02T16:10:28.321Z</time></trkpt><trkpt lat="45.3511384" lon="4.2121988"><ele>655.0</ele><time>2026-04-02T16:10:30.321Z</time></trkpt><trkpt lat="45.3511376" lon="4.2123012"><ele>655.0</ele><time>2026-04-02T16:10:31.32Z</time></trkpt><trkpt lat="45.3511364" lon="4.2124134"><ele>655.0</ele><time>2026-04-02T16:10:32.321Z</time></trkpt><trkpt lat="45.3511369" lon="4.2125185"><ele>655.0</ele><time>2026-04-02T16:10:33.32Z</time></trkpt><trkpt lat="45.3511428" lon="4.2126212"><ele>655.0</ele><time>2026-04-02T16:10:34.32Z</time></trkpt><trkpt lat="45.3511489" lon="4.212729"><ele>655.0</ele><time>2026-04-02T16:10:35.321Z</time></trkpt><trkpt lat="45.3511545" lon="4.2128316"><ele>655.0</ele><time>2026-04-02T16:10:36.319Z</time></trkpt><trkpt lat="45.351166" lon="4.2129868"><ele>655.0</ele><time>2026-04-02T16:10:38.32Z</time></trkpt><trkpt lat="45.3512002" lon="4.2130997"><ele>655.0</ele><time>2026-04-02T16:10:40.32Z</time></trkpt><trkpt lat="45.3512887" lon="4.2132171"><ele>655.0</ele><time>2026-04-02T16:10:42.321Z</time></trkpt><trkpt lat="45.3513452" lon="4.2132811"><ele>655.0</ele><time>2026-04-02T16:10:43.319Z</time></trkpt><trkpt lat="45.3514092" lon="4.2133502"><ele>655.0</ele><time>2026-04-02T16:10:44.32Z</time></trkpt><trkpt lat="45.3514675" lon="4.2134208"><ele>655.0</ele><time>2026-04-02T16:10:45.321Z</time></trkpt><trkpt lat="45.3515243" lon="4.2134879"><ele>654.5</ele><time>2026-04-02T16:10:46.321Z</time></trkpt><trkpt lat="45.3515742" lon="4.213552"><ele>654.0</ele><time>2026-04-02T16:10:47.321Z</time></trkpt><trkpt lat="45.3516195" lon="4.2136203"><ele>653.5</ele><time>2026-04-02T16:10:48.321Z</time></trkpt><trkpt lat="45.3516894" lon="4.2137388"><ele>653.0</ele><time>2026-04-02T16:10:50.32Z</time></trkpt><trkpt lat="45.3517393" lon="4.2138067"><ele>652.5</ele><time>2026-04-02T16:10:52.319Z</time></trkpt><trkpt lat="45.3517919" lon="4.2138577"><ele>652.0</ele><time>2026-04-02T16:11:00.32Z</time></trkpt><trkpt lat="45.3518978" lon="4.2138391"><ele>652.0</ele><time>2026-04-02T16:11:02.32Z</time></trkpt><trkpt lat="45.3519695" lon="4.2138253"><ele>652.0</ele><time>2026-04-02T16:11:03.321Z</time></trkpt><trkpt lat="45.3520503" lon="4.213806"><ele>652.0</ele><time>2026-04-02T16:11:04.32Z</time></trkpt><trkpt lat="45.3521397" lon="4.2137871"><ele>652.0</ele><time>2026-04-02T16:11:05.321Z</time></trkpt><trkpt lat="45.3522356" lon="4.2137687"><ele>652.0</ele><time>2026-04-02T16:11:06.32Z</time></trkpt><trkpt lat="45.3523373" lon="4.2137485"><ele>652.0</ele><time>2026-04-02T16:11:07.32Z</time></trkpt><trkpt lat="45.3524453" lon="4.2137267"><ele>651.2</ele><time>2026-04-02T16:11:08.32Z</time></trkpt><trkpt lat="45.3525478" lon="4.2137089"><ele>650.4000000000001</ele><time>2026-04-02T16:11:09.321Z</time></trkpt><trkpt lat="45.3526524" lon="4.2136955"><ele>649.5999999999999</ele><time>2026-04-02T16:11:10.32Z</time></trkpt><trkpt lat="45.3527494" lon="4.2136817"><ele>648.8</ele><time>2026-04-02T16:11:11.321Z</time></trkpt><trkpt lat="45.352844" lon="4.2136644"><ele>648.0</ele><time>2026-04-02T16:11:12.321Z</time></trkpt><trkpt lat="45.3529321" lon="4.2136518"><ele>648.0</ele><time>2026-04-02T16:11:13.321Z</time></trkpt><trkpt lat="45.3530123" lon="4.2136365"><ele>648.0</ele><time>2026-04-02T16:11:14.32Z</time></trkpt><trkpt lat="45.3530795" lon="4.2136299"><ele>648.0</ele><time>2026-04-02T16:11:15.32Z</time></trkpt><trkpt lat="45.3531741" lon="4.2136807"><ele>648.0</ele><time>2026-04-02T16:11:17.32Z</time></trkpt><trkpt lat="45.3532736" lon="4.2136641"><ele>648.0</ele><time>2026-04-02T16:11:19.32Z</time></trkpt><trkpt lat="45.3533933" lon="4.2136404"><ele>646.5</ele><time>2026-04-02T16:11:21.322Z</time></trkpt><trkpt lat="45.3534762" lon="4.2136171"><ele>645.0</ele><time>2026-04-02T16:11:22.321Z</time></trkpt><trkpt lat="45.3535635" lon="4.2136018"><ele>643.5</ele><time>2026-04-02T16:11:23.322Z</time></trkpt><trkpt lat="45.3536435" lon="4.2136048"><ele>642.0</ele><time>2026-04-02T16:11:24.319Z</time></trkpt><trkpt lat="45.3537147" lon="4.2135984"><ele>640.5</ele><time>2026-04-02T16:11:25.321Z</time></trkpt><trkpt lat="45.3537972" lon="4.2135775"><ele>639.0</ele><time>2026-04-02T16:11:26.32Z</time></trkpt><trkpt lat="45.3538778" lon="4.2135621"><ele>638.1666666666666</ele><time>2026-04-02T16:11:27.32Z</time></trkpt><trkpt lat="45.3539662" lon="4.2135432"><ele>637.3333333333334</ele><time>2026-04-02T16:11:28.32Z</time></trkpt><trkpt lat="45.3540528" lon="4.2135215"><ele>636.5</ele><time>2026-04-02T16:11:29.32Z</time></trkpt><trkpt lat="45.3541343" lon="4.2134967"><ele>635.6666666666667</ele><time>2026-04-02T16:11:30.32Z</time></trkpt><trkpt lat="45.3542101" lon="4.2134774"><ele>634.8333333333334</ele><time>2026-04-02T16:11:31.32Z</time></trkpt><trkpt lat="45.3542895" lon="4.213465"><ele>634.0</ele><time>2026-04-02T16:11:32.32Z</time></trkpt><trkpt lat="45.3543586" lon="4.2134234"><ele>634.0</ele><time>2026-04-02T16:11:33.32Z</time></trkpt><trkpt lat="45.3544135" lon="4.2133647"><ele>634.0</ele><time>2026-04-02T16:11:34.32Z</time></trkpt><trkpt lat="45.3544734" lon="4.2133031"><ele>634.0</ele><time>2026-04-02T16:11:35.319Z</time></trkpt><trkpt lat="45.3545401" lon="4.2132508"><ele>634.0</ele><time>2026-04-02T16:11:36.32Z</time></trkpt><trkpt lat="45.3546086" lon="4.2131998"><ele>634.0</ele><time>2026-04-02T16:11:37.321Z</time></trkpt><trkpt lat="45.3546764" lon="4.213148"><ele>634.0</ele><time>2026-04-02T16:11:38.32Z</time></trkpt><trkpt lat="45.3547439" lon="4.2130794"><ele>633.2857142857143</ele><time>2026-04-02T16:11:39.321Z</time></trkpt><trkpt lat="45.3548099" lon="4.213004"><ele>632.5714285714286</ele><time>2026-04-02T16:11:40.321Z</time></trkpt><trkpt lat="45.3548676" lon="4.2129265"><ele>631.8571428571429</ele><time>2026-04-02T16:11:41.32Z</time></trkpt><trkpt lat="45.3549228" lon="4.2128569"><ele>631.1428571428571</ele><time>2026-04-02T16:11:42.32Z</time></trkpt><trkpt lat="45.3549767" lon="4.2127853"><ele>630.4285714285714</ele><time>2026-04-02T16:11:43.321Z</time></trkpt><trkpt lat="45.3550322" lon="4.2127236"><ele>629.7142857142857</ele><time>2026-04-02T16:11:44.32Z</time></trkpt><trkpt lat="45.3550749" lon="4.2126577"><ele>629.0</ele><time>2026-04-02T16:11:45.321Z</time></trkpt><trkpt lat="45.3551166" lon="4.2125887"><ele>629.0</ele><time>2026-04-02T16:11:46.32Z</time></trkpt><trkpt lat="45.3551597" lon="4.2125214"><ele>629.0</ele><time>2026-04-02T16:11:47.321Z</time></trkpt><trkpt lat="45.3552075" lon="4.2124491"><ele>629.0</ele><time>2026-04-02T16:11:48.321Z</time></trkpt><trkpt lat="45.3552653" lon="4.212323"><ele>629.0</ele><time>2026-04-02T16:11:50.32Z</time></trkpt><trkpt lat="45.3553252" lon="4.2121784"><ele>629.0</ele><time>2026-04-02T16:11:52.32Z</time></trkpt><trkpt lat="45.3553672" lon="4.2121066"><ele>629.0</ele><time>2026-04-02T16:11:53.319Z</time></trkpt><trkpt lat="45.3554055" lon="4.2120349"><ele>629.0</ele><time>2026-04-02T16:11:54.321Z</time></trkpt><trkpt lat="45.3554489" lon="4.2119617"><ele>629.0</ele><time>2026-04-02T16:11:55.321Z</time></trkpt><trkpt lat="45.3555162" lon="4.2118248"><ele>629.0</ele><time>2026-04-02T16:11:57.322Z</time></trkpt><trkpt lat="45.3555509" lon="4.2116848"><ele>629.0</ele><time>2026-04-02T16:11:59.32Z</time></trkpt><trkpt lat="45.3555925" lon="4.2115949"><ele>629.0</ele><time>2026-04-02T16:12:01.32Z</time></trkpt><trkpt lat="45.3556795" lon="4.2115596"><ele>627.4</ele><time>2026-04-02T16:12:06.32Z</time></trkpt><trkpt lat="45.3557571" lon="4.2115868"><ele>625.8</ele><time>2026-04-02T16:12:08.322Z</time></trkpt><trkpt lat="45.355828" lon="4.211606"><ele>624.2</ele><time>2026-04-02T16:12:09.32Z</time></trkpt><trkpt lat="45.355959" lon="4.2116607"><ele>622.6</ele><time>2026-04-02T16:12:11.321Z</time></trkpt><trkpt lat="45.3560713" lon="4.2116812"><ele>621.0</ele><time>2026-04-02T16:12:13.322Z</time></trkpt><trkpt lat="45.356157" lon="4.2116189"><ele>620.9999999999999</ele><time>2026-04-02T16:12:15.321Z</time></trkpt><trkpt lat="45.356226" lon="4.2115636"><ele>621.0</ele><time>2026-04-02T16:12:17.32Z</time></trkpt><trkpt lat="45.3562853" lon="4.2116039"><ele>621.0</ele><time>2026-04-02T16:12:19.32Z</time></trkpt><trkpt lat="45.3563099" lon="4.2116878"><ele>621.0</ele><time>2026-04-02T16:12:21.321Z</time></trkpt><trkpt lat="45.356346" lon="4.2117811"><ele>621.0</ele><time>2026-04-02T16:12:31.319Z</time></trkpt><trkpt lat="45.3562686" lon="4.2117829"><ele>620.9999999999999</ele><time>2026-04-02T16:12:36.322Z</time></trkpt><trkpt lat="45.3562042" lon="4.211741"><ele>621.0</ele><time>2026-04-02T16:12:37.32Z</time></trkpt><trkpt lat="45.3561247" lon="4.2116956"><ele>621.0</ele><time>2026-04-02T16:12:38.32Z</time></trkpt><trkpt lat="45.3560324" lon="4.2116587"><ele>621.0</ele><time>2026-04-02T16:12:39.321Z</time></trkpt><trkpt lat="45.3559498" lon="4.2116307"><ele>621.0</ele><time>2026-04-02T16:12:40.321Z</time></trkpt><trkpt lat="45.3558682" lon="4.2116013"><ele>621.0</ele><time>2026-04-02T16:12:41.319Z</time></trkpt><trkpt lat="45.3557993" lon="4.2115732"><ele>621.0</ele><time>2026-04-02T16:12:42.319Z</time></trkpt><trkpt lat="45.3556957" lon="4.2115272"><ele>621.0</ele><time>2026-04-02T16:12:44.32Z</time></trkpt><trkpt lat="45.3556309" lon="4.2114296"><ele>621.2</ele><time>2026-04-02T16:12:47.321Z</time></trkpt><trkpt lat="45.3556307" lon="4.2112561"><ele>621.4000000000001</ele><time>2026-04-02T16:12:49.322Z</time></trkpt><trkpt lat="45.3556309" lon="4.2111551"><ele>621.6</ele><time>2026-04-02T16:12:50.321Z</time></trkpt><trkpt lat="45.355627" lon="4.211038"><ele>621.8000000000001</ele><time>2026-04-02T16:12:51.32Z</time></trkpt><trkpt lat="45.3556327" lon="4.2108885"><ele>622.0</ele><time>2026-04-02T16:12:52.322Z</time></trkpt><trkpt lat="45.355652" lon="4.2107656"><ele>621.4</ele><time>2026-04-02T16:12:53.321Z</time></trkpt><trkpt lat="45.3556907" lon="4.2106552"><ele>620.8000000000001</ele><time>2026-04-02T16:12:54.32Z</time></trkpt><trkpt lat="45.3557481" lon="4.2105385"><ele>620.2</ele><time>2026-04-02T16:12:55.322Z</time></trkpt><trkpt lat="45.3558161" lon="4.2104311"><ele>619.6</ele><time>2026-04-02T16:12:56.321Z</time></trkpt><trkpt lat="45.3558849" lon="4.2103403"><ele>619.0</ele><time>2026-04-02T16:12:57.321Z</time></trkpt><trkpt lat="45.3559507" lon="4.2102588"><ele>619.0</ele><time>2026-04-02T16:12:58.322Z</time></trkpt><trkpt lat="45.3560383" lon="4.2101817"><ele>619.0</ele><time>2026-04-02T16:12:59.321Z</time></trkpt><trkpt lat="45.3561267" lon="4.2101106"><ele>619.0</ele><time>2026-04-02T16:13:00.322Z</time></trkpt><trkpt lat="45.3562088" lon="4.2100375"><ele>619.0</ele><time>2026-04-02T16:13:01.321Z</time></trkpt><trkpt lat="45.3562904" lon="4.2099664"><ele>619.0</ele><time>2026-04-02T16:13:02.32Z</time></trkpt><trkpt lat="45.3563718" lon="4.2098939"><ele>617.0</ele><time>2026-04-02T16:13:03.319Z</time></trkpt><trkpt lat="45.356446" lon="4.2098202"><ele>615.0</ele><time>2026-04-02T16:13:04.322Z</time></trkpt><trkpt lat="45.35651" lon="4.2097343"><ele>613.0</ele><time>2026-04-02T16:13:05.321Z</time></trkpt><trkpt lat="45.3565775" lon="4.2096423"><ele>611.0</ele><time>2026-04-02T16:13:06.321Z</time></trkpt><trkpt lat="45.3566403" lon="4.2095541"><ele>609.0</ele><time>2026-04-02T16:13:07.321Z</time></trkpt><trkpt lat="45.356686" lon="4.209449"><ele>607.0</ele><time>2026-04-02T16:13:08.322Z</time></trkpt><trkpt lat="45.3567211" lon="4.2093414"><ele>607.0</ele><time>2026-04-02T16:13:09.322Z</time></trkpt><trkpt lat="45.3567469" lon="4.2092278"><ele>607.0</ele><time>2026-04-02T16:13:10.321Z</time></trkpt><trkpt lat="45.3567602" lon="4.2091128"><ele>607.0</ele><time>2026-04-02T16:13:11.32Z</time></trkpt><trkpt lat="45.3567595" lon="4.2089908"><ele>607.0</ele><time>2026-04-02T16:13:12.321Z</time></trkpt><trkpt lat="45.3567484" lon="4.2088559"><ele>607.0</ele><time>2026-04-02T16:13:13.321Z</time></trkpt><trkpt lat="45.3567364" lon="4.2087254"><ele>607.0</ele><time>2026-04-02T16:13:14.322Z</time></trkpt><trkpt lat="45.35672" lon="4.2086319"><ele>606.1666666666667</ele><time>2026-04-02T16:13:15.321Z</time></trkpt><trkpt lat="45.3567144" lon="4.2084924"><ele>605.3333333333334</ele><time>2026-04-02T16:13:17.321Z</time></trkpt><trkpt lat="45.3567531" lon="4.2083704"><ele>604.5</ele><time>2026-04-02T16:13:19.321Z</time></trkpt><trkpt lat="45.3567986" lon="4.2082819"><ele>603.6666666666666</ele><time>2026-04-02T16:13:20.321Z</time></trkpt><trkpt lat="45.3568484" lon="4.2081958"><ele>602.8333333333333</ele><time>2026-04-02T16:13:21.32Z</time></trkpt><trkpt lat="45.3568963" lon="4.2081049"><ele>602.0</ele><time>2026-04-02T16:13:22.321Z</time></trkpt><trkpt lat="45.3569438" lon="4.2080184"><ele>602.0</ele><time>2026-04-02T16:13:23.322Z</time></trkpt><trkpt lat="45.3569883" lon="4.2079334"><ele>602.0</ele><time>2026-04-02T16:13:24.32Z</time></trkpt><trkpt lat="45.3570288" lon="4.2078626"><ele>602.0</ele><time>2026-04-02T16:13:25.32Z</time></trkpt><trkpt lat="45.3571106" lon="4.2077663"><ele>602.0</ele><time>2026-04-02T16:13:27.319Z</time></trkpt><trkpt lat="45.3571939" lon="4.2076666"><ele>602.0</ele><time>2026-04-02T16:13:29.321Z</time></trkpt><trkpt lat="45.357282" lon="4.2075828"><ele>600.6666666666666</ele><time>2026-04-02T16:13:31.322Z</time></trkpt><trkpt lat="45.3573885" lon="4.2075594"><ele>599.3333333333333</ele><time>2026-04-02T16:13:33.322Z</time></trkpt><trkpt lat="45.3574498" lon="4.2075948"><ele>598.0</ele><time>2026-04-02T16:13:34.322Z</time></trkpt><trkpt lat="45.3575172" lon="4.2076615"><ele>596.6666666666666</ele><time>2026-04-02T16:13:35.32Z</time></trkpt><trkpt lat="45.3576003" lon="4.2077369"><ele>595.3333333333334</ele><time>2026-04-02T16:13:36.322Z</time></trkpt><trkpt lat="45.357665" lon="4.2078097"><ele>594.0</ele><time>2026-04-02T16:13:37.321Z</time></trkpt><trkpt lat="45.3577317" lon="4.2078777"><ele>594.0</ele><time>2026-04-02T16:13:38.321Z</time></trkpt><trkpt lat="45.357816" lon="4.2079499"><ele>594.0</ele><time>2026-04-02T16:13:39.321Z</time></trkpt><trkpt lat="45.3578985" lon="4.208011"><ele>594.0</ele><time>2026-04-02T16:13:40.322Z</time></trkpt><trkpt lat="45.3579705" lon="4.2080775"><ele>594.0</ele><time>2026-04-02T16:13:41.32Z</time></trkpt><trkpt lat="45.3580339" lon="4.2081302"><ele>594.0</ele><time>2026-04-02T16:13:42.321Z</time></trkpt><trkpt lat="45.3581385" lon="4.2082036"><ele>593.0</ele><time>2026-04-02T16:13:44.321Z</time></trkpt><trkpt lat="45.3581887" lon="4.2082602"><ele>592.0</ele><time>2026-04-02T16:13:45.32Z</time></trkpt><trkpt lat="45.3582441" lon="4.2084135"><ele>591.0</ele><time>2026-04-02T16:13:47.32Z</time></trkpt><trkpt lat="45.3582636" lon="4.2085087"><ele>590.0</ele><time>2026-04-02T16:13:48.32Z</time></trkpt><trkpt lat="45.3582905" lon="4.2086197"><ele>589.0</ele><time>2026-04-02T16:13:49.322Z</time></trkpt><trkpt lat="45.3583063" lon="4.2087219"><ele>588.0</ele><time>2026-04-02T16:13:50.32Z</time></trkpt><trkpt lat="45.3583409" lon="4.208804"><ele>588.0</ele><time>2026-04-02T16:13:51.32Z</time></trkpt><trkpt lat="45.358373" lon="4.2089125"><ele>588.0</ele><time>2026-04-02T16:13:52.321Z</time></trkpt><trkpt lat="45.3584213" lon="4.2090099"><ele>588.0</ele><time>2026-04-02T16:13:53.321Z</time></trkpt><trkpt lat="45.3584701" lon="4.209102"><ele>588.0</ele><time>2026-04-02T16:13:54.32Z</time></trkpt><trkpt lat="45.3585375" lon="4.2091748"><ele>588.0</ele><time>2026-04-02T16:13:55.321Z</time></trkpt><trkpt lat="45.3586031" lon="4.2092484"><ele>588.0</ele><time>2026-04-02T16:13:56.319Z</time></trkpt><trkpt lat="45.3586618" lon="4.2093237"><ele>588.8571428571429</ele><time>2026-04-02T16:13:57.321Z</time></trkpt><trkpt lat="45.3587265" lon="4.209384"><ele>589.7142857142858</ele><time>2026-04-02T16:13:58.321Z</time></trkpt><trkpt lat="45.358787" lon="4.2094395"><ele>590.5714285714286</ele><time>2026-04-02T16:13:59.321Z</time></trkpt><trkpt lat="45.358839" lon="4.2095194"><ele>591.4285714285714</ele><time>2026-04-02T16:14:00.321Z</time></trkpt><trkpt lat="45.3588846" lon="4.2095944"><ele>592.2857142857143</ele><time>2026-04-02T16:14:01.321Z</time></trkpt><trkpt lat="45.358936" lon="4.2096784"><ele>593.1428571428571</ele><time>2026-04-02T16:14:03.321Z</time></trkpt><trkpt lat="45.3590004" lon="4.2096976"><ele>594.0</ele><time>2026-04-02T16:14:08.322Z</time></trkpt><trkpt lat="45.3590712" lon="4.2096383"><ele>587.5</ele><time>2026-04-02T16:14:11.322Z</time></trkpt><trkpt lat="45.3591099" lon="4.2095236"><ele>581.0</ele><time>2026-04-02T16:14:13.322Z</time></trkpt><trkpt lat="45.3591352" lon="4.2094248"><ele>574.5</ele><time>2026-04-02T16:14:15.322Z</time></trkpt><trkpt lat="45.3591669" lon="4.2093079"><ele>568.0</ele><time>2026-04-02T16:14:18.322Z</time></trkpt><trkpt lat="45.3591669" lon="4.2091863"><ele>561.5</ele><time>2026-04-02T16:14:22.321Z</time></trkpt><trkpt lat="45.3592336" lon="4.2091582"><ele>555.0</ele><time>2026-04-02T16:14:26.32Z</time></trkpt><trkpt lat="45.3592902" lon="4.2091978"><ele>555.0</ele><time>2026-04-02T16:14:28.321Z</time></trkpt><trkpt lat="45.3593557" lon="4.2092335"><ele>555.0</ele><time>2026-04-02T16:14:32.322Z</time></trkpt><trkpt lat="45.3594054" lon="4.2091607"><ele>555.0</ele><time>2026-04-02T16:14:37.321Z</time></trkpt><trkpt lat="45.3594236" lon="4.2090536"><ele>555.0</ele><time>2026-04-02T16:14:40.321Z</time></trkpt><trkpt lat="45.3593781" lon="4.2088803"><ele>555.0</ele><time>2026-04-02T16:14:42.322Z</time></trkpt><trkpt lat="45.3593181" lon="4.2087662"><ele>555.0</ele><time>2026-04-02T16:14:43.321Z</time></trkpt><trkpt lat="45.3592648" lon="4.2086708"><ele>544.0</ele><time>2026-04-02T16:14:44.321Z</time></trkpt><trkpt lat="45.359212" lon="4.2085764"><ele>544.0</ele><time>2026-04-02T16:14:46.315Z</time></trkpt><trkpt lat="45.3591878" lon="4.2084755"><ele>544.0</ele><time>2026-04-02T16:14:49.322Z</time></trkpt></trkseg></trk></gpx>